PWSweather.com
Personal Weather Stations
Station Observations
1A3COP
Copperhill Airport Community, Copperhill, TN 37317

Copperhill Airport CommunityCopperhill, TN 37317

Lat: 35.015465, Lon: -84.340598

Elevation: 1830

Station Type: Acurite Pro 5 in 1

High Low Average
Temperature 48.0°F8.9°C 30.0°F-1.1°C 39.4°F4.1°C
Dew Point 43.6°F6.4°C 7.8°F-13.4°C 32.3°F0.2°C
Winds 8.1 mph 13.0 kmh Calm Calm 3.0 mph SE4.8 kmh SE
Wind Gusts 12.7 mph20.4 kmh -- 4.0 mph6.4 kmh
Humidity 99% 38% 78%
Pressure 28.42 in962.4 mb 28.27 in957.3 mb -
Precipitation 0.20 in5.1 mm - -
Hour Temp Dew Point Humidity Winds Wind Gusts Pressure Precip Precip Rate Daily Precip Total
12:00 AM 30.7°F-0.7°C 8.1°F-13.3°C 38% Calm Calm -- 28.41 in962.1 mb - 0.00 in0.0 mm 0.00 in0.0 mm
12:01 AM 30.7°F-0.7°C 8.1°F-13.3°C 38% 1.2 mph ESE1.9 kmh ESE 4.6 mph7.4 kmh 28.42 in962.4 mb - 0.00 in0.0 mm 0.00 in0.0 mm
12:02 AM 30.6°F-0.8°C 8.0°F-13.3°C 38% 2.3 mph ESE3.7 kmh ESE 4.6 mph7.4 kmh 28.42 in962.4 mb - 0.00 in0.0 mm 0.00 in0.0 mm
12:03 AM 30.6°F-0.8°C 8.0°F-13.3°C 38% 2.3 mph SE3.7 kmh SE 4.6 mph7.4 kmh 28.42 in962.4 mb - 0.00 in0.0 mm 0.00 in0.0 mm
12:04 AM 30.6°F-0.8°C 8.0°F-13.3°C 38% 2.3 mph E3.7 kmh E 4.6 mph7.4 kmh 28.42 in962.4 mb - 0.00 in0.0 mm 0.00 in0.0 mm
12:05 AM 30.6°F-0.8°C 8.0°F-13.3°C 38% 3.5 mph SSE5.6 kmh SSE 6.9 mph11.1 kmh 28.42 in962.4 mb - 0.00 in0.0 mm 0.00 in0.0 mm
12:06 AM 30.5°F-0.8°C 7.9°F-13.4°C 38% 4.6 mph SE7.4 kmh SE 4.6 mph7.4 kmh 28.42 in962.4 mb - 0.00 in0.0 mm 0.00 in0.0 mm
12:07 AM 30.4°F-0.9°C 7.8°F-13.4°C 38% 3.5 mph ESE5.6 kmh ESE 5.8 mph9.3 kmh 28.42 in962.4 mb - 0.00 in0.0 mm 0.00 in0.0 mm
12:08 AM 30.4°F-0.9°C 7.8°F-13.4°C 38% 2.3 mph SSE3.7 kmh SSE 5.8 mph9.3 kmh 28.42 in962.4 mb - 0.00 in0.0 mm 0.00 in0.0 mm
12:09 AM 30.4°F-0.9°C 7.8°F-13.4°C 38% 2.3 mph E3.7 kmh E 3.5 mph5.6 kmh 28.42 in962.4 mb - 0.00 in0.0 mm 0.00 in0.0 mm
12:10 AM 30.4°F-0.9°C 7.8°F-13.4°C 38% 2.3 mph SE3.7 kmh SE 5.8 mph9.3 kmh 28.42 in962.4 mb - 0.00 in0.0 mm 0.00 in0.0 mm
12:11 AM 30.4°F-0.9°C 7.8°F-13.4°C 38% 4.6 mph SE7.4 kmh SE 5.8 mph9.3 kmh 28.42 in962.4 mb - 0.00 in0.0 mm 0.00 in0.0 mm
12:12 AM 30.4°F-0.9°C 7.8°F-13.4°C 38% 3.5 mph SE5.6 kmh SE 5.8 mph9.3 kmh 28.42 in962.4 mb - 0.00 in0.0 mm 0.00 in0.0 mm
12:13 AM 30.4°F-0.9°C 8.4°F-13.1°C 39% 3.5 mph S5.6 kmh S 4.6 mph7.4 kmh 28.42 in962.4 mb - 0.00 in0.0 mm 0.00 in0.0 mm
12:14 AM 30.4°F-0.9°C 8.4°F-13.1°C 39% 3.5 mph SSE5.6 kmh SSE 4.6 mph7.4 kmh 28.42 in962.4 mb - 0.00 in0.0 mm 0.00 in0.0 mm
12:15 AM 30.4°F-0.9°C 8.4°F-13.1°C 39% 3.5 mph E5.6 kmh E 4.6 mph7.4 kmh 28.42 in962.4 mb - 0.00 in0.0 mm 0.00 in0.0 mm
12:16 AM 30.4°F-0.9°C 8.4°F-13.1°C 39% 3.5 mph SE5.6 kmh SE 3.5 mph5.6 kmh 28.42 in962.4 mb - 0.00 in0.0 mm 0.00 in0.0 mm
12:17 AM 30.4°F-0.9°C 8.4°F-13.1°C 39% 3.5 mph S5.6 kmh S 3.5 mph5.6 kmh 28.42 in962.4 mb - 0.00 in0.0 mm 0.00 in0.0 mm
12:18 AM 30.4°F-0.9°C 8.4°F-13.1°C 39% 3.5 mph SE5.6 kmh SE 4.6 mph7.4 kmh 28.42 in962.4 mb - 0.00 in0.0 mm 0.00 in0.0 mm
12:19 AM 30.4°F-0.9°C 8.4°F-13.1°C 39% 4.6 mph SSE7.4 kmh SSE 4.6 mph7.4 kmh 28.42 in962.4 mb - 0.00 in0.0 mm 0.00 in0.0 mm
12:20 AM 30.4°F-0.9°C 8.4°F-13.1°C 39% 4.6 mph SE7.4 kmh SE 6.9 mph11.1 kmh 28.42 in962.4 mb - 0.00 in0.0 mm 0.00 in0.0 mm
12:21 AM 30.4°F-0.9°C 8.4°F-13.1°C 39% 5.8 mph SSE9.3 kmh SSE 5.8 mph9.3 kmh 28.42 in962.4 mb - 0.00 in0.0 mm 0.00 in0.0 mm
12:22 AM 30.4°F-0.9°C 8.4°F-13.1°C 39% 2.3 mph SSE3.7 kmh SSE 4.6 mph7.4 kmh 28.42 in962.4 mb - 0.00 in0.0 mm 0.00 in0.0 mm
12:23 AM 30.4°F-0.9°C 8.4°F-13.1°C 39% 2.3 mph SE3.7 kmh SE 4.6 mph7.4 kmh 28.42 in962.4 mb - 0.00 in0.0 mm 0.00 in0.0 mm
12:24 AM 30.4°F-0.9°C 8.4°F-13.1°C 39% 3.5 mph SE5.6 kmh SE 4.6 mph7.4 kmh 28.42 in962.4 mb - 0.00 in0.0 mm 0.00 in0.0 mm
12:25 AM 30.4°F-0.9°C 8.4°F-13.1°C 39% 4.6 mph SE7.4 kmh SE 8.1 mph13.0 kmh 28.42 in962.4 mb - 0.00 in0.0 mm 0.00 in0.0 mm
12:26 AM 30.4°F-0.9°C 8.4°F-13.1°C 39% 5.8 mph ESE9.3 kmh ESE 5.8 mph9.3 kmh 28.42 in962.4 mb - 0.00 in0.0 mm 0.00 in0.0 mm
12:27 AM 30.4°F-0.9°C 8.4°F-13.1°C 39% 3.5 mph SSE5.6 kmh SSE 3.5 mph5.6 kmh 28.42 in962.4 mb - 0.00 in0.0 mm 0.00 in0.0 mm
12:28 AM 30.4°F-0.9°C 8.4°F-13.1°C 39% 1.2 mph E1.9 kmh E 3.5 mph5.6 kmh 28.42 in962.4 mb - 0.00 in0.0 mm 0.00 in0.0 mm
12:29 AM 30.4°F-0.9°C 8.4°F-13.1°C 39% 2.3 mph E3.7 kmh E 4.6 mph7.4 kmh 28.42 in962.4 mb - 0.00 in0.0 mm 0.00 in0.0 mm
12:30 AM 30.4°F-0.9°C 8.4°F-13.1°C 39% 3.5 mph SE5.6 kmh SE 5.8 mph9.3 kmh 28.42 in962.4 mb - 0.00 in0.0 mm 0.00 in0.0 mm
12:31 AM 30.4°F-0.9°C 8.4°F-13.1°C 39% 3.5 mph SE5.6 kmh SE 5.8 mph9.3 kmh 28.42 in962.4 mb - 0.00 in0.0 mm 0.00 in0.0 mm
12:32 AM 30.4°F-0.9°C 8.4°F-13.1°C 39% 3.5 mph SE5.6 kmh SE 5.8 mph9.3 kmh 28.42 in962.4 mb - 0.00 in0.0 mm 0.00 in0.0 mm
12:33 AM 30.4°F-0.9°C 8.4°F-13.1°C 39% 4.6 mph SSE7.4 kmh SSE 8.1 mph13.0 kmh 28.42 in962.4 mb - 0.00 in0.0 mm 0.00 in0.0 mm
12:34 AM 30.4°F-0.9°C 8.4°F-13.1°C 39% 5.8 mph SE9.3 kmh SE 6.9 mph11.1 kmh 28.42 in962.4 mb - 0.00 in0.0 mm 0.00 in0.0 mm
12:35 AM 30.4°F-0.9°C 8.4°F-13.1°C 39% 5.8 mph SSE9.3 kmh SSE 6.9 mph11.1 kmh 28.42 in962.4 mb - 0.00 in0.0 mm 0.00 in0.0 mm
12:36 AM 30.6°F-0.8°C 8.5°F-13.1°C 39% 4.6 mph SW7.4 kmh SW 5.8 mph9.3 kmh 28.42 in962.4 mb - 0.00 in0.0 mm 0.00 in0.0 mm
12:37 AM 30.6°F-0.8°C 8.5°F-13.1°C 39% 2.3 mph ESE3.7 kmh ESE 2.3 mph3.7 kmh 28.42 in962.4 mb - 0.00 in0.0 mm 0.00 in0.0 mm
12:38 AM 30.6°F-0.8°C 8.5°F-13.1°C 39% 2.3 mph SSE3.7 kmh SSE 3.5 mph5.6 kmh 28.41 in962.1 mb - 0.00 in0.0 mm 0.00 in0.0 mm
12:39 AM 30.6°F-0.8°C 8.5°F-13.1°C 39% 2.3 mph SSE3.7 kmh SSE 3.5 mph5.6 kmh 28.41 in962.1 mb - 0.00 in0.0 mm 0.00 in0.0 mm
12:40 AM 30.6°F-0.8°C 8.5°F-13.1°C 39% 2.3 mph SE3.7 kmh SE 4.6 mph7.4 kmh 28.41 in962.1 mb - 0.00 in0.0 mm 0.00 in0.0 mm
12:41 AM 30.6°F-0.8°C 8.5°F-13.1°C 39% 3.5 mph SE5.6 kmh SE 5.8 mph9.3 kmh 28.41 in962.1 mb - 0.00 in0.0 mm 0.00 in0.0 mm
12:42 AM 30.6°F-0.8°C 8.5°F-13.1°C 39% 4.6 mph SE7.4 kmh SE 5.8 mph9.3 kmh 28.41 in962.1 mb - 0.00 in0.0 mm 0.00 in0.0 mm
12:43 AM 30.6°F-0.8°C 8.5°F-13.1°C 39% 3.5 mph SE5.6 kmh SE 4.6 mph7.4 kmh 28.41 in962.1 mb - 0.00 in0.0 mm 0.00 in0.0 mm
12:44 AM 30.6°F-0.8°C 8.5°F-13.1°C 39% 3.5 mph SE5.6 kmh SE 5.8 mph9.3 kmh 28.41 in962.1 mb - 0.00 in0.0 mm 0.00 in0.0 mm
12:45 AM 30.6°F-0.8°C 8.5°F-13.1°C 39% 4.6 mph SSE7.4 kmh SSE 5.8 mph9.3 kmh 28.41 in962.1 mb - 0.00 in0.0 mm 0.00 in0.0 mm
12:46 AM 30.6°F-0.8°C 8.5°F-13.1°C 39% 5.8 mph SSE9.3 kmh SSE 5.8 mph9.3 kmh 28.41 in962.1 mb - 0.00 in0.0 mm 0.00 in0.0 mm
12:47 AM 30.6°F-0.8°C 8.5°F-13.1°C 39% 5.8 mph SE9.3 kmh SE 5.8 mph9.3 kmh 28.41 in962.1 mb - 0.00 in0.0 mm 0.00 in0.0 mm
12:48 AM 30.6°F-0.8°C 8.5°F-13.1°C 39% 5.8 mph SSE9.3 kmh SSE 8.1 mph13.0 kmh 28.41 in962.1 mb - 0.00 in0.0 mm 0.00 in0.0 mm
12:49 AM 30.6°F-0.8°C 8.5°F-13.1°C 39% 4.6 mph ESE7.4 kmh ESE 4.6 mph7.4 kmh 28.41 in962.1 mb - 0.00 in0.0 mm 0.00 in0.0 mm
12:50 AM 30.6°F-0.8°C 8.5°F-13.1°C 39% 4.6 mph SSE7.4 kmh SSE 6.9 mph11.1 kmh 28.41 in962.1 mb - 0.00 in0.0 mm 0.00 in0.0 mm
12:51 AM 30.6°F-0.8°C 8.5°F-13.1°C 39% 5.8 mph ESE9.3 kmh ESE 5.8 mph9.3 kmh 28.40 in961.7 mb - 0.00 in0.0 mm 0.00 in0.0 mm
12:52 AM 30.6°F-0.8°C 8.5°F-13.1°C 39% 3.5 mph ESE5.6 kmh ESE 5.8 mph9.3 kmh 28.40 in961.7 mb - 0.00 in0.0 mm 0.00 in0.0 mm
12:53 AM 30.6°F-0.8°C 8.5°F-13.1°C 39% 4.6 mph SE7.4 kmh SE 8.1 mph13.0 kmh 28.40 in961.7 mb - 0.00 in0.0 mm 0.00 in0.0 mm
12:54 AM 30.6°F-0.8°C 8.5°F-13.1°C 39% 4.6 mph SSE7.4 kmh SSE 4.6 mph7.4 kmh 28.40 in961.7 mb - 0.00 in0.0 mm 0.00 in0.0 mm
12:55 AM 30.6°F-0.8°C 8.5°F-13.1°C 39% 3.5 mph SE5.6 kmh SE 3.5 mph5.6 kmh 28.40 in961.7 mb - 0.00 in0.0 mm 0.00 in0.0 mm
12:56 AM 30.6°F-0.8°C 8.5°F-13.1°C 39% 3.5 mph S5.6 kmh S 5.8 mph9.3 kmh 28.40 in961.7 mb - 0.00 in0.0 mm 0.00 in0.0 mm
12:57 AM 30.6°F-0.8°C 8.5°F-13.1°C 39% 4.6 mph S7.4 kmh S 6.9 mph11.1 kmh 28.40 in961.7 mb - 0.00 in0.0 mm 0.00 in0.0 mm
12:58 AM 30.6°F-0.8°C 8.5°F-13.1°C 39% 4.6 mph SE7.4 kmh SE 6.9 mph11.1 kmh 28.40 in961.7 mb - 0.00 in0.0 mm 0.00 in0.0 mm
12:59 AM 30.6°F-0.8°C 8.5°F-13.1°C 39% 2.3 mph SE3.7 kmh SE 3.5 mph5.6 kmh 28.40 in961.7 mb - 0.00 in0.0 mm 0.00 in0.0 mm
01:00 AM 30.6°F-0.8°C 8.5°F-13.1°C 39% 4.6 mph ENE7.4 kmh ENE 6.9 mph11.1 kmh 28.40 in961.7 mb - 0.00 in0.0 mm 0.00 in0.0 mm
01:01 AM 30.6°F-0.8°C 8.5°F-13.1°C 39% 3.5 mph NE5.6 kmh NE 4.6 mph7.4 kmh 28.40 in961.7 mb - 0.00 in0.0 mm 0.00 in0.0 mm
01:02 AM 30.6°F-0.8°C 8.5°F-13.1°C 39% 3.5 mph ESE5.6 kmh ESE 5.8 mph9.3 kmh 28.39 in961.4 mb - 0.00 in0.0 mm 0.00 in0.0 mm
01:03 AM 30.6°F-0.8°C 8.5°F-13.1°C 39% 3.5 mph E5.6 kmh E 4.6 mph7.4 kmh 28.39 in961.4 mb - 0.00 in0.0 mm 0.00 in0.0 mm
01:04 AM 30.6°F-0.8°C 8.5°F-13.1°C 39% 3.5 mph ESE5.6 kmh ESE 4.6 mph7.4 kmh 28.39 in961.4 mb - 0.00 in0.0 mm 0.00 in0.0 mm
01:05 AM 30.6°F-0.8°C 8.5°F-13.1°C 39% 3.5 mph SE5.6 kmh SE 5.8 mph9.3 kmh 28.39 in961.4 mb - 0.00 in0.0 mm 0.00 in0.0 mm
01:06 AM 30.6°F-0.8°C 8.5°F-13.1°C 39% 4.6 mph SSE7.4 kmh SSE 5.8 mph9.3 kmh 28.39 in961.4 mb - 0.00 in0.0 mm 0.00 in0.0 mm
01:07 AM 30.6°F-0.8°C 8.5°F-13.1°C 39% 4.6 mph SSE7.4 kmh SSE 5.8 mph9.3 kmh 28.39 in961.4 mb - 0.00 in0.0 mm 0.00 in0.0 mm
01:08 AM 30.6°F-0.8°C 8.5°F-13.1°C 39% 4.6 mph SSE7.4 kmh SSE 8.1 mph13.0 kmh 28.39 in961.4 mb - 0.00 in0.0 mm 0.00 in0.0 mm
01:09 AM 30.6°F-0.8°C 8.5°F-13.1°C 39% 5.8 mph SE9.3 kmh SE 5.8 mph9.3 kmh 28.39 in961.4 mb - 0.00 in0.0 mm 0.00 in0.0 mm
01:10 AM 30.5°F-0.8°C 8.5°F-13.1°C 39% 3.5 mph ESE5.6 kmh ESE 5.8 mph9.3 kmh 28.39 in961.4 mb - 0.00 in0.0 mm 0.00 in0.0 mm
01:11 AM 30.4°F-0.9°C 8.4°F-13.1°C 39% 4.6 mph SE7.4 kmh SE 5.8 mph9.3 kmh 28.39 in961.4 mb - 0.00 in0.0 mm 0.00 in0.0 mm
01:12 AM 30.4°F-0.9°C 8.4°F-13.1°C 39% 2.3 mph SSE3.7 kmh SSE 3.5 mph5.6 kmh 28.39 in961.4 mb - 0.00 in0.0 mm 0.00 in0.0 mm
01:13 AM 30.4°F-0.9°C 8.4°F-13.1°C 39% 3.5 mph SSE5.6 kmh SSE 5.8 mph9.3 kmh 28.39 in961.4 mb - 0.00 in0.0 mm 0.00 in0.0 mm
01:14 AM 30.4°F-0.9°C 8.4°F-13.1°C 39% 4.6 mph S7.4 kmh S 5.8 mph9.3 kmh 28.38 in961.1 mb - 0.00 in0.0 mm 0.00 in0.0 mm
01:15 AM 30.4°F-0.9°C 8.9°F-12.8°C 40% 3.5 mph E5.6 kmh E 4.6 mph7.4 kmh 28.38 in961.1 mb - 0.00 in0.0 mm 0.00 in0.0 mm
01:16 AM 30.4°F-0.9°C 8.9°F-12.8°C 40% 2.3 mph S3.7 kmh S 3.5 mph5.6 kmh 28.38 in961.1 mb - 0.00 in0.0 mm 0.00 in0.0 mm
01:17 AM 30.4°F-0.9°C 8.9°F-12.8°C 40% 3.5 mph SE5.6 kmh SE 3.5 mph5.6 kmh 28.38 in961.1 mb - 0.00 in0.0 mm 0.00 in0.0 mm
01:18 AM 30.4°F-0.9°C 8.4°F-13.1°C 39% 3.5 mph S5.6 kmh S 5.8 mph9.3 kmh 28.38 in961.1 mb - 0.00 in0.0 mm 0.00 in0.0 mm
01:19 AM 30.4°F-0.9°C 8.4°F-13.1°C 39% 5.8 mph SE9.3 kmh SE 8.1 mph13.0 kmh 28.38 in961.1 mb - 0.00 in0.0 mm 0.00 in0.0 mm
01:20 AM 30.4°F-0.9°C 8.4°F-13.1°C 39% 5.8 mph S9.3 kmh S 5.8 mph9.3 kmh 28.38 in961.1 mb - 0.00 in0.0 mm 0.00 in0.0 mm
01:21 AM 30.4°F-0.9°C 8.4°F-13.1°C 39% 4.6 mph SE7.4 kmh SE 4.6 mph7.4 kmh 28.38 in961.1 mb - 0.00 in0.0 mm 0.00 in0.0 mm
01:22 AM 30.4°F-0.9°C 8.4°F-13.1°C 39% 3.5 mph S5.6 kmh S 4.6 mph7.4 kmh 28.38 in961.1 mb - 0.00 in0.0 mm 0.00 in0.0 mm
01:23 AM 30.4°F-0.9°C 8.4°F-13.1°C 39% 2.3 mph SE3.7 kmh SE 3.5 mph5.6 kmh 28.38 in961.1 mb - 0.00 in0.0 mm 0.00 in0.0 mm
01:24 AM 30.4°F-0.9°C 8.4°F-13.1°C 39% 3.5 mph S5.6 kmh S 4.6 mph7.4 kmh 28.38 in961.1 mb - 0.00 in0.0 mm 0.00 in0.0 mm
01:25 AM 30.4°F-0.9°C 8.4°F-13.1°C 39% 3.5 mph W5.6 kmh W 8.1 mph13.0 kmh 28.38 in961.1 mb - 0.00 in0.0 mm 0.00 in0.0 mm
01:26 AM 30.4°F-0.9°C 8.4°F-13.1°C 39% 4.6 mph SSE7.4 kmh SSE 8.1 mph13.0 kmh 28.38 in961.1 mb - 0.00 in0.0 mm 0.00 in0.0 mm
01:27 AM 30.4°F-0.9°C 8.4°F-13.1°C 39% 4.6 mph SW7.4 kmh SW 6.9 mph11.1 kmh 28.38 in961.1 mb - 0.00 in0.0 mm 0.00 in0.0 mm
01:28 AM 30.4°F-0.9°C 8.4°F-13.1°C 39% 5.8 mph SE9.3 kmh SE 6.9 mph11.1 kmh 28.38 in961.1 mb - 0.00 in0.0 mm 0.00 in0.0 mm
01:29 AM 30.4°F-0.9°C 8.4°F-13.1°C 39% 5.8 mph SSE9.3 kmh SSE 6.9 mph11.1 kmh 28.38 in961.1 mb - 0.00 in0.0 mm 0.00 in0.0 mm
01:30 AM 30.4°F-0.9°C 8.4°F-13.1°C 39% 5.8 mph SW9.3 kmh SW 5.8 mph9.3 kmh 28.38 in961.1 mb - 0.00 in0.0 mm 0.00 in0.0 mm
01:31 AM 30.4°F-0.9°C 8.4°F-13.1°C 39% 3.5 mph SE5.6 kmh SE 5.8 mph9.3 kmh 28.38 in961.1 mb - 0.00 in0.0 mm 0.00 in0.0 mm
01:32 AM 30.3°F-0.9°C 8.3°F-13.2°C 39% 3.5 mph SE5.6 kmh SE 3.5 mph5.6 kmh 28.38 in961.1 mb - 0.00 in0.0 mm 0.00 in0.0 mm
01:33 AM 30.2°F-1.0°C 8.2°F-13.2°C 39% 3.5 mph SE5.6 kmh SE 5.8 mph9.3 kmh 28.38 in961.1 mb - 0.00 in0.0 mm 0.00 in0.0 mm
01:34 AM 30.2°F-1.0°C 8.2°F-13.2°C 39% 4.6 mph SSW7.4 kmh SSW 5.8 mph9.3 kmh 28.38 in961.1 mb - 0.00 in0.0 mm 0.00 in0.0 mm
01:35 AM 30.2°F-1.0°C 8.7°F-12.9°C 40% 2.3 mph S3.7 kmh S 3.5 mph5.6 kmh 28.38 in961.1 mb - 0.00 in0.0 mm 0.00 in0.0 mm
01:36 AM 30.2°F-1.0°C 8.7°F-12.9°C 40% 3.5 mph SE5.6 kmh SE 3.5 mph5.6 kmh 28.38 in961.1 mb - 0.00 in0.0 mm 0.00 in0.0 mm
01:37 AM 30.2°F-1.0°C 8.7°F-12.9°C 40% 2.3 mph ESE3.7 kmh ESE 4.6 mph7.4 kmh 28.38 in961.1 mb - 0.00 in0.0 mm 0.00 in0.0 mm
01:38 AM 30.2°F-1.0°C 8.7°F-12.9°C 40% 3.5 mph SSE5.6 kmh SSE 4.6 mph7.4 kmh 28.38 in961.1 mb - 0.00 in0.0 mm 0.00 in0.0 mm
01:39 AM 30.2°F-1.0°C 8.7°F-12.9°C 40% 3.5 mph S5.6 kmh S 5.8 mph9.3 kmh 28.38 in961.1 mb - 0.00 in0.0 mm 0.00 in0.0 mm
01:40 AM 30.2°F-1.0°C 8.7°F-12.9°C 40% 3.5 mph E5.6 kmh E 3.5 mph5.6 kmh 28.38 in961.1 mb - 0.00 in0.0 mm 0.00 in0.0 mm
01:41 AM 30.2°F-1.0°C 8.7°F-12.9°C 40% 4.6 mph S7.4 kmh S 5.8 mph9.3 kmh 28.38 in961.1 mb - 0.00 in0.0 mm 0.00 in0.0 mm
01:42 AM 30.2°F-1.0°C 8.7°F-12.9°C 40% 5.8 mph SE9.3 kmh SE 6.9 mph11.1 kmh 28.38 in961.1 mb - 0.00 in0.0 mm 0.00 in0.0 mm
01:43 AM 30.2°F-1.0°C 8.7°F-12.9°C 40% 3.5 mph SE5.6 kmh SE 5.8 mph9.3 kmh 28.38 in961.1 mb - 0.00 in0.0 mm 0.00 in0.0 mm
01:44 AM 30.2°F-1.0°C 8.7°F-12.9°C 40% 4.6 mph SE7.4 kmh SE 5.8 mph9.3 kmh 28.38 in961.1 mb - 0.00 in0.0 mm 0.00 in0.0 mm
01:45 AM 30.2°F-1.0°C 8.7°F-12.9°C 40% 3.5 mph SE5.6 kmh SE 4.6 mph7.4 kmh 28.38 in961.1 mb - 0.00 in0.0 mm 0.00 in0.0 mm
01:46 AM 30.0°F-1.1°C 8.6°F-13.0°C 40% 4.6 mph S7.4 kmh S 5.8 mph9.3 kmh 28.38 in961.1 mb - 0.00 in0.0 mm 0.00 in0.0 mm
01:47 AM 30.0°F-1.1°C 8.6°F-13.0°C 40% 4.6 mph SE7.4 kmh SE 6.9 mph11.1 kmh 28.38 in961.1 mb - 0.00 in0.0 mm 0.00 in0.0 mm
01:48 AM 30.0°F-1.1°C 8.6°F-13.0°C 40% 4.6 mph E7.4 kmh E 6.9 mph11.1 kmh 28.38 in961.1 mb - 0.00 in0.0 mm 0.00 in0.0 mm
01:49 AM 30.0°F-1.1°C 8.6°F-13.0°C 40% 2.3 mph ESE3.7 kmh ESE 5.8 mph9.3 kmh 28.38 in961.1 mb - 0.00 in0.0 mm 0.00 in0.0 mm
01:50 AM 30.0°F-1.1°C 8.6°F-13.0°C 40% 3.5 mph ESE5.6 kmh ESE 10.4 mph16.7 kmh 28.38 in961.1 mb - 0.00 in0.0 mm 0.00 in0.0 mm
01:51 AM 30.0°F-1.1°C 8.6°F-13.0°C 40% 5.8 mph SE9.3 kmh SE 8.1 mph13.0 kmh 28.38 in961.1 mb - 0.00 in0.0 mm 0.00 in0.0 mm
01:52 AM 30.0°F-1.1°C 8.6°F-13.0°C 40% 3.5 mph SW5.6 kmh SW 9.2 mph14.8 kmh 28.38 in961.1 mb - 0.00 in0.0 mm 0.00 in0.0 mm
01:53 AM 30.0°F-1.1°C 8.6°F-13.0°C 40% 8.1 mph S13.0 kmh S 12.7 mph20.4 kmh 28.38 in961.1 mb - 0.00 in0.0 mm 0.00 in0.0 mm
01:54 AM 30.0°F-1.1°C 8.6°F-13.0°C 40% 6.9 mph S11.1 kmh S 5.8 mph9.3 kmh 28.38 in961.1 mb - 0.00 in0.0 mm 0.00 in0.0 mm
01:55 AM 30.2°F-1.0°C 8.7°F-12.9°C 40% 5.8 mph ESE9.3 kmh ESE 5.8 mph9.3 kmh 28.38 in961.1 mb - 0.00 in0.0 mm 0.00 in0.0 mm
01:56 AM 30.2°F-1.0°C 8.7°F-12.9°C 40% 3.5 mph S5.6 kmh S 4.6 mph7.4 kmh 28.38 in961.1 mb - 0.00 in0.0 mm 0.00 in0.0 mm
01:57 AM 30.2°F-1.0°C 8.7°F-12.9°C 40% 3.5 mph SSE5.6 kmh SSE 6.9 mph11.1 kmh 28.38 in961.1 mb - 0.00 in0.0 mm 0.00 in0.0 mm
01:58 AM 30.2°F-1.0°C 8.7°F-12.9°C 40% 4.6 mph E7.4 kmh E 4.6 mph7.4 kmh 28.38 in961.1 mb - 0.00 in0.0 mm 0.00 in0.0 mm
01:59 AM 30.2°F-1.0°C 8.7°F-12.9°C 40% 3.5 mph SE5.6 kmh SE 5.8 mph9.3 kmh 28.38 in961.1 mb - 0.00 in0.0 mm 0.00 in0.0 mm
02:00 AM 30.2°F-1.0°C 8.7°F-12.9°C 40% 5.8 mph S9.3 kmh S 6.9 mph11.1 kmh 28.38 in961.1 mb - 0.00 in0.0 mm 0.00 in0.0 mm
02:01 AM 30.2°F-1.0°C 8.7°F-12.9°C 40% 5.8 mph S9.3 kmh S 4.6 mph7.4 kmh 28.38 in961.1 mb - 0.00 in0.0 mm 0.00 in0.0 mm
02:02 AM 30.2°F-1.0°C 8.7°F-12.9°C 40% 3.5 mph ESE5.6 kmh ESE 4.6 mph7.4 kmh 28.38 in961.1 mb - 0.00 in0.0 mm 0.00 in0.0 mm
02:03 AM 30.2°F-1.0°C 8.7°F-12.9°C 40% 3.5 mph ENE5.6 kmh ENE 4.6 mph7.4 kmh 28.38 in961.1 mb - 0.00 in0.0 mm 0.00 in0.0 mm
02:04 AM 30.2°F-1.0°C 8.7°F-12.9°C 40% 2.3 mph SE3.7 kmh SE 4.6 mph7.4 kmh 28.38 in961.1 mb - 0.00 in0.0 mm 0.00 in0.0 mm
02:05 AM 30.2°F-1.0°C 8.7°F-12.9°C 40% 3.5 mph S5.6 kmh S 6.9 mph11.1 kmh 28.38 in961.1 mb - 0.00 in0.0 mm 0.00 in0.0 mm
02:06 AM 30.3°F-0.9°C 8.9°F-12.8°C 40% 5.8 mph ESE9.3 kmh ESE 5.8 mph9.3 kmh 28.38 in961.1 mb - 0.00 in0.0 mm 0.00 in0.0 mm
02:07 AM 30.4°F-0.9°C 8.9°F-12.8°C 40% 4.6 mph SE7.4 kmh SE 5.8 mph9.3 kmh 28.38 in961.1 mb - 0.00 in0.0 mm 0.00 in0.0 mm
02:08 AM 30.4°F-0.9°C 8.9°F-12.8°C 40% 3.5 mph S5.6 kmh S 4.6 mph7.4 kmh 28.38 in961.1 mb - 0.00 in0.0 mm 0.00 in0.0 mm
02:09 AM 30.4°F-0.9°C 8.9°F-12.8°C 40% 3.5 mph ENE5.6 kmh ENE 3.5 mph5.6 kmh 28.38 in961.1 mb - 0.00 in0.0 mm 0.00 in0.0 mm
02:10 AM 30.4°F-0.9°C 8.9°F-12.8°C 40% 2.3 mph SSE3.7 kmh SSE 3.5 mph5.6 kmh 28.38 in961.1 mb - 0.00 in0.0 mm 0.00 in0.0 mm
02:11 AM 30.4°F-0.9°C 8.9°F-12.8°C 40% 3.5 mph E5.6 kmh E 4.6 mph7.4 kmh 28.38 in961.1 mb - 0.00 in0.0 mm 0.00 in0.0 mm
02:12 AM 30.4°F-0.9°C 8.9°F-12.8°C 40% 3.5 mph SE5.6 kmh SE 4.6 mph7.4 kmh 28.38 in961.1 mb - 0.00 in0.0 mm 0.00 in0.0 mm
02:13 AM 30.4°F-0.9°C 8.9°F-12.8°C 40% 3.5 mph SW5.6 kmh SW 5.8 mph9.3 kmh 28.38 in961.1 mb - 0.00 in0.0 mm 0.00 in0.0 mm
02:14 AM 30.4°F-0.9°C 8.9°F-12.8°C 40% 3.5 mph E5.6 kmh E 5.8 mph9.3 kmh 28.38 in961.1 mb - 0.00 in0.0 mm 0.00 in0.0 mm
02:15 AM 30.4°F-0.9°C 8.9°F-12.8°C 40% 4.6 mph ESE7.4 kmh ESE 6.9 mph11.1 kmh 28.38 in961.1 mb - 0.00 in0.0 mm 0.00 in0.0 mm
02:16 AM 30.5°F-0.8°C 9.0°F-12.8°C 40% 5.8 mph SSE9.3 kmh SSE 6.9 mph11.1 kmh 28.38 in961.1 mb - 0.00 in0.0 mm 0.00 in0.0 mm
02:17 AM 30.6°F-0.8°C 9.1°F-12.7°C 40% 3.5 mph SSE5.6 kmh SSE 2.3 mph3.7 kmh 28.38 in961.1 mb - 0.00 in0.0 mm 0.00 in0.0 mm
02:18 AM 30.6°F-0.8°C 9.1°F-12.7°C 40% 2.3 mph SSW3.7 kmh SSW 2.3 mph3.7 kmh 28.38 in961.1 mb - 0.00 in0.0 mm 0.00 in0.0 mm
02:19 AM 30.6°F-0.8°C 9.1°F-12.7°C 40% 2.3 mph SSE3.7 kmh SSE 3.5 mph5.6 kmh 28.38 in961.1 mb - 0.00 in0.0 mm 0.00 in0.0 mm
02:20 AM 30.6°F-0.8°C 9.1°F-12.7°C 40% 2.3 mph SSE3.7 kmh SSE 3.5 mph5.6 kmh 28.38 in961.1 mb - 0.00 in0.0 mm 0.00 in0.0 mm
02:21 AM 30.6°F-0.8°C 9.1°F-12.7°C 40% 3.5 mph SE5.6 kmh SE 8.1 mph13.0 kmh 28.38 in961.1 mb - 0.00 in0.0 mm 0.00 in0.0 mm
02:22 AM 30.6°F-0.8°C 9.1°F-12.7°C 40% 4.6 mph SSE7.4 kmh SSE 6.9 mph11.1 kmh 28.38 in961.1 mb - 0.00 in0.0 mm 0.00 in0.0 mm
02:23 AM 30.6°F-0.8°C 9.1°F-12.7°C 40% 3.5 mph ESE5.6 kmh ESE 5.8 mph9.3 kmh 28.38 in961.1 mb - 0.00 in0.0 mm 0.00 in0.0 mm
02:24 AM 30.6°F-0.8°C 9.1°F-12.7°C 40% 3.5 mph ESE5.6 kmh ESE 5.8 mph9.3 kmh 28.38 in961.1 mb - 0.00 in0.0 mm 0.00 in0.0 mm
02:25 AM 30.6°F-0.8°C 9.1°F-12.7°C 40% 2.3 mph E3.7 kmh E 4.6 mph7.4 kmh 28.38 in961.1 mb - 0.00 in0.0 mm 0.00 in0.0 mm
02:26 AM 30.6°F-0.8°C 9.1°F-12.7°C 40% 1.2 mph SSW1.9 kmh SSW 4.6 mph7.4 kmh 28.38 in961.1 mb - 0.00 in0.0 mm 0.00 in0.0 mm
02:27 AM 30.6°F-0.8°C 9.7°F-12.4°C 41% 5.8 mph S9.3 kmh S 10.4 mph16.7 kmh 28.38 in961.1 mb - 0.00 in0.0 mm 0.00 in0.0 mm
02:28 AM 30.6°F-0.8°C 9.7°F-12.4°C 41% 4.6 mph SE7.4 kmh SE 5.8 mph9.3 kmh 28.38 in961.1 mb - 0.00 in0.0 mm 0.00 in0.0 mm
02:29 AM 30.6°F-0.8°C 9.1°F-12.7°C 40% 4.6 mph SSE7.4 kmh SSE 5.8 mph9.3 kmh 28.38 in961.1 mb - 0.00 in0.0 mm 0.00 in0.0 mm
02:30 AM 30.6°F-0.8°C 9.1°F-12.7°C 40% 4.6 mph SSE7.4 kmh SSE 6.9 mph11.1 kmh 28.38 in961.1 mb - 0.00 in0.0 mm 0.00 in0.0 mm
02:31 AM 30.6°F-0.8°C 9.1°F-12.7°C 40% 3.5 mph S5.6 kmh S 5.8 mph9.3 kmh 28.38 in961.1 mb - 0.00 in0.0 mm 0.00 in0.0 mm
02:32 AM 30.6°F-0.8°C 9.1°F-12.7°C 40% 4.6 mph S7.4 kmh S 6.9 mph11.1 kmh 28.38 in961.1 mb - 0.00 in0.0 mm 0.00 in0.0 mm
02:33 AM 30.6°F-0.8°C 9.1°F-12.7°C 40% 5.8 mph SSE9.3 kmh SSE 5.8 mph9.3 kmh 28.38 in961.1 mb - 0.00 in0.0 mm 0.00 in0.0 mm
02:34 AM 30.6°F-0.8°C 9.1°F-12.7°C 40% 3.5 mph E5.6 kmh E 4.6 mph7.4 kmh 28.38 in961.1 mb - 0.00 in0.0 mm 0.00 in0.0 mm
02:35 AM 30.6°F-0.8°C 9.1°F-12.7°C 40% 3.5 mph SSE5.6 kmh SSE 4.6 mph7.4 kmh 28.38 in961.1 mb - 0.00 in0.0 mm 0.00 in0.0 mm
02:36 AM 30.6°F-0.8°C 9.1°F-12.7°C 40% 3.5 mph SE5.6 kmh SE 4.6 mph7.4 kmh 28.38 in961.1 mb - 0.00 in0.0 mm 0.00 in0.0 mm
02:37 AM 30.6°F-0.8°C 9.1°F-12.7°C 40% 3.5 mph ESE5.6 kmh ESE 5.8 mph9.3 kmh 28.39 in961.4 mb - 0.00 in0.0 mm 0.00 in0.0 mm
02:38 AM 30.6°F-0.8°C 9.1°F-12.7°C 40% 4.6 mph E7.4 kmh E 5.8 mph9.3 kmh 28.39 in961.4 mb - 0.00 in0.0 mm 0.00 in0.0 mm
02:39 AM 30.6°F-0.8°C 9.1°F-12.7°C 40% 5.8 mph S9.3 kmh S 8.1 mph13.0 kmh 28.39 in961.4 mb - 0.00 in0.0 mm 0.00 in0.0 mm
02:40 AM 30.7°F-0.7°C 9.2°F-12.7°C 40% 4.6 mph S7.4 kmh S 5.8 mph9.3 kmh 28.39 in961.4 mb - 0.00 in0.0 mm 0.00 in0.0 mm
02:41 AM 30.7°F-0.7°C 9.2°F-12.7°C 40% 4.6 mph WSW7.4 kmh WSW 3.5 mph5.6 kmh 28.39 in961.4 mb - 0.00 in0.0 mm 0.00 in0.0 mm
02:42 AM 30.7°F-0.7°C 9.2°F-12.7°C 40% 3.5 mph SE5.6 kmh SE 4.6 mph7.4 kmh 28.39 in961.4 mb - 0.00 in0.0 mm 0.00 in0.0 mm
02:43 AM 30.7°F-0.7°C 9.7°F-12.4°C 41% 2.3 mph S3.7 kmh S 3.5 mph5.6 kmh 28.39 in961.4 mb - 0.00 in0.0 mm 0.00 in0.0 mm
02:44 AM 30.7°F-0.7°C 9.7°F-12.4°C 41% 2.3 mph SE3.7 kmh SE 3.5 mph5.6 kmh 28.39 in961.4 mb - 0.00 in0.0 mm 0.00 in0.0 mm
02:45 AM 30.7°F-0.7°C 9.7°F-12.4°C 41% 3.5 mph S5.6 kmh S 4.6 mph7.4 kmh 28.39 in961.4 mb - 0.00 in0.0 mm 0.00 in0.0 mm
02:46 AM 30.7°F-0.7°C 9.7°F-12.4°C 41% 3.5 mph SE5.6 kmh SE 4.6 mph7.4 kmh 28.39 in961.4 mb - 0.00 in0.0 mm 0.00 in0.0 mm
02:47 AM 30.7°F-0.7°C 9.2°F-12.7°C 40% 3.5 mph SE5.6 kmh SE 5.8 mph9.3 kmh 28.39 in961.4 mb - 0.00 in0.0 mm 0.00 in0.0 mm
02:48 AM 30.7°F-0.7°C 9.7°F-12.4°C 41% 3.5 mph SE5.6 kmh SE 5.8 mph9.3 kmh 28.39 in961.4 mb - 0.00 in0.0 mm 0.00 in0.0 mm
02:49 AM 30.7°F-0.7°C 9.7°F-12.4°C 41% 3.5 mph E5.6 kmh E 3.5 mph5.6 kmh 28.39 in961.4 mb - 0.00 in0.0 mm 0.00 in0.0 mm
02:50 AM 30.7°F-0.7°C 9.7°F-12.4°C 41% 3.5 mph S5.6 kmh S 5.8 mph9.3 kmh 28.39 in961.4 mb - 0.00 in0.0 mm 0.00 in0.0 mm
02:51 AM 30.7°F-0.7°C 9.7°F-12.4°C 41% 5.8 mph SSE9.3 kmh SSE 5.8 mph9.3 kmh 28.39 in961.4 mb - 0.00 in0.0 mm 0.00 in0.0 mm
02:52 AM 30.7°F-0.7°C 9.7°F-12.4°C 41% 4.6 mph SSE7.4 kmh SSE 5.8 mph9.3 kmh 28.39 in961.4 mb - 0.00 in0.0 mm 0.00 in0.0 mm
02:53 AM 30.7°F-0.7°C 9.7°F-12.4°C 41% 3.5 mph S5.6 kmh S 3.5 mph5.6 kmh 28.39 in961.4 mb - 0.00 in0.0 mm 0.00 in0.0 mm
02:54 AM 30.7°F-0.7°C 9.7°F-12.4°C 41% 3.5 mph SE5.6 kmh SE 5.8 mph9.3 kmh 28.39 in961.4 mb - 0.00 in0.0 mm 0.00 in0.0 mm
02:55 AM 30.7°F-0.7°C 9.7°F-12.4°C 41% 2.3 mph SE3.7 kmh SE 3.5 mph5.6 kmh 28.39 in961.4 mb - 0.00 in0.0 mm 0.00 in0.0 mm
02:56 AM 30.7°F-0.7°C 9.7°F-12.4°C 41% 2.3 mph SSE3.7 kmh SSE 3.5 mph5.6 kmh 28.39 in961.4 mb - 0.00 in0.0 mm 0.00 in0.0 mm
02:57 AM 30.7°F-0.7°C 9.7°F-12.4°C 41% 2.3 mph SE3.7 kmh SE 4.6 mph7.4 kmh 28.39 in961.4 mb - 0.00 in0.0 mm 0.00 in0.0 mm
02:58 AM 30.7°F-0.7°C 9.7°F-12.4°C 41% 3.5 mph SSE5.6 kmh SSE 4.6 mph7.4 kmh 28.39 in961.4 mb - 0.00 in0.0 mm 0.00 in0.0 mm
02:59 AM 30.7°F-0.7°C 9.7°F-12.4°C 41% 3.5 mph E5.6 kmh E 3.5 mph5.6 kmh 28.39 in961.4 mb - 0.00 in0.0 mm 0.00 in0.0 mm
03:00 AM 30.7°F-0.7°C 9.7°F-12.4°C 41% 2.3 mph SSE3.7 kmh SSE 3.5 mph5.6 kmh 28.39 in961.4 mb - 0.00 in0.0 mm 0.00 in0.0 mm
03:01 AM 30.8°F-0.7°C 9.8°F-12.3°C 41% 3.5 mph S5.6 kmh S 5.8 mph9.3 kmh 28.39 in961.4 mb - 0.00 in0.0 mm 0.00 in0.0 mm
03:02 AM 30.9°F-0.6°C 9.9°F-12.3°C 41% 4.6 mph E7.4 kmh E 4.6 mph7.4 kmh 28.39 in961.4 mb - 0.00 in0.0 mm 0.00 in0.0 mm
03:03 AM 30.9°F-0.6°C 9.9°F-12.3°C 41% 3.5 mph S5.6 kmh S 3.5 mph5.6 kmh 28.39 in961.4 mb - 0.00 in0.0 mm 0.00 in0.0 mm
03:04 AM 30.9°F-0.6°C 9.9°F-12.3°C 41% 3.5 mph SE5.6 kmh SE 2.3 mph3.7 kmh 28.39 in961.4 mb - 0.00 in0.0 mm 0.00 in0.0 mm
03:05 AM 30.9°F-0.6°C 9.9°F-12.3°C 41% 2.3 mph S3.7 kmh S 4.6 mph7.4 kmh 28.39 in961.4 mb - 0.00 in0.0 mm 0.00 in0.0 mm
03:06 AM 30.9°F-0.6°C 9.9°F-12.3°C 41% 2.3 mph SSE3.7 kmh SSE 2.3 mph3.7 kmh 28.39 in961.4 mb - 0.00 in0.0 mm 0.00 in0.0 mm
03:07 AM 30.9°F-0.6°C 9.9°F-12.3°C 41% 3.5 mph S5.6 kmh S 9.2 mph14.8 kmh 28.39 in961.4 mb - 0.00 in0.0 mm 0.00 in0.0 mm
03:08 AM 30.9°F-0.6°C 9.9°F-12.3°C 41% 6.9 mph ESE11.1 kmh ESE 9.2 mph14.8 kmh 28.39 in961.4 mb - 0.00 in0.0 mm 0.00 in0.0 mm
03:09 AM 30.9°F-0.6°C 9.9°F-12.3°C 41% 4.6 mph SE7.4 kmh SE 5.8 mph9.3 kmh 28.39 in961.4 mb - 0.00 in0.0 mm 0.00 in0.0 mm
03:10 AM 30.9°F-0.6°C 10.5°F-11.9°C 42% 3.5 mph SW5.6 kmh SW 4.6 mph7.4 kmh 28.39 in961.4 mb - 0.00 in0.0 mm 0.00 in0.0 mm
03:11 AM 30.9°F-0.6°C 10.5°F-11.9°C 42% 4.6 mph SE7.4 kmh SE 5.8 mph9.3 kmh 28.39 in961.4 mb - 0.00 in0.0 mm 0.00 in0.0 mm
03:12 AM 30.9°F-0.6°C 10.5°F-11.9°C 42% 3.5 mph ENE5.6 kmh ENE 4.6 mph7.4 kmh 28.39 in961.4 mb - 0.00 in0.0 mm 0.00 in0.0 mm
03:13 AM 30.9°F-0.6°C 10.5°F-11.9°C 42% 2.3 mph S3.7 kmh S 2.3 mph3.7 kmh 28.39 in961.4 mb - 0.00 in0.0 mm 0.00 in0.0 mm
03:14 AM 30.9°F-0.6°C 10.5°F-11.9°C 42% 2.3 mph S3.7 kmh S 2.3 mph3.7 kmh 28.39 in961.4 mb - 0.00 in0.0 mm 0.00 in0.0 mm
03:15 AM 30.9°F-0.6°C 10.5°F-11.9°C 42% 2.3 mph N3.7 kmh N 2.3 mph3.7 kmh 28.39 in961.4 mb - 0.00 in0.0 mm 0.00 in0.0 mm
03:16 AM 30.9°F-0.6°C 10.5°F-11.9°C 42% 2.3 mph SE3.7 kmh SE 4.6 mph7.4 kmh 28.39 in961.4 mb - 0.00 in0.0 mm 0.00 in0.0 mm
03:17 AM 30.9°F-0.6°C 10.5°F-11.9°C 42% 2.3 mph SE3.7 kmh SE 4.6 mph7.4 kmh 28.39 in961.4 mb - 0.00 in0.0 mm 0.00 in0.0 mm
03:18 AM 30.9°F-0.6°C 10.5°F-11.9°C 42% 3.5 mph SE5.6 kmh SE 6.9 mph11.1 kmh 28.39 in961.4 mb - 0.00 in0.0 mm 0.00 in0.0 mm
03:19 AM 30.9°F-0.6°C 10.5°F-11.9°C 42% 3.5 mph SSE5.6 kmh SSE 3.5 mph5.6 kmh 28.39 in961.4 mb - 0.00 in0.0 mm 0.00 in0.0 mm
03:20 AM 30.9°F-0.6°C 10.5°F-11.9°C 42% 2.3 mph ESE3.7 kmh ESE 3.5 mph5.6 kmh 28.39 in961.4 mb - 0.00 in0.0 mm 0.00 in0.0 mm
03:21 AM 30.9°F-0.6°C 10.5°F-11.9°C 42% 1.2 mph SE1.9 kmh SE 2.3 mph3.7 kmh 28.39 in961.4 mb - 0.00 in0.0 mm 0.00 in0.0 mm
03:22 AM 30.9°F-0.6°C 10.5°F-11.9°C 42% 2.3 mph SSE3.7 kmh SSE 3.5 mph5.6 kmh 28.39 in961.4 mb - 0.00 in0.0 mm 0.00 in0.0 mm
03:23 AM 30.9°F-0.6°C 10.5°F-11.9°C 42% 2.3 mph SE3.7 kmh SE 5.8 mph9.3 kmh 28.39 in961.4 mb - 0.00 in0.0 mm 0.00 in0.0 mm
03:24 AM 30.9°F-0.6°C 10.5°F-11.9°C 42% 4.6 mph ESE7.4 kmh ESE 5.8 mph9.3 kmh 28.39 in961.4 mb - 0.00 in0.0 mm 0.00 in0.0 mm
03:25 AM 30.9°F-0.6°C 10.5°F-11.9°C 42% 3.5 mph E5.6 kmh E 3.5 mph5.6 kmh 28.39 in961.4 mb - 0.00 in0.0 mm 0.00 in0.0 mm
03:26 AM 30.9°F-0.6°C 10.5°F-11.9°C 42% 3.5 mph SE5.6 kmh SE 4.6 mph7.4 kmh 28.39 in961.4 mb - 0.00 in0.0 mm 0.00 in0.0 mm
03:27 AM 30.9°F-0.6°C 10.5°F-11.9°C 42% 2.3 mph SE3.7 kmh SE 2.3 mph3.7 kmh 28.39 in961.4 mb - 0.00 in0.0 mm 0.00 in0.0 mm
03:28 AM 30.9°F-0.6°C 10.5°F-11.9°C 42% 2.3 mph SSE3.7 kmh SSE 4.6 mph7.4 kmh 28.39 in961.4 mb - 0.00 in0.0 mm 0.00 in0.0 mm
03:29 AM 30.9°F-0.6°C 10.5°F-11.9°C 42% 3.5 mph SW5.6 kmh SW 5.8 mph9.3 kmh 28.39 in961.4 mb - 0.00 in0.0 mm 0.00 in0.0 mm
03:30 AM 30.9°F-0.6°C 10.5°F-11.9°C 42% 3.5 mph SE5.6 kmh SE 3.5 mph5.6 kmh 28.39 in961.4 mb - 0.00 in0.0 mm 0.00 in0.0 mm
03:31 AM 30.9°F-0.6°C 10.5°F-11.9°C 42% 3.5 mph ESE5.6 kmh ESE 5.8 mph9.3 kmh 28.39 in961.4 mb - 0.00 in0.0 mm 0.00 in0.0 mm
03:32 AM 30.9°F-0.6°C 10.5°F-11.9°C 42% 3.5 mph ESE5.6 kmh ESE 4.6 mph7.4 kmh 28.39 in961.4 mb - 0.00 in0.0 mm 0.00 in0.0 mm
03:33 AM 30.9°F-0.6°C 10.5°F-11.9°C 42% 2.3 mph ESE3.7 kmh ESE 4.6 mph7.4 kmh 28.39 in961.4 mb - 0.00 in0.0 mm 0.00 in0.0 mm
03:34 AM 30.9°F-0.6°C 10.5°F-11.9°C 42% 3.5 mph SE5.6 kmh SE 4.6 mph7.4 kmh 28.39 in961.4 mb - 0.00 in0.0 mm 0.00 in0.0 mm
03:35 AM 30.9°F-0.6°C 11.0°F-11.7°C 43% 1.2 mph SE1.9 kmh SE 1.2 mph1.9 kmh 28.39 in961.4 mb - 0.00 in0.0 mm 0.00 in0.0 mm
03:36 AM 30.9°F-0.6°C 11.5°F-11.4°C 44% 1.2 mph SE1.9 kmh SE 3.5 mph5.6 kmh 28.39 in961.4 mb - 0.00 in0.0 mm 0.00 in0.0 mm
03:37 AM 30.9°F-0.6°C 11.5°F-11.4°C 44% 2.3 mph SSE3.7 kmh SSE 3.5 mph5.6 kmh 28.39 in961.4 mb - 0.00 in0.0 mm 0.00 in0.0 mm
03:38 AM 30.9°F-0.6°C 11.5°F-11.4°C 44% 2.3 mph SE3.7 kmh SE 2.3 mph3.7 kmh 28.39 in961.4 mb - 0.00 in0.0 mm 0.00 in0.0 mm
03:39 AM 30.9°F-0.6°C 11.5°F-11.4°C 44% 2.3 mph SSE3.7 kmh SSE 2.3 mph3.7 kmh 28.39 in961.4 mb - 0.00 in0.0 mm 0.00 in0.0 mm
03:40 AM 30.9°F-0.6°C 11.5°F-11.4°C 44% 2.3 mph E3.7 kmh E 4.6 mph7.4 kmh 28.39 in961.4 mb - 0.00 in0.0 mm 0.00 in0.0 mm
03:41 AM 31.0°F-0.6°C 11.6°F-11.3°C 44% 3.5 mph SE5.6 kmh SE 5.8 mph9.3 kmh 28.39 in961.4 mb - 0.00 in0.0 mm 0.00 in0.0 mm
03:42 AM 31.1°F-0.5°C 11.7°F-11.3°C 44% 4.6 mph S7.4 kmh S 4.6 mph7.4 kmh 28.39 in961.4 mb - 0.00 in0.0 mm 0.00 in0.0 mm
03:43 AM 31.1°F-0.5°C 11.7°F-11.3°C 44% 3.5 mph S5.6 kmh S 5.8 mph9.3 kmh 28.39 in961.4 mb - 0.00 in0.0 mm 0.00 in0.0 mm
03:44 AM 31.1°F-0.5°C 11.7°F-11.3°C 44% 4.6 mph ESE7.4 kmh ESE 5.8 mph9.3 kmh 28.39 in961.4 mb - 0.00 in0.0 mm 0.00 in0.0 mm
03:45 AM 31.1°F-0.5°C 11.7°F-11.3°C 44% 6.9 mph E11.1 kmh E 10.4 mph16.7 kmh 28.39 in961.4 mb - 0.00 in0.0 mm 0.00 in0.0 mm
03:46 AM 31.3°F-0.4°C 11.9°F-11.2°C 44% 5.8 mph ESE9.3 kmh ESE 5.8 mph9.3 kmh 28.39 in961.4 mb - 0.00 in0.0 mm 0.00 in0.0 mm
03:47 AM 31.3°F-0.4°C 11.9°F-11.2°C 44% 4.6 mph NE7.4 kmh NE 4.6 mph7.4 kmh 28.39 in961.4 mb - 0.00 in0.0 mm 0.00 in0.0 mm
03:48 AM 31.3°F-0.4°C 11.9°F-11.2°C 44% 3.5 mph SE5.6 kmh SE 3.5 mph5.6 kmh 28.39 in961.4 mb - 0.00 in0.0 mm 0.00 in0.0 mm
03:49 AM 31.3°F-0.4°C 11.9°F-11.2°C 44% 1.2 mph ENE1.9 kmh ENE 3.5 mph5.6 kmh 28.39 in961.4 mb - 0.00 in0.0 mm 0.00 in0.0 mm
03:50 AM 31.3°F-0.4°C 11.9°F-11.2°C 44% 2.3 mph NE3.7 kmh NE 4.6 mph7.4 kmh 28.39 in961.4 mb - 0.00 in0.0 mm 0.00 in0.0 mm
03:51 AM 31.3°F-0.4°C 11.9°F-11.2°C 44% 4.6 mph SE7.4 kmh SE 4.6 mph7.4 kmh 28.39 in961.4 mb - 0.00 in0.0 mm 0.00 in0.0 mm
03:52 AM 31.3°F-0.4°C 11.9°F-11.2°C 44% 2.3 mph E3.7 kmh E 4.6 mph7.4 kmh 28.39 in961.4 mb - 0.00 in0.0 mm 0.00 in0.0 mm
03:53 AM 31.3°F-0.4°C 11.9°F-11.2°C 44% 3.5 mph E5.6 kmh E 5.8 mph9.3 kmh 28.39 in961.4 mb - 0.00 in0.0 mm 0.00 in0.0 mm
03:54 AM 31.3°F-0.4°C 11.9°F-11.2°C 44% 3.5 mph SE5.6 kmh SE 5.8 mph9.3 kmh 28.39 in961.4 mb - 0.00 in0.0 mm 0.00 in0.0 mm
03:55 AM 31.3°F-0.4°C 11.9°F-11.2°C 44% 2.3 mph SE3.7 kmh SE 4.6 mph7.4 kmh 28.39 in961.4 mb - 0.00 in0.0 mm 0.00 in0.0 mm
03:56 AM 31.3°F-0.4°C 11.9°F-11.2°C 44% 3.5 mph SSE5.6 kmh SSE 4.6 mph7.4 kmh 28.39 in961.4 mb - 0.00 in0.0 mm 0.00 in0.0 mm
03:57 AM 31.3°F-0.4°C 11.9°F-11.2°C 44% 1.2 mph SSE1.9 kmh SSE 1.2 mph1.9 kmh 28.39 in961.4 mb - 0.00 in0.0 mm 0.00 in0.0 mm
03:58 AM 31.3°F-0.4°C 11.9°F-11.2°C 44% 1.2 mph SW1.9 kmh SW 4.6 mph7.4 kmh 28.39 in961.4 mb - 0.00 in0.0 mm 0.00 in0.0 mm
03:59 AM 31.3°F-0.4°C 11.9°F-11.2°C 44% 2.3 mph S3.7 kmh S 3.5 mph5.6 kmh 28.39 in961.4 mb - 0.00 in0.0 mm 0.00 in0.0 mm
04:00 AM 31.3°F-0.4°C 11.9°F-11.2°C 44% 3.5 mph S5.6 kmh S 4.6 mph7.4 kmh 28.39 in961.4 mb - 0.00 in0.0 mm 0.00 in0.0 mm
04:01 AM 31.3°F-0.4°C 12.4°F-10.9°C 45% 2.3 mph S3.7 kmh S 2.3 mph3.7 kmh 28.39 in961.4 mb - 0.00 in0.0 mm 0.00 in0.0 mm
04:02 AM 31.3°F-0.4°C 12.4°F-10.9°C 45% 2.3 mph SSE3.7 kmh SSE 4.6 mph7.4 kmh 28.39 in961.4 mb - 0.00 in0.0 mm 0.00 in0.0 mm
04:03 AM 31.3°F-0.4°C 12.4°F-10.9°C 45% 3.5 mph SSE5.6 kmh SSE 2.3 mph3.7 kmh 28.39 in961.4 mb - 0.00 in0.0 mm 0.00 in0.0 mm
04:04 AM 31.3°F-0.4°C 12.4°F-10.9°C 45% 1.2 mph E1.9 kmh E 1.2 mph1.9 kmh 28.39 in961.4 mb - 0.00 in0.0 mm 0.00 in0.0 mm
04:05 AM 31.3°F-0.4°C 12.4°F-10.9°C 45% 1.2 mph S1.9 kmh S 1.2 mph1.9 kmh 28.39 in961.4 mb - 0.00 in0.0 mm 0.00 in0.0 mm
04:06 AM 31.3°F-0.4°C 12.4°F-10.9°C 45% 1.2 mph SE1.9 kmh SE 3.5 mph5.6 kmh 28.39 in961.4 mb - 0.00 in0.0 mm 0.00 in0.0 mm
04:07 AM 31.4°F-0.3°C 12.5°F-10.8°C 45% 2.3 mph SSE3.7 kmh SSE 3.5 mph5.6 kmh 28.39 in961.4 mb - 0.00 in0.0 mm 0.00 in0.0 mm
04:08 AM 31.5°F-0.3°C 12.6°F-10.8°C 45% 3.5 mph SE5.6 kmh SE 3.5 mph5.6 kmh 28.39 in961.4 mb - 0.00 in0.0 mm 0.00 in0.0 mm
04:09 AM 31.5°F-0.3°C 12.6°F-10.8°C 45% 2.3 mph SE3.7 kmh SE 3.5 mph5.6 kmh 28.39 in961.4 mb - 0.00 in0.0 mm 0.00 in0.0 mm
04:10 AM 31.5°F-0.3°C 12.6°F-10.8°C 45% 2.3 mph NE3.7 kmh NE 3.5 mph5.6 kmh 28.39 in961.4 mb - 0.00 in0.0 mm 0.00 in0.0 mm
04:11 AM 31.5°F-0.3°C 13.1°F-10.5°C 46% 1.2 mph NE1.9 kmh NE 2.3 mph3.7 kmh 28.39 in961.4 mb - 0.00 in0.0 mm 0.00 in0.0 mm
04:12 AM 31.5°F-0.3°C 13.1°F-10.5°C 46% 2.3 mph SSE3.7 kmh SSE 2.3 mph3.7 kmh 28.39 in961.4 mb - 0.00 in0.0 mm 0.00 in0.0 mm
04:13 AM 31.5°F-0.3°C 13.1°F-10.5°C 46% 3.5 mph S5.6 kmh S 5.8 mph9.3 kmh 28.38 in961.1 mb - 0.00 in0.0 mm 0.00 in0.0 mm
04:14 AM 31.5°F-0.3°C 13.1°F-10.5°C 46% 4.6 mph SE7.4 kmh SE 4.6 mph7.4 kmh 28.38 in961.1 mb - 0.00 in0.0 mm 0.00 in0.0 mm
04:15 AM 31.5°F-0.3°C 13.1°F-10.5°C 46% 2.3 mph SSW3.7 kmh SSW 2.3 mph3.7 kmh 28.38 in961.1 mb - 0.00 in0.0 mm 0.00 in0.0 mm
04:16 AM 31.5°F-0.3°C 13.1°F-10.5°C 46% 2.3 mph S3.7 kmh S 10.4 mph16.7 kmh 28.38 in961.1 mb - 0.00 in0.0 mm 0.00 in0.0 mm
04:17 AM 31.5°F-0.3°C 13.6°F-10.2°C 47% 4.6 mph SE7.4 kmh SE 4.6 mph7.4 kmh 28.38 in961.1 mb - 0.00 in0.0 mm 0.00 in0.0 mm
04:18 AM 31.5°F-0.3°C 14.0°F-10.0°C 48% 3.5 mph SSE5.6 kmh SSE 6.9 mph11.1 kmh 28.38 in961.1 mb - 0.00 in0.0 mm 0.00 in0.0 mm
04:19 AM 31.6°F-0.2°C 14.1°F-9.9°C 48% 4.6 mph SE7.4 kmh SE 5.8 mph9.3 kmh 28.38 in961.1 mb - 0.00 in0.0 mm 0.00 in0.0 mm
04:20 AM 31.6°F-0.2°C 14.1°F-9.9°C 48% 3.5 mph SE5.6 kmh SE 3.5 mph5.6 kmh 28.38 in961.1 mb - 0.00 in0.0 mm 0.00 in0.0 mm
04:21 AM 31.6°F-0.2°C 14.6°F-9.7°C 49% 2.3 mph SE3.7 kmh SE 3.5 mph5.6 kmh 28.38 in961.1 mb - 0.00 in0.0 mm 0.00 in0.0 mm
04:22 AM 31.6°F-0.2°C 14.6°F-9.7°C 49% 2.3 mph SW3.7 kmh SW 3.5 mph5.6 kmh 28.38 in961.1 mb - 0.00 in0.0 mm 0.00 in0.0 mm
04:23 AM 31.6°F-0.2°C 14.6°F-9.7°C 49% 3.5 mph S5.6 kmh S 4.6 mph7.4 kmh 28.38 in961.1 mb - 0.00 in0.0 mm 0.00 in0.0 mm
04:24 AM 31.6°F-0.2°C 15.1°F-9.4°C 50% 3.5 mph SE5.6 kmh SE 4.6 mph7.4 kmh 28.38 in961.1 mb - 0.00 in0.0 mm 0.00 in0.0 mm
04:25 AM 31.7°F-0.2°C 15.1°F-9.4°C 50% 4.6 mph SE7.4 kmh SE 9.2 mph14.8 kmh 28.38 in961.1 mb - 0.00 in0.0 mm 0.00 in0.0 mm
04:26 AM 31.8°F-0.1°C 15.7°F-9.1°C 51% 6.9 mph S11.1 kmh S 8.1 mph13.0 kmh 28.38 in961.1 mb - 0.00 in0.0 mm 0.00 in0.0 mm
04:27 AM 31.8°F-0.1°C 15.7°F-9.1°C 51% 3.5 mph SSE5.6 kmh SSE 2.3 mph3.7 kmh 28.38 in961.1 mb - 0.00 in0.0 mm 0.00 in0.0 mm
04:28 AM 31.8°F-0.1°C 15.7°F-9.1°C 51% 2.3 mph S3.7 kmh S 3.5 mph5.6 kmh 28.38 in961.1 mb - 0.00 in0.0 mm 0.00 in0.0 mm
04:29 AM 31.8°F-0.1°C 15.7°F-9.1°C 51% 2.3 mph SE3.7 kmh SE 3.5 mph5.6 kmh 28.38 in961.1 mb - 0.00 in0.0 mm 0.00 in0.0 mm
04:30 AM 31.8°F-0.1°C 15.7°F-9.1°C 51% 2.3 mph SE3.7 kmh SE 4.6 mph7.4 kmh 28.38 in961.1 mb - 0.00 in0.0 mm 0.00 in0.0 mm
04:31 AM 31.8°F-0.1°C 15.7°F-9.1°C 51% 2.3 mph S3.7 kmh S 4.6 mph7.4 kmh 28.38 in961.1 mb - 0.00 in0.0 mm 0.00 in0.0 mm
04:32 AM 31.8°F-0.1°C 15.7°F-9.1°C 51% 3.5 mph SE5.6 kmh SE 4.6 mph7.4 kmh 28.38 in961.1 mb - 0.00 in0.0 mm 0.00 in0.0 mm
04:33 AM 31.8°F-0.1°C 15.7°F-9.1°C 51% 3.5 mph SSE5.6 kmh SSE 3.5 mph5.6 kmh 28.38 in961.1 mb - 0.00 in0.0 mm 0.00 in0.0 mm
04:34 AM 31.8°F-0.1°C 15.7°F-9.1°C 51% 2.3 mph ESE3.7 kmh ESE 4.6 mph7.4 kmh 28.38 in961.1 mb - 0.00 in0.0 mm 0.00 in0.0 mm
04:35 AM 31.9°F-0.1°C 15.8°F-9.0°C 51% 4.6 mph SE7.4 kmh SE 6.9 mph11.1 kmh 28.38 in961.1 mb - 0.00 in0.0 mm 0.00 in0.0 mm
04:36 AM 32.0°F0.0°C 15.9°F-8.9°C 51% 4.6 mph SE7.4 kmh SE 6.9 mph11.1 kmh 28.38 in961.1 mb - 0.00 in0.0 mm 0.00 in0.0 mm
04:37 AM 32.0°F0.0°C 16.3°F-8.7°C 52% 3.5 mph SE5.6 kmh SE 5.8 mph9.3 kmh 28.38 in961.1 mb - 0.00 in0.0 mm 0.00 in0.0 mm
04:38 AM 32.0°F0.0°C 16.8°F-8.4°C 53% 3.5 mph SE5.6 kmh SE 5.8 mph9.3 kmh 28.38 in961.1 mb - 0.00 in0.0 mm 0.00 in0.0 mm
04:39 AM 32.0°F0.0°C 16.8°F-8.4°C 53% 2.3 mph ENE3.7 kmh ENE 4.6 mph7.4 kmh 28.38 in961.1 mb - 0.00 in0.0 mm 0.00 in0.0 mm
04:40 AM 32.0°F0.0°C 16.8°F-8.4°C 53% 3.5 mph SE5.6 kmh SE 4.6 mph7.4 kmh 28.38 in961.1 mb - 0.00 in0.0 mm 0.00 in0.0 mm
04:41 AM 32.0°F0.0°C 16.3°F-8.7°C 52% 2.3 mph E3.7 kmh E 4.6 mph7.4 kmh 28.38 in961.1 mb - 0.00 in0.0 mm 0.00 in0.0 mm
04:42 AM 32.0°F0.0°C 16.3°F-8.7°C 52% 2.3 mph W3.7 kmh W 3.5 mph5.6 kmh 28.38 in961.1 mb - 0.00 in0.0 mm 0.00 in0.0 mm
04:43 AM 32.0°F0.0°C 16.3°F-8.7°C 52% 2.3 mph ESE3.7 kmh ESE 3.5 mph5.6 kmh 28.38 in961.1 mb - 0.00 in0.0 mm 0.00 in0.0 mm
04:44 AM 32.0°F0.0°C 15.9°F-8.9°C 51% 4.6 mph SE7.4 kmh SE 6.9 mph11.1 kmh 28.38 in961.1 mb - 0.00 in0.0 mm 0.00 in0.0 mm
04:45 AM 32.1°F0.1°C 16.4°F-8.7°C 52% 4.6 mph SE7.4 kmh SE 6.9 mph11.1 kmh 28.38 in961.1 mb - 0.00 in0.0 mm 0.00 in0.0 mm
04:46 AM 32.2°F0.1°C 17.0°F-8.3°C 53% 2.3 mph WSW3.7 kmh WSW 2.3 mph3.7 kmh 28.38 in961.1 mb - 0.00 in0.0 mm 0.00 in0.0 mm
04:47 AM 32.2°F0.1°C 17.0°F-8.3°C 53% 2.3 mph SE3.7 kmh SE 5.8 mph9.3 kmh 28.38 in961.1 mb - 0.00 in0.0 mm 0.00 in0.0 mm
04:48 AM 32.2°F0.1°C 17.0°F-8.3°C 53% 3.5 mph ESE5.6 kmh ESE 5.8 mph9.3 kmh 28.38 in961.1 mb - 0.00 in0.0 mm 0.00 in0.0 mm
04:49 AM 32.2°F0.1°C 17.0°F-8.3°C 53% 4.6 mph ESE7.4 kmh ESE 5.8 mph9.3 kmh 28.37 in960.7 mb - 0.00 in0.0 mm 0.00 in0.0 mm
04:50 AM 32.2°F0.1°C 17.0°F-8.3°C 53% 3.5 mph SE5.6 kmh SE 4.6 mph7.4 kmh 28.37 in960.7 mb - 0.00 in0.0 mm 0.00 in0.0 mm
04:51 AM 32.2°F0.1°C 17.0°F-8.3°C 53% 2.3 mph SE3.7 kmh SE 3.5 mph5.6 kmh 28.37 in960.7 mb - 0.00 in0.0 mm 0.00 in0.0 mm
04:52 AM 32.2°F0.1°C 17.0°F-8.3°C 53% 3.5 mph ESE5.6 kmh ESE 4.6 mph7.4 kmh 28.37 in960.7 mb - 0.00 in0.0 mm 0.00 in0.0 mm
04:53 AM 32.2°F0.1°C 17.0°F-8.3°C 53% 3.5 mph SE5.6 kmh SE 5.8 mph9.3 kmh 28.37 in960.7 mb - 0.00 in0.0 mm 0.00 in0.0 mm
04:54 AM 32.2°F0.1°C 17.0°F-8.3°C 53% 3.5 mph SE5.6 kmh SE 4.6 mph7.4 kmh 28.37 in960.7 mb - 0.00 in0.0 mm 0.00 in0.0 mm
04:55 AM 32.2°F0.1°C 17.0°F-8.3°C 53% 3.5 mph ESE5.6 kmh ESE 4.6 mph7.4 kmh 28.37 in960.7 mb - 0.00 in0.0 mm 0.00 in0.0 mm
04:56 AM 32.2°F0.1°C 17.4°F-8.1°C 54% 2.3 mph ESE3.7 kmh ESE 3.5 mph5.6 kmh 28.37 in960.7 mb - 0.00 in0.0 mm 0.00 in0.0 mm
04:57 AM 32.2°F0.1°C 17.4°F-8.1°C 54% 2.3 mph ESE3.7 kmh ESE 3.5 mph5.6 kmh 28.37 in960.7 mb - 0.00 in0.0 mm 0.00 in0.0 mm
04:58 AM 32.2°F0.1°C 17.4°F-8.1°C 54% 2.3 mph SE3.7 kmh SE 5.8 mph9.3 kmh 28.37 in960.7 mb - 0.00 in0.0 mm 0.00 in0.0 mm
04:59 AM 32.2°F0.1°C 17.4°F-8.1°C 54% 3.5 mph ESE5.6 kmh ESE 4.6 mph7.4 kmh 28.37 in960.7 mb - 0.00 in0.0 mm 0.00 in0.0 mm
05:00 AM 32.3°F0.2°C 17.5°F-8.1°C 54% 3.5 mph S5.6 kmh S 5.8 mph9.3 kmh 28.37 in960.7 mb - 0.00 in0.0 mm 0.00 in0.0 mm
05:01 AM 32.4°F0.2°C 18.0°F-7.8°C 55% 4.6 mph SSE7.4 kmh SSE 3.5 mph5.6 kmh 28.37 in960.7 mb - 0.00 in0.0 mm 0.00 in0.0 mm
05:02 AM 32.4°F0.2°C 18.0°F-7.8°C 55% 2.3 mph SE3.7 kmh SE 3.5 mph5.6 kmh 28.37 in960.7 mb - 0.00 in0.0 mm 0.00 in0.0 mm
05:03 AM 32.4°F0.2°C 18.0°F-7.8°C 55% 2.3 mph E3.7 kmh E 4.6 mph7.4 kmh 28.37 in960.7 mb - 0.00 in0.0 mm 0.00 in0.0 mm
05:04 AM 32.4°F0.2°C 18.0°F-7.8°C 55% 3.5 mph SE5.6 kmh SE 5.8 mph9.3 kmh 28.37 in960.7 mb - 0.00 in0.0 mm 0.00 in0.0 mm
05:05 AM 32.4°F0.2°C 18.0°F-7.8°C 55% 3.5 mph E5.6 kmh E 8.1 mph13.0 kmh 28.37 in960.7 mb - 0.00 in0.0 mm 0.00 in0.0 mm
05:06 AM 32.4°F0.2°C 18.4°F-7.6°C 56% 4.6 mph E7.4 kmh E 2.3 mph3.7 kmh 28.37 in960.7 mb - 0.00 in0.0 mm 0.00 in0.0 mm
05:07 AM 32.4°F0.2°C 18.4°F-7.6°C 56% 2.3 mph SE3.7 kmh SE 2.3 mph3.7 kmh 28.37 in960.7 mb - 0.00 in0.0 mm 0.00 in0.0 mm
05:08 AM 32.4°F0.2°C 18.4°F-7.6°C 56% 2.3 mph ESE3.7 kmh ESE 3.5 mph5.6 kmh 28.37 in960.7 mb - 0.00 in0.0 mm 0.00 in0.0 mm
05:09 AM 32.4°F0.2°C 18.4°F-7.6°C 56% 2.3 mph SE3.7 kmh SE 2.3 mph3.7 kmh 28.37 in960.7 mb - 0.00 in0.0 mm 0.00 in0.0 mm
05:10 AM 32.4°F0.2°C 18.4°F-7.6°C 56% 2.3 mph ESE3.7 kmh ESE 2.3 mph3.7 kmh 28.37 in960.7 mb - 0.00 in0.0 mm 0.00 in0.0 mm
05:11 AM 32.4°F0.2°C 18.4°F-7.6°C 56% 3.5 mph SE5.6 kmh SE 4.6 mph7.4 kmh 28.37 in960.7 mb - 0.00 in0.0 mm 0.00 in0.0 mm
05:12 AM 32.5°F0.3°C 18.5°F-7.5°C 56% 3.5 mph E5.6 kmh E 2.3 mph3.7 kmh 28.37 in960.7 mb - 0.00 in0.0 mm 0.00 in0.0 mm
05:13 AM 32.5°F0.3°C 18.5°F-7.5°C 56% 3.5 mph SSE5.6 kmh SSE 5.8 mph9.3 kmh 28.37 in960.7 mb - 0.00 in0.0 mm 0.00 in0.0 mm
05:14 AM 32.5°F0.3°C 18.9°F-7.3°C 57% 2.3 mph ESE3.7 kmh ESE 2.3 mph3.7 kmh 28.36 in960.4 mb - 0.00 in0.0 mm 0.00 in0.0 mm
05:15 AM 32.5°F0.3°C 18.9°F-7.3°C 57% 2.3 mph E3.7 kmh E 3.5 mph5.6 kmh 28.36 in960.4 mb - 0.00 in0.0 mm 0.00 in0.0 mm
05:16 AM 32.5°F0.3°C 18.9°F-7.3°C 57% 2.3 mph ENE3.7 kmh ENE 2.3 mph3.7 kmh 28.36 in960.4 mb - 0.00 in0.0 mm 0.00 in0.0 mm
05:17 AM 32.5°F0.3°C 18.9°F-7.3°C 57% 1.2 mph E1.9 kmh E 3.5 mph5.6 kmh 28.36 in960.4 mb - 0.00 in0.0 mm 0.00 in0.0 mm
05:18 AM 32.5°F0.3°C 18.9°F-7.3°C 57% 2.3 mph ESE3.7 kmh ESE 3.5 mph5.6 kmh 28.36 in960.4 mb - 0.00 in0.0 mm 0.00 in0.0 mm
05:19 AM 32.5°F0.3°C 18.9°F-7.3°C 57% 1.2 mph E1.9 kmh E 4.6 mph7.4 kmh 28.36 in960.4 mb - 0.00 in0.0 mm 0.00 in0.0 mm
05:20 AM 32.5°F0.3°C 19.3°F-7.1°C 58% 3.5 mph N5.6 kmh N 4.6 mph7.4 kmh 28.36 in960.4 mb - 0.00 in0.0 mm 0.00 in0.0 mm
05:21 AM 32.5°F0.3°C 19.3°F-7.1°C 58% 2.3 mph SE3.7 kmh SE 4.6 mph7.4 kmh 28.36 in960.4 mb - 0.00 in0.0 mm 0.00 in0.0 mm
05:22 AM 32.5°F0.3°C 19.3°F-7.1°C 58% 4.6 mph E7.4 kmh E 5.8 mph9.3 kmh 28.36 in960.4 mb - 0.00 in0.0 mm 0.00 in0.0 mm
05:23 AM 32.5°F0.3°C 19.7°F-6.8°C 59% 3.5 mph ESE5.6 kmh ESE 2.3 mph3.7 kmh 28.36 in960.4 mb - 0.00 in0.0 mm 0.00 in0.0 mm
05:24 AM 32.5°F0.3°C 19.7°F-6.8°C 59% 2.3 mph ESE3.7 kmh ESE 2.3 mph3.7 kmh 28.36 in960.4 mb - 0.00 in0.0 mm 0.00 in0.0 mm
05:25 AM 32.5°F0.3°C 19.7°F-6.8°C 59% 1.2 mph SE1.9 kmh SE 1.2 mph1.9 kmh 28.36 in960.4 mb - 0.00 in0.0 mm 0.00 in0.0 mm
05:26 AM 32.5°F0.3°C 19.7°F-6.8°C 59% Calm Calm 2.3 mph3.7 kmh 28.36 in960.4 mb - 0.00 in0.0 mm 0.00 in0.0 mm
05:27 AM 32.5°F0.3°C 19.7°F-6.8°C 59% 1.2 mph SW1.9 kmh SW 2.3 mph3.7 kmh 28.36 in960.4 mb - 0.00 in0.0 mm 0.00 in0.0 mm
05:28 AM 32.5°F0.3°C 20.1°F-6.6°C 60% 1.2 mph SSW1.9 kmh SSW 1.2 mph1.9 kmh 28.36 in960.4 mb - 0.00 in0.0 mm 0.00 in0.0 mm
05:29 AM 32.5°F0.3°C 20.1°F-6.6°C 60% Calm Calm 1.2 mph1.9 kmh 28.36 in960.4 mb - 0.00 in0.0 mm 0.00 in0.0 mm
05:30 AM 32.5°F0.3°C 20.1°F-6.6°C 60% Calm Calm -- 28.36 in960.4 mb - 0.00 in0.0 mm 0.00 in0.0 mm
05:31 AM 32.5°F0.3°C 20.1°F-6.6°C 60% Calm Calm 2.3 mph3.7 kmh 28.36 in960.4 mb - 0.00 in0.0 mm 0.00 in0.0 mm
05:32 AM 32.5°F0.3°C 20.1°F-6.6°C 60% 1.2 mph NNE1.9 kmh NNE 2.3 mph3.7 kmh 28.36 in960.4 mb - 0.00 in0.0 mm 0.00 in0.0 mm
05:33 AM 32.5°F0.3°C 20.1°F-6.6°C 60% 1.2 mph S1.9 kmh S 1.2 mph1.9 kmh 28.36 in960.4 mb - 0.00 in0.0 mm 0.00 in0.0 mm
05:34 AM 32.5°F0.3°C 20.5°F-6.4°C 61% 1.2 mph S1.9 kmh S 1.2 mph1.9 kmh 28.36 in960.4 mb - 0.00 in0.0 mm 0.00 in0.0 mm
05:35 AM 32.5°F0.3°C 20.5°F-6.4°C 61% Calm Calm 2.3 mph3.7 kmh 28.36 in960.4 mb - 0.00 in0.0 mm 0.00 in0.0 mm
05:36 AM 32.5°F0.3°C 20.9°F-6.2°C 62% 1.2 mph SE1.9 kmh SE 2.3 mph3.7 kmh 28.36 in960.4 mb - 0.00 in0.0 mm 0.00 in0.0 mm
05:37 AM 32.5°F0.3°C 21.3°F-5.9°C 63% 2.3 mph SSE3.7 kmh SSE 2.3 mph3.7 kmh 28.36 in960.4 mb - 0.00 in0.0 mm 0.00 in0.0 mm
05:38 AM 32.5°F0.3°C 21.3°F-5.9°C 63% 2.3 mph SE3.7 kmh SE 2.3 mph3.7 kmh 28.36 in960.4 mb - 0.00 in0.0 mm 0.00 in0.0 mm
05:39 AM 32.5°F0.3°C 21.7°F-5.7°C 64% 3.5 mph E5.6 kmh E 4.6 mph7.4 kmh 28.36 in960.4 mb - 0.00 in0.0 mm 0.00 in0.0 mm
05:40 AM 32.5°F0.3°C 21.7°F-5.7°C 64% 4.6 mph ESE7.4 kmh ESE 4.6 mph7.4 kmh 28.36 in960.4 mb - 0.00 in0.0 mm 0.00 in0.0 mm
05:41 AM 32.5°F0.3°C 21.7°F-5.7°C 64% 1.2 mph S1.9 kmh S -- 28.36 in960.4 mb - 0.00 in0.0 mm 0.00 in0.0 mm
05:42 AM 32.5°F0.3°C 22.0°F-5.6°C 65% Calm Calm 1.2 mph1.9 kmh 28.36 in960.4 mb - 0.00 in0.0 mm 0.00 in0.0 mm
05:43 AM 32.5°F0.3°C 22.0°F-5.6°C 65% 1.2 mph SE1.9 kmh SE 5.8 mph9.3 kmh 28.36 in960.4 mb - 0.00 in0.0 mm 0.00 in0.0 mm
05:44 AM 32.5°F0.3°C 22.0°F-5.6°C 65% 3.5 mph SE5.6 kmh SE 4.6 mph7.4 kmh 28.36 in960.4 mb - 0.00 in0.0 mm 0.00 in0.0 mm
05:45 AM 32.7°F0.4°C 22.6°F-5.2°C 66% 3.5 mph SE5.6 kmh SE 3.5 mph5.6 kmh 28.36 in960.4 mb - 0.00 in0.0 mm 0.00 in0.0 mm
05:46 AM 32.7°F0.4°C 22.6°F-5.2°C 66% 1.2 mph NE1.9 kmh NE 1.2 mph1.9 kmh 28.36 in960.4 mb - 0.00 in0.0 mm 0.00 in0.0 mm
05:47 AM 32.7°F0.4°C 22.6°F-5.2°C 66% 1.2 mph SW1.9 kmh SW 2.3 mph3.7 kmh 28.36 in960.4 mb - 0.00 in0.0 mm 0.00 in0.0 mm
05:48 AM 32.7°F0.4°C 22.6°F-5.2°C 66% 2.3 mph S3.7 kmh S 3.5 mph5.6 kmh 28.36 in960.4 mb - 0.00 in0.0 mm 0.00 in0.0 mm
05:49 AM 32.7°F0.4°C 22.6°F-5.2°C 66% 3.5 mph SE5.6 kmh SE 3.5 mph5.6 kmh 28.36 in960.4 mb - 0.00 in0.0 mm 0.00 in0.0 mm
05:50 AM 32.8°F0.4°C 22.7°F-5.2°C 66% 2.3 mph SSW3.7 kmh SSW 4.6 mph7.4 kmh 28.36 in960.4 mb - 0.00 in0.0 mm 0.00 in0.0 mm
05:51 AM 32.9°F0.5°C 23.1°F-4.9°C 67% 3.5 mph S5.6 kmh S 3.5 mph5.6 kmh 28.36 in960.4 mb - 0.00 in0.0 mm 0.00 in0.0 mm
05:52 AM 32.9°F0.5°C 23.1°F-4.9°C 67% 1.2 mph ESE1.9 kmh ESE 1.2 mph1.9 kmh 28.36 in960.4 mb - 0.00 in0.0 mm 0.00 in0.0 mm
05:53 AM 32.9°F0.5°C 23.1°F-4.9°C 67% Calm Calm -- 28.36 in960.4 mb - 0.00 in0.0 mm 0.00 in0.0 mm
05:54 AM 32.9°F0.5°C 23.5°F-4.7°C 68% Calm Calm 1.2 mph1.9 kmh 28.36 in960.4 mb - 0.00 in0.0 mm 0.00 in0.0 mm
05:55 AM 32.9°F0.5°C 23.8°F-4.6°C 69% 1.2 mph ESE1.9 kmh ESE 2.3 mph3.7 kmh 28.36 in960.4 mb - 0.00 in0.0 mm 0.00 in0.0 mm
05:56 AM 32.9°F0.5°C 24.2°F-4.3°C 70% 1.2 mph SE1.9 kmh SE 2.3 mph3.7 kmh 28.36 in960.4 mb - 0.00 in0.0 mm 0.00 in0.0 mm
05:57 AM 32.9°F0.5°C 24.2°F-4.3°C 70% 1.2 mph SE1.9 kmh SE 2.3 mph3.7 kmh 28.36 in960.4 mb - 0.00 in0.0 mm 0.00 in0.0 mm
05:58 AM 33.0°F0.6°C 24.3°F-4.3°C 70% 1.2 mph SSE1.9 kmh SSE 2.3 mph3.7 kmh 28.36 in960.4 mb - 0.00 in0.0 mm 0.00 in0.0 mm
05:59 AM 33.1°F0.6°C 24.7°F-4.1°C 71% 2.3 mph SW3.7 kmh SW 3.5 mph5.6 kmh 28.36 in960.4 mb - 0.00 in0.0 mm 0.00 in0.0 mm
06:00 AM 33.1°F0.6°C 24.7°F-4.1°C 71% 2.3 mph ESE3.7 kmh ESE 3.5 mph5.6 kmh 28.36 in960.4 mb - 0.00 in0.0 mm 0.00 in0.0 mm
06:01 AM 33.1°F0.6°C 24.7°F-4.1°C 71% 1.2 mph SE1.9 kmh SE 3.5 mph5.6 kmh 28.36 in960.4 mb - 0.00 in0.0 mm 0.00 in0.0 mm
06:02 AM 33.1°F0.6°C 25.1°F-3.8°C 72% 2.3 mph S3.7 kmh S 2.3 mph3.7 kmh 28.36 in960.4 mb - 0.00 in0.0 mm 0.00 in0.0 mm
06:03 AM 33.1°F0.6°C 25.1°F-3.8°C 72% 1.2 mph SE1.9 kmh SE 1.2 mph1.9 kmh 28.36 in960.4 mb - 0.00 in0.0 mm 0.00 in0.0 mm
06:04 AM 33.1°F0.6°C 25.1°F-3.8°C 72% Calm Calm 2.3 mph3.7 kmh 28.36 in960.4 mb - 0.00 in0.0 mm 0.00 in0.0 mm
06:05 AM 33.2°F0.7°C 25.5°F-3.6°C 73% 3.5 mph S5.6 kmh S 6.9 mph11.1 kmh 28.36 in960.4 mb - 0.00 in0.0 mm 0.00 in0.0 mm
06:06 AM 33.4°F0.8°C 25.7°F-3.5°C 73% 4.6 mph SSE7.4 kmh SSE 3.5 mph5.6 kmh 28.36 in960.4 mb - 0.00 in0.0 mm 0.00 in0.0 mm
06:07 AM 33.4°F0.8°C 26.0°F-3.3°C 74% 3.5 mph ESE5.6 kmh ESE 6.9 mph11.1 kmh 28.36 in960.4 mb - 0.00 in0.0 mm 0.00 in0.0 mm
06:08 AM 33.4°F0.8°C 26.0°F-3.3°C 74% 3.5 mph S5.6 kmh S 5.8 mph9.3 kmh 28.36 in960.4 mb - 0.00 in0.0 mm 0.00 in0.0 mm
06:09 AM 33.6°F0.9°C 26.2°F-3.2°C 74% 4.6 mph SSE7.4 kmh SSE 5.8 mph9.3 kmh 28.36 in960.4 mb - 0.00 in0.0 mm 0.00 in0.0 mm
06:10 AM 33.6°F0.9°C 26.2°F-3.2°C 74% 3.5 mph S5.6 kmh S 3.5 mph5.6 kmh 28.36 in960.4 mb - 0.00 in0.0 mm 0.00 in0.0 mm
06:11 AM 33.6°F0.9°C 26.2°F-3.2°C 74% 3.5 mph SE5.6 kmh SE 5.8 mph9.3 kmh 28.36 in960.4 mb - 0.00 in0.0 mm 0.00 in0.0 mm
06:12 AM 33.6°F0.9°C 26.2°F-3.2°C 74% 3.5 mph SE5.6 kmh SE 5.8 mph9.3 kmh 28.36 in960.4 mb - 0.00 in0.0 mm 0.00 in0.0 mm
06:13 AM 33.6°F0.9°C 26.2°F-3.2°C 74% 4.6 mph ESE7.4 kmh ESE 5.8 mph9.3 kmh 28.36 in960.4 mb - 0.00 in0.0 mm 0.00 in0.0 mm
06:14 AM 33.8°F1.0°C 26.4°F-3.1°C 74% 4.6 mph E7.4 kmh E 6.9 mph11.1 kmh 28.36 in960.4 mb - 0.00 in0.0 mm 0.00 in0.0 mm
06:15 AM 34.0°F1.1°C 26.5°F-3.1°C 74% 4.6 mph SE7.4 kmh SE 5.8 mph9.3 kmh 28.36 in960.4 mb - 0.00 in0.0 mm 0.00 in0.0 mm
06:16 AM 34.0°F1.1°C 26.6°F-3.0°C 74% 2.3 mph SSE3.7 kmh SSE 2.3 mph3.7 kmh 28.36 in960.4 mb - 0.00 in0.0 mm 0.00 in0.0 mm
06:17 AM 34.0°F1.1°C 26.6°F-3.0°C 74% 1.2 mph SSE1.9 kmh SSE 3.5 mph5.6 kmh 28.36 in960.4 mb - 0.00 in0.0 mm 0.00 in0.0 mm
06:18 AM 34.0°F1.1°C 26.6°F-3.0°C 74% 2.3 mph SSE3.7 kmh SSE 3.5 mph5.6 kmh 28.36 in960.4 mb - 0.00 in0.0 mm 0.00 in0.0 mm
06:19 AM 34.0°F1.1°C 26.6°F-3.0°C 74% 2.3 mph SE3.7 kmh SE 3.5 mph5.6 kmh 28.36 in960.4 mb - 0.00 in0.0 mm 0.00 in0.0 mm
06:20 AM 34.0°F1.1°C 26.6°F-3.0°C 74% 2.3 mph SE3.7 kmh SE 3.5 mph5.6 kmh 28.36 in960.4 mb - 0.00 in0.0 mm 0.00 in0.0 mm
06:21 AM 34.0°F1.1°C 26.6°F-3.0°C 74% 2.3 mph S3.7 kmh S 2.3 mph3.7 kmh 28.36 in960.4 mb - 0.00 in0.0 mm 0.00 in0.0 mm
06:22 AM 34.0°F1.1°C 26.6°F-3.0°C 74% 2.3 mph ENE3.7 kmh ENE 3.5 mph5.6 kmh 28.36 in960.4 mb - 0.00 in0.0 mm 0.00 in0.0 mm
06:23 AM 34.0°F1.1°C 26.6°F-3.0°C 74% 2.3 mph S3.7 kmh S 4.6 mph7.4 kmh 28.36 in960.4 mb - 0.00 in0.0 mm 0.00 in0.0 mm
06:24 AM 34.0°F1.1°C 26.6°F-3.0°C 74% 3.5 mph SE5.6 kmh SE 3.5 mph5.6 kmh 28.36 in960.4 mb - 0.00 in0.0 mm 0.00 in0.0 mm
06:25 AM 34.0°F1.1°C 26.6°F-3.0°C 74% 2.3 mph NNE3.7 kmh NNE 4.6 mph7.4 kmh 28.36 in960.4 mb - 0.00 in0.0 mm 0.00 in0.0 mm
06:26 AM 34.0°F1.1°C 26.9°F-2.8°C 75% 3.5 mph SE5.6 kmh SE 3.5 mph5.6 kmh 28.36 in960.4 mb - 0.00 in0.0 mm 0.00 in0.0 mm
06:27 AM 34.0°F1.1°C 26.9°F-2.8°C 75% 4.6 mph SE7.4 kmh SE 8.1 mph13.0 kmh 28.36 in960.4 mb - 0.00 in0.0 mm 0.00 in0.0 mm
06:28 AM 34.0°F1.1°C 26.9°F-2.8°C 75% 4.6 mph SSE7.4 kmh SSE 6.9 mph11.1 kmh 28.36 in960.4 mb - 0.00 in0.0 mm 0.00 in0.0 mm
06:29 AM 34.0°F1.1°C 26.9°F-2.8°C 75% 4.6 mph E7.4 kmh E 6.9 mph11.1 kmh 28.36 in960.4 mb - 0.00 in0.0 mm 0.00 in0.0 mm
06:30 AM 34.0°F1.1°C 26.9°F-2.8°C 75% 4.6 mph SE7.4 kmh SE 3.5 mph5.6 kmh 28.36 in960.4 mb - 0.00 in0.0 mm 0.00 in0.0 mm
06:31 AM 34.0°F1.1°C 26.9°F-2.8°C 75% 2.3 mph SE3.7 kmh SE 2.3 mph3.7 kmh 28.36 in960.4 mb - 0.00 in0.0 mm 0.00 in0.0 mm
06:32 AM 34.0°F1.1°C 26.9°F-2.8°C 75% 3.5 mph ESE5.6 kmh ESE 4.6 mph7.4 kmh 28.36 in960.4 mb - 0.00 in0.0 mm 0.00 in0.0 mm
06:33 AM 34.0°F1.1°C 26.9°F-2.8°C 75% 3.5 mph SE5.6 kmh SE 3.5 mph5.6 kmh 28.36 in960.4 mb - 0.00 in0.0 mm 0.00 in0.0 mm
06:34 AM 34.0°F1.1°C 26.9°F-2.8°C 75% 3.5 mph S5.6 kmh S 4.6 mph7.4 kmh 28.36 in960.4 mb - 0.00 in0.0 mm 0.00 in0.0 mm
06:35 AM 34.0°F1.1°C 26.9°F-2.8°C 75% 2.3 mph NNW3.7 kmh NNW 4.6 mph7.4 kmh 28.36 in960.4 mb - 0.00 in0.0 mm 0.00 in0.0 mm
06:36 AM 34.0°F1.1°C 27.2°F-2.7°C 76% 4.6 mph S7.4 kmh S 5.8 mph9.3 kmh 28.36 in960.4 mb - 0.00 in0.0 mm 0.00 in0.0 mm
06:37 AM 34.1°F1.2°C 27.3°F-2.6°C 76% 4.6 mph E7.4 kmh E 5.8 mph9.3 kmh 28.36 in960.4 mb - 0.00 in0.0 mm 0.00 in0.0 mm
06:38 AM 34.2°F1.2°C 27.4°F-2.6°C 76% 4.6 mph SE7.4 kmh SE 5.8 mph9.3 kmh 28.36 in960.4 mb - 0.00 in0.0 mm 0.00 in0.0 mm
06:39 AM 34.2°F1.2°C 27.4°F-2.6°C 76% 3.5 mph SE5.6 kmh SE 4.6 mph7.4 kmh 28.36 in960.4 mb - 0.00 in0.0 mm 0.00 in0.0 mm
06:40 AM 34.2°F1.2°C 27.4°F-2.6°C 76% 3.5 mph SE5.6 kmh SE 4.6 mph7.4 kmh 28.36 in960.4 mb - 0.00 in0.0 mm 0.00 in0.0 mm
06:41 AM 34.2°F1.2°C 27.4°F-2.6°C 76% 2.3 mph E3.7 kmh E 3.5 mph5.6 kmh 28.36 in960.4 mb - 0.00 in0.0 mm 0.00 in0.0 mm
06:42 AM 34.2°F1.2°C 27.7°F-2.4°C 77% 2.3 mph SE3.7 kmh SE 3.5 mph5.6 kmh 28.36 in960.4 mb - 0.00 in0.0 mm 0.00 in0.0 mm
06:43 AM 34.2°F1.2°C 27.7°F-2.4°C 77% 3.5 mph ENE5.6 kmh ENE 5.8 mph9.3 kmh 28.36 in960.4 mb - 0.00 in0.0 mm 0.00 in0.0 mm
06:44 AM 34.2°F1.2°C 27.7°F-2.4°C 77% 3.5 mph E5.6 kmh E 4.6 mph7.4 kmh 28.36 in960.4 mb - 0.00 in0.0 mm 0.00 in0.0 mm
06:45 AM 34.2°F1.2°C 27.7°F-2.4°C 77% 2.3 mph NE3.7 kmh NE 5.8 mph9.3 kmh 28.36 in960.4 mb - 0.00 in0.0 mm 0.00 in0.0 mm
06:46 AM 34.3°F1.3°C 28.1°F-2.2°C 78% 4.6 mph SE7.4 kmh SE 5.8 mph9.3 kmh 28.36 in960.4 mb - 0.00 in0.0 mm 0.00 in0.0 mm
06:47 AM 34.3°F1.3°C 28.2°F-2.1°C 78% 2.3 mph SW3.7 kmh SW 2.3 mph3.7 kmh 28.36 in960.4 mb - 0.00 in0.0 mm 0.00 in0.0 mm
06:48 AM 34.3°F1.3°C 28.2°F-2.1°C 78% 2.3 mph S3.7 kmh S 3.5 mph5.6 kmh 28.36 in960.4 mb - 0.00 in0.0 mm 0.00 in0.0 mm
06:49 AM 34.3°F1.3°C 28.2°F-2.1°C 78% 2.3 mph NE3.7 kmh NE 2.3 mph3.7 kmh 28.36 in960.4 mb - 0.00 in0.0 mm 0.00 in0.0 mm
06:50 AM 34.3°F1.3°C 28.2°F-2.1°C 78% 3.5 mph SE5.6 kmh SE 5.8 mph9.3 kmh 28.36 in960.4 mb - 0.00 in0.0 mm 0.00 in0.0 mm
06:51 AM 34.3°F1.3°C 28.5°F-1.9°C 79% 4.6 mph SSE7.4 kmh SSE 4.6 mph7.4 kmh 28.36 in960.4 mb - 0.00 in0.0 mm 0.00 in0.0 mm
06:52 AM 34.3°F1.3°C 28.5°F-1.9°C 79% 3.5 mph SE5.6 kmh SE 3.5 mph5.6 kmh 28.36 in960.4 mb - 0.00 in0.0 mm 0.00 in0.0 mm
06:53 AM 34.3°F1.3°C 28.5°F-1.9°C 79% 2.3 mph E3.7 kmh E 3.5 mph5.6 kmh 28.36 in960.4 mb - 0.00 in0.0 mm 0.00 in0.0 mm
06:54 AM 34.3°F1.3°C 28.5°F-1.9°C 79% 2.3 mph SW3.7 kmh SW 4.6 mph7.4 kmh 28.36 in960.4 mb - 0.00 in0.0 mm 0.00 in0.0 mm
06:55 AM 34.3°F1.3°C 28.5°F-1.9°C 79% 3.5 mph W5.6 kmh W 3.5 mph5.6 kmh 28.36 in960.4 mb - 0.00 in0.0 mm 0.00 in0.0 mm
06:56 AM 34.3°F1.3°C 28.5°F-1.9°C 79% 2.3 mph S3.7 kmh S 3.5 mph5.6 kmh 28.36 in960.4 mb - 0.00 in0.0 mm 0.00 in0.0 mm
06:57 AM 34.3°F1.3°C 28.8°F-1.8°C 80% 3.5 mph SSE5.6 kmh SSE 3.5 mph5.6 kmh 28.36 in960.4 mb - 0.00 in0.0 mm 0.00 in0.0 mm
06:58 AM 34.5°F1.4°C 28.9°F-1.7°C 80% 3.5 mph S5.6 kmh S 3.5 mph5.6 kmh 28.36 in960.4 mb - 0.00 in0.0 mm 0.00 in0.0 mm
06:59 AM 34.5°F1.4°C 29.0°F-1.7°C 80% 3.5 mph SW5.6 kmh SW 5.8 mph9.3 kmh 28.36 in960.4 mb - 0.00 in0.0 mm 0.00 in0.0 mm
07:00 AM 34.5°F1.4°C 29.0°F-1.7°C 80% 3.5 mph SE5.6 kmh SE 2.3 mph3.7 kmh 28.36 in960.4 mb - 0.00 in0.0 mm 0.00 in0.0 mm
07:01 AM 34.5°F1.4°C 29.0°F-1.7°C 80% 2.3 mph S3.7 kmh S 2.3 mph3.7 kmh 28.37 in960.7 mb - 0.00 in0.0 mm 0.00 in0.0 mm
07:02 AM 34.5°F1.4°C 29.0°F-1.7°C 80% 2.3 mph SSE3.7 kmh SSE 4.6 mph7.4 kmh 28.37 in960.7 mb - 0.00 in0.0 mm 0.00 in0.0 mm
07:03 AM 34.5°F1.4°C 29.0°F-1.7°C 80% 4.6 mph S7.4 kmh S 5.8 mph9.3 kmh 28.37 in960.7 mb - 0.00 in0.0 mm 0.00 in0.0 mm
07:04 AM 34.5°F1.4°C 29.3°F-1.5°C 81% 2.3 mph SE3.7 kmh SE 3.5 mph5.6 kmh 28.37 in960.7 mb - 0.00 in0.0 mm 0.00 in0.0 mm
07:05 AM 34.5°F1.4°C 29.3°F-1.5°C 81% 2.3 mph ESE3.7 kmh ESE 4.6 mph7.4 kmh 28.37 in960.7 mb - 0.00 in0.0 mm 0.00 in0.0 mm
07:06 AM 34.6°F1.4°C 29.3°F-1.5°C 81% 4.6 mph SE7.4 kmh SE 5.8 mph9.3 kmh 28.37 in960.7 mb - 0.00 in0.0 mm 0.00 in0.0 mm
07:07 AM 34.7°F1.5°C 29.5°F-1.4°C 81% 3.5 mph S5.6 kmh S 6.9 mph11.1 kmh 28.37 in960.7 mb - 0.00 in0.0 mm 0.00 in0.0 mm
07:08 AM 34.7°F1.5°C 29.8°F-1.2°C 82% 4.6 mph SSE7.4 kmh SSE 6.9 mph11.1 kmh 28.37 in960.7 mb - 0.00 in0.0 mm 0.00 in0.0 mm
07:09 AM 34.7°F1.5°C 29.8°F-1.2°C 82% 4.6 mph S7.4 kmh S 6.9 mph11.1 kmh 28.37 in960.7 mb - 0.00 in0.0 mm 0.00 in0.0 mm
07:10 AM 34.8°F1.6°C 29.9°F-1.2°C 82% 4.6 mph SSE7.4 kmh SSE 6.9 mph11.1 kmh 28.37 in960.7 mb - 0.00 in0.0 mm 0.00 in0.0 mm
07:11 AM 34.9°F1.6°C 30.0°F-1.1°C 82% 3.5 mph SE5.6 kmh SE 3.5 mph5.6 kmh 28.37 in960.7 mb - 0.00 in0.0 mm 0.00 in0.0 mm
07:12 AM 34.9°F1.6°C 30.0°F-1.1°C 82% 3.5 mph SSE5.6 kmh SSE 4.6 mph7.4 kmh 28.37 in960.7 mb - 0.00 in0.0 mm 0.00 in0.0 mm
07:13 AM 34.9°F1.6°C 30.0°F-1.1°C 82% 4.6 mph SE7.4 kmh SE 4.6 mph7.4 kmh 28.37 in960.7 mb - 0.00 in0.0 mm 0.00 in0.0 mm
07:14 AM 34.9°F1.6°C 30.0°F-1.1°C 82% 2.3 mph N3.7 kmh N 4.6 mph7.4 kmh 28.37 in960.7 mb - 0.00 in0.0 mm 0.00 in0.0 mm
07:15 AM 34.9°F1.6°C 30.0°F-1.1°C 82% 3.5 mph SE5.6 kmh SE 4.6 mph7.4 kmh 28.37 in960.7 mb - 0.00 in0.0 mm 0.00 in0.0 mm
07:16 AM 34.9°F1.6°C 30.0°F-1.1°C 82% 3.5 mph WSW5.6 kmh WSW 5.8 mph9.3 kmh 28.37 in960.7 mb - 0.00 in0.0 mm 0.00 in0.0 mm
07:17 AM 34.9°F1.6°C 30.0°F-1.1°C 82% 4.6 mph SE7.4 kmh SE 5.8 mph9.3 kmh 28.37 in960.7 mb - 0.00 in0.0 mm 0.00 in0.0 mm
07:18 AM 34.9°F1.6°C 30.3°F-0.9°C 83% 3.5 mph SE5.6 kmh SE 4.6 mph7.4 kmh 28.37 in960.7 mb - 0.00 in0.0 mm 0.00 in0.0 mm
07:19 AM 34.9°F1.6°C 30.3°F-0.9°C 83% 2.3 mph E3.7 kmh E 2.3 mph3.7 kmh 28.37 in960.7 mb - 0.00 in0.0 mm 0.00 in0.0 mm
07:20 AM 34.9°F1.6°C 30.3°F-0.9°C 83% 2.3 mph SE3.7 kmh SE 2.3 mph3.7 kmh 28.37 in960.7 mb - 0.00 in0.0 mm 0.00 in0.0 mm
07:21 AM 35.0°F1.7°C 30.4°F-0.9°C 83% 3.5 mph S5.6 kmh S 4.6 mph7.4 kmh 28.37 in960.7 mb - 0.00 in0.0 mm 0.00 in0.0 mm
07:22 AM 35.1°F1.7°C 30.5°F-0.8°C 83% 3.5 mph SE5.6 kmh SE 4.6 mph7.4 kmh 28.37 in960.7 mb - 0.00 in0.0 mm 0.00 in0.0 mm
07:23 AM 35.1°F1.7°C 30.5°F-0.8°C 83% 3.5 mph SE5.6 kmh SE 4.6 mph7.4 kmh 28.37 in960.7 mb - 0.00 in0.0 mm 0.00 in0.0 mm
07:24 AM 35.1°F1.7°C 30.5°F-0.8°C 83% 2.3 mph E3.7 kmh E 3.5 mph5.6 kmh 28.37 in960.7 mb - 0.00 in0.0 mm 0.00 in0.0 mm
07:25 AM 35.1°F1.7°C 30.5°F-0.8°C 83% 2.3 mph ESE3.7 kmh ESE 1.2 mph1.9 kmh 28.37 in960.7 mb - 0.00 in0.0 mm 0.00 in0.0 mm
07:26 AM 35.1°F1.7°C 30.5°F-0.8°C 83% Calm Calm 1.2 mph1.9 kmh 28.38 in961.1 mb - 0.00 in0.0 mm 0.00 in0.0 mm
07:27 AM 35.1°F1.7°C 30.5°F-0.8°C 83% 2.3 mph NE3.7 kmh NE 5.8 mph9.3 kmh 28.38 in961.1 mb - 0.00 in0.0 mm 0.00 in0.0 mm
07:28 AM 35.1°F1.7°C 30.5°F-0.8°C 83% 4.6 mph ESE7.4 kmh ESE 5.8 mph9.3 kmh 28.38 in961.1 mb - 0.00 in0.0 mm 0.00 in0.0 mm
07:29 AM 35.1°F1.7°C 30.5°F-0.8°C 83% 3.5 mph ESE5.6 kmh ESE 3.5 mph5.6 kmh 28.38 in961.1 mb - 0.00 in0.0 mm 0.00 in0.0 mm
07:30 AM 35.1°F1.7°C 30.5°F-0.8°C 83% 3.5 mph SE5.6 kmh SE 6.9 mph11.1 kmh 28.38 in961.1 mb - 0.00 in0.0 mm 0.00 in0.0 mm
07:31 AM 35.1°F1.7°C 30.5°F-0.8°C 83% 3.5 mph S5.6 kmh S 3.5 mph5.6 kmh 28.38 in961.1 mb - 0.00 in0.0 mm 0.00 in0.0 mm
07:32 AM 35.2°F1.8°C 30.5°F-0.8°C 83% 2.3 mph S3.7 kmh S 2.3 mph3.7 kmh 28.38 in961.1 mb - 0.00 in0.0 mm 0.00 in0.0 mm
07:33 AM 35.2°F1.8°C 30.6°F-0.8°C 83% 2.3 mph S3.7 kmh S 3.5 mph5.6 kmh 28.38 in961.1 mb - 0.00 in0.0 mm 0.00 in0.0 mm
07:34 AM 35.2°F1.8°C 30.6°F-0.8°C 83% 2.3 mph SE3.7 kmh SE 3.5 mph5.6 kmh 28.38 in961.1 mb - 0.00 in0.0 mm 0.00 in0.0 mm
07:35 AM 35.2°F1.8°C 30.6°F-0.8°C 83% 2.3 mph SE3.7 kmh SE 2.3 mph3.7 kmh 28.38 in961.1 mb - 0.00 in0.0 mm 0.00 in0.0 mm
07:36 AM 35.2°F1.8°C 30.6°F-0.8°C 83% 2.3 mph ESE3.7 kmh ESE 3.5 mph5.6 kmh 28.38 in961.1 mb - 0.00 in0.0 mm 0.00 in0.0 mm
07:37 AM 35.2°F1.8°C 30.6°F-0.8°C 83% 3.5 mph ESE5.6 kmh ESE 3.5 mph5.6 kmh 28.38 in961.1 mb - 0.00 in0.0 mm 0.00 in0.0 mm
07:38 AM 35.2°F1.8°C 30.6°F-0.8°C 83% 2.3 mph SE3.7 kmh SE 4.6 mph7.4 kmh 28.38 in961.1 mb - 0.00 in0.0 mm 0.00 in0.0 mm
07:39 AM 35.2°F1.8°C 30.6°F-0.8°C 83% 3.5 mph SW5.6 kmh SW 4.6 mph7.4 kmh 28.38 in961.1 mb - 0.00 in0.0 mm 0.00 in0.0 mm
07:40 AM 35.2°F1.8°C 30.6°F-0.8°C 83% 3.5 mph SE5.6 kmh SE 3.5 mph5.6 kmh 28.38 in961.1 mb - 0.00 in0.0 mm 0.00 in0.0 mm
07:41 AM 35.2°F1.8°C 30.6°F-0.8°C 83% 2.3 mph S3.7 kmh S 4.6 mph7.4 kmh 28.38 in961.1 mb - 0.00 in0.0 mm 0.00 in0.0 mm
07:42 AM 35.2°F1.8°C 30.6°F-0.8°C 83% 3.5 mph SE5.6 kmh SE 3.5 mph5.6 kmh 28.38 in961.1 mb - 0.00 in0.0 mm 0.00 in0.0 mm
07:43 AM 35.2°F1.8°C 30.6°F-0.8°C 83% 2.3 mph SE3.7 kmh SE 4.6 mph7.4 kmh 28.38 in961.1 mb - 0.00 in0.0 mm 0.00 in0.0 mm
07:44 AM 35.2°F1.8°C 30.6°F-0.8°C 83% 3.5 mph S5.6 kmh S 4.6 mph7.4 kmh 28.38 in961.1 mb - 0.00 in0.0 mm 0.00 in0.0 mm
07:45 AM 35.2°F1.8°C 30.6°F-0.8°C 83% 2.3 mph SE3.7 kmh SE 2.3 mph3.7 kmh 28.38 in961.1 mb - 0.00 in0.0 mm 0.00 in0.0 mm
07:46 AM 35.2°F1.8°C 30.6°F-0.8°C 83% 2.3 mph SSE3.7 kmh SSE 2.3 mph3.7 kmh 28.38 in961.1 mb - 0.00 in0.0 mm 0.00 in0.0 mm
07:47 AM 35.2°F1.8°C 30.6°F-0.8°C 83% 2.3 mph SE3.7 kmh SE 2.3 mph3.7 kmh 28.38 in961.1 mb - 0.00 in0.0 mm 0.00 in0.0 mm
07:48 AM 35.2°F1.8°C 30.6°F-0.8°C 83% 2.3 mph S3.7 kmh S 2.3 mph3.7 kmh 28.38 in961.1 mb - 0.00 in0.0 mm 0.00 in0.0 mm
07:49 AM 35.2°F1.8°C 30.6°F-0.8°C 83% 2.3 mph ESE3.7 kmh ESE 5.8 mph9.3 kmh 28.38 in961.1 mb - 0.00 in0.0 mm 0.00 in0.0 mm
07:50 AM 35.2°F1.8°C 30.6°F-0.8°C 83% 3.5 mph SSE5.6 kmh SSE 5.8 mph9.3 kmh 28.38 in961.1 mb - 0.00 in0.0 mm 0.00 in0.0 mm
07:51 AM 35.2°F1.8°C 30.6°F-0.8°C 83% 2.3 mph SE3.7 kmh SE 2.3 mph3.7 kmh 28.38 in961.1 mb - 0.00 in0.0 mm 0.00 in0.0 mm
07:52 AM 35.2°F1.8°C 30.6°F-0.8°C 83% 3.5 mph SSE5.6 kmh SSE 4.6 mph7.4 kmh 28.38 in961.1 mb - 0.00 in0.0 mm 0.00 in0.0 mm
07:53 AM 35.2°F1.8°C 30.6°F-0.8°C 83% 2.3 mph SE3.7 kmh SE 2.3 mph3.7 kmh 28.38 in961.1 mb - 0.00 in0.0 mm 0.00 in0.0 mm
07:54 AM 35.2°F1.8°C 30.6°F-0.8°C 83% 2.3 mph ESE3.7 kmh ESE 2.3 mph3.7 kmh 28.38 in961.1 mb - 0.00 in0.0 mm 0.00 in0.0 mm
07:55 AM 35.2°F1.8°C 30.6°F-0.8°C 83% 2.3 mph SSE3.7 kmh SSE 2.3 mph3.7 kmh 28.38 in961.1 mb - 0.00 in0.0 mm 0.00 in0.0 mm
07:56 AM 35.2°F1.8°C 30.6°F-0.8°C 83% 2.3 mph ESE3.7 kmh ESE 2.3 mph3.7 kmh 28.38 in961.1 mb - 0.00 in0.0 mm 0.00 in0.0 mm
07:57 AM 35.2°F1.8°C 30.6°F-0.8°C 83% Calm Calm 1.2 mph1.9 kmh 28.38 in961.1 mb - 0.00 in0.0 mm 0.00 in0.0 mm
07:58 AM 35.2°F1.8°C 30.6°F-0.8°C 83% Calm Calm 1.2 mph1.9 kmh 28.38 in961.1 mb - 0.00 in0.0 mm 0.00 in0.0 mm
07:59 AM 35.2°F1.8°C 30.6°F-0.8°C 83% 1.2 mph E1.9 kmh E 2.3 mph3.7 kmh 28.38 in961.1 mb - 0.00 in0.0 mm 0.00 in0.0 mm
08:00 AM 35.2°F1.8°C 30.6°F-0.8°C 83% 1.2 mph E1.9 kmh E 2.3 mph3.7 kmh 28.38 in961.1 mb - 0.00 in0.0 mm 0.00 in0.0 mm
08:01 AM 35.2°F1.8°C 30.6°F-0.8°C 83% 2.3 mph E3.7 kmh E 3.5 mph5.6 kmh 28.37 in960.7 mb - 0.00 in0.0 mm 0.00 in0.0 mm
08:02 AM 35.2°F1.8°C 30.6°F-0.8°C 83% 2.3 mph SE3.7 kmh SE 2.3 mph3.7 kmh 28.37 in960.7 mb - 0.00 in0.0 mm 0.00 in0.0 mm
08:03 AM 35.2°F1.8°C 30.6°F-0.8°C 83% Calm Calm 2.3 mph3.7 kmh 28.37 in960.7 mb - 0.00 in0.0 mm 0.00 in0.0 mm
08:04 AM 35.3°F1.8°C 30.6°F-0.8°C 83% 1.2 mph SSE1.9 kmh SSE 2.3 mph3.7 kmh 28.37 in960.7 mb - 0.00 in0.0 mm 0.00 in0.0 mm
08:05 AM 35.4°F1.9°C 30.8°F-0.7°C 83% 1.2 mph SE1.9 kmh SE 2.3 mph3.7 kmh 28.37 in960.7 mb - 0.00 in0.0 mm 0.00 in0.0 mm
08:06 AM 35.4°F1.9°C 30.8°F-0.7°C 83% Calm Calm 3.5 mph5.6 kmh 28.37 in960.7 mb - 0.00 in0.0 mm 0.00 in0.0 mm
08:07 AM 35.4°F1.9°C 30.8°F-0.7°C 83% 2.3 mph SE3.7 kmh SE 3.5 mph5.6 kmh 28.37 in960.7 mb - 0.00 in0.0 mm 0.00 in0.0 mm
08:08 AM 35.4°F1.9°C 30.8°F-0.7°C 83% 3.5 mph SSE5.6 kmh SSE 4.6 mph7.4 kmh 28.37 in960.7 mb - 0.00 in0.0 mm 0.00 in0.0 mm
08:09 AM 35.4°F1.9°C 31.0°F-0.6°C 84% 2.3 mph SE3.7 kmh SE 2.3 mph3.7 kmh 28.37 in960.7 mb - 0.00 in0.0 mm 0.00 in0.0 mm
08:10 AM 35.4°F1.9°C 31.0°F-0.6°C 84% 1.2 mph E1.9 kmh E 2.3 mph3.7 kmh 28.37 in960.7 mb - 0.00 in0.0 mm 0.00 in0.0 mm
08:11 AM 35.4°F1.9°C 31.0°F-0.6°C 84% 2.3 mph ESE3.7 kmh ESE 2.3 mph3.7 kmh 28.37 in960.7 mb - 0.00 in0.0 mm 0.00 in0.0 mm
08:12 AM 35.4°F1.9°C 31.0°F-0.6°C 84% 1.2 mph E1.9 kmh E 1.2 mph1.9 kmh 28.37 in960.7 mb - 0.00 in0.0 mm 0.00 in0.0 mm
08:13 AM 35.4°F1.9°C 31.0°F-0.6°C 84% 1.2 mph S1.9 kmh S 3.5 mph5.6 kmh 28.37 in960.7 mb - 0.00 in0.0 mm 0.00 in0.0 mm
08:14 AM 35.4°F1.9°C 31.0°F-0.6°C 84% 2.3 mph S3.7 kmh S 3.5 mph5.6 kmh 28.37 in960.7 mb - 0.00 in0.0 mm 0.00 in0.0 mm
08:15 AM 35.4°F1.9°C 31.0°F-0.6°C 84% 1.2 mph SSE1.9 kmh SSE 2.3 mph3.7 kmh 28.37 in960.7 mb - 0.00 in0.0 mm 0.00 in0.0 mm
08:16 AM 35.5°F1.9°C 31.1°F-0.5°C 84% 2.3 mph SSE3.7 kmh SSE 5.8 mph9.3 kmh 28.37 in960.7 mb - 0.00 in0.0 mm 0.00 in0.0 mm
08:17 AM 35.6°F2.0°C 31.2°F-0.4°C 84% 2.3 mph ESE3.7 kmh ESE 2.3 mph3.7 kmh 28.37 in960.7 mb - 0.00 in0.0 mm 0.00 in0.0 mm
08:18 AM 35.6°F2.0°C 31.2°F-0.4°C 84% 1.2 mph E1.9 kmh E 2.3 mph3.7 kmh 28.37 in960.7 mb - 0.00 in0.0 mm 0.00 in0.0 mm
08:19 AM 35.6°F2.0°C 31.2°F-0.4°C 84% Calm Calm 4.6 mph7.4 kmh 28.37 in960.7 mb - 0.00 in0.0 mm 0.00 in0.0 mm
08:20 AM 35.6°F2.0°C 31.2°F-0.4°C 84% 2.3 mph SE3.7 kmh SE 4.6 mph7.4 kmh 28.37 in960.7 mb - 0.00 in0.0 mm 0.00 in0.0 mm
08:21 AM 35.6°F2.0°C 31.2°F-0.4°C 84% 2.3 mph ESE3.7 kmh ESE 5.8 mph9.3 kmh 28.37 in960.7 mb - 0.00 in0.0 mm 0.00 in0.0 mm
08:22 AM 35.7°F2.1°C 31.3°F-0.4°C 84% 3.5 mph SE5.6 kmh SE 5.8 mph9.3 kmh 28.37 in960.7 mb - 0.00 in0.0 mm 0.00 in0.0 mm
08:23 AM 35.8°F2.1°C 31.4°F-0.3°C 84% 3.5 mph S5.6 kmh S 2.3 mph3.7 kmh 28.37 in960.7 mb - 0.00 in0.0 mm 0.00 in0.0 mm
08:24 AM 35.8°F2.1°C 31.4°F-0.3°C 84% 2.3 mph S3.7 kmh S 2.3 mph3.7 kmh 28.37 in960.7 mb - 0.00 in0.0 mm 0.00 in0.0 mm
08:25 AM 35.8°F2.1°C 31.4°F-0.3°C 84% 1.2 mph SE1.9 kmh SE 2.3 mph3.7 kmh 28.37 in960.7 mb - 0.00 in0.0 mm 0.00 in0.0 mm
08:26 AM 35.8°F2.1°C 31.4°F-0.3°C 84% 1.2 mph ESE1.9 kmh ESE 8.1 mph13.0 kmh 28.37 in960.7 mb - 0.00 in0.0 mm 0.00 in0.0 mm
08:27 AM 35.9°F2.2°C 31.8°F-0.1°C 85% 3.5 mph S5.6 kmh S 4.6 mph7.4 kmh 28.37 in960.7 mb - 0.00 in0.0 mm 0.00 in0.0 mm
08:28 AM 36.1°F2.3°C 32.0°F0.0°C 85% 4.6 mph SE7.4 kmh SE 4.6 mph7.4 kmh 28.37 in960.7 mb - 0.00 in0.0 mm 0.00 in0.0 mm
08:29 AM 36.1°F2.3°C 32.0°F0.0°C 85% 3.5 mph SSE5.6 kmh SSE 3.5 mph5.6 kmh 28.37 in960.7 mb - 0.00 in0.0 mm 0.00 in0.0 mm
08:30 AM 36.1°F2.3°C 32.0°F0.0°C 85% 3.5 mph SSE5.6 kmh SSE 3.5 mph5.6 kmh 28.37 in960.7 mb - 0.00 in0.0 mm 0.00 in0.0 mm
08:31 AM 36.1°F2.3°C 32.0°F0.0°C 85% 2.3 mph SE3.7 kmh SE 2.3 mph3.7 kmh 28.37 in960.7 mb - 0.00 in0.0 mm 0.00 in0.0 mm
08:32 AM 36.1°F2.3°C 32.0°F0.0°C 85% 1.2 mph SE1.9 kmh SE 1.2 mph1.9 kmh 28.37 in960.7 mb - 0.00 in0.0 mm 0.00 in0.0 mm
08:33 AM 36.1°F2.3°C 32.0°F0.0°C 85% 2.3 mph SE3.7 kmh SE 3.5 mph5.6 kmh 28.37 in960.7 mb - 0.00 in0.0 mm 0.00 in0.0 mm
08:34 AM 36.1°F2.3°C 32.0°F0.0°C 85% 2.3 mph ESE3.7 kmh ESE 3.5 mph5.6 kmh 28.37 in960.7 mb - 0.00 in0.0 mm 0.00 in0.0 mm
08:35 AM 36.1°F2.3°C 32.0°F0.0°C 85% 2.3 mph ENE3.7 kmh ENE 2.3 mph3.7 kmh 28.37 in960.7 mb - 0.00 in0.0 mm 0.00 in0.0 mm
08:36 AM 36.1°F2.3°C 32.0°F0.0°C 85% 2.3 mph ESE3.7 kmh ESE 2.3 mph3.7 kmh 28.37 in960.7 mb - 0.00 in0.0 mm 0.00 in0.0 mm
08:37 AM 36.1°F2.3°C 32.0°F0.0°C 85% 1.2 mph S1.9 kmh S 1.2 mph1.9 kmh 28.37 in960.7 mb - 0.00 in0.0 mm 0.00 in0.0 mm
08:38 AM 36.2°F2.3°C 32.1°F0.1°C 85% 2.3 mph SE3.7 kmh SE 4.6 mph7.4 kmh 28.37 in960.7 mb - 0.00 in0.0 mm 0.00 in0.0 mm
08:39 AM 36.3°F2.4°C 32.2°F0.1°C 85% 3.5 mph SE5.6 kmh SE 4.6 mph7.4 kmh 28.37 in960.7 mb - 0.00 in0.0 mm 0.00 in0.0 mm
08:40 AM 36.3°F2.4°C 32.2°F0.1°C 85% 3.5 mph SE5.6 kmh SE 4.6 mph7.4 kmh 28.37 in960.7 mb - 0.00 in0.0 mm 0.00 in0.0 mm
08:41 AM 36.3°F2.4°C 32.2°F0.1°C 85% 3.5 mph ESE5.6 kmh ESE 4.6 mph7.4 kmh 28.37 in960.7 mb - 0.00 in0.0 mm 0.00 in0.0 mm
08:42 AM 36.4°F2.4°C 32.3°F0.2°C 85% 3.5 mph E5.6 kmh E 5.8 mph9.3 kmh 28.37 in960.7 mb - 0.00 in0.0 mm 0.00 in0.0 mm
08:43 AM 36.5°F2.5°C 32.4°F0.2°C 85% 3.5 mph ESE5.6 kmh ESE 3.5 mph5.6 kmh 28.37 in960.7 mb - 0.00 in0.0 mm 0.00 in0.0 mm
08:44 AM 36.5°F2.5°C 32.4°F0.2°C 85% 2.3 mph E3.7 kmh E 4.6 mph7.4 kmh 28.37 in960.7 mb - 0.00 in0.0 mm 0.00 in0.0 mm
08:45 AM 36.5°F2.5°C 32.4°F0.2°C 85% 3.5 mph SE5.6 kmh SE 4.6 mph7.4 kmh 28.37 in960.7 mb - 0.00 in0.0 mm 0.00 in0.0 mm
08:46 AM 36.6°F2.6°C 32.5°F0.3°C 85% 3.5 mph SE5.6 kmh SE 5.8 mph9.3 kmh 28.37 in960.7 mb - 0.00 in0.0 mm 0.00 in0.0 mm
08:47 AM 36.7°F2.6°C 32.6°F0.3°C 85% 3.5 mph SSE5.6 kmh SSE 2.3 mph3.7 kmh 28.37 in960.7 mb - 0.00 in0.0 mm 0.00 in0.0 mm
08:48 AM 36.7°F2.6°C 32.6°F0.3°C 85% 1.2 mph E1.9 kmh E 2.3 mph3.7 kmh 28.37 in960.7 mb - 0.00 in0.0 mm 0.00 in0.0 mm
08:49 AM 36.7°F2.6°C 32.6°F0.3°C 85% 1.2 mph E1.9 kmh E 4.6 mph7.4 kmh 28.37 in960.7 mb - 0.00 in0.0 mm 0.00 in0.0 mm
08:50 AM 36.7°F2.6°C 32.6°F0.3°C 85% 2.3 mph ESE3.7 kmh ESE 3.5 mph5.6 kmh 28.37 in960.7 mb - 0.00 in0.0 mm 0.00 in0.0 mm
08:51 AM 36.7°F2.6°C 32.6°F0.3°C 85% 1.2 mph S1.9 kmh S 1.2 mph1.9 kmh 28.37 in960.7 mb - 0.00 in0.0 mm 0.00 in0.0 mm
08:52 AM 36.7°F2.6°C 32.6°F0.3°C 85% 2.3 mph SE3.7 kmh SE 4.6 mph7.4 kmh 28.37 in960.7 mb - 0.00 in0.0 mm 0.00 in0.0 mm
08:53 AM 36.9°F2.7°C 32.8°F0.4°C 85% 3.5 mph SE5.6 kmh SE 4.6 mph7.4 kmh 28.37 in960.7 mb - 0.00 in0.0 mm 0.00 in0.0 mm
08:54 AM 36.9°F2.7°C 32.8°F0.4°C 85% 3.5 mph ESE5.6 kmh ESE 4.6 mph7.4 kmh 28.37 in960.7 mb - 0.00 in0.0 mm 0.00 in0.0 mm
08:55 AM 36.9°F2.7°C 32.8°F0.4°C 85% 2.3 mph E3.7 kmh E 2.3 mph3.7 kmh 28.37 in960.7 mb - 0.00 in0.0 mm 0.00 in0.0 mm
08:56 AM 36.9°F2.7°C 32.8°F0.4°C 85% 1.2 mph SSE1.9 kmh SSE 2.3 mph3.7 kmh 28.37 in960.7 mb - 0.00 in0.0 mm 0.00 in0.0 mm
08:57 AM 36.9°F2.7°C 32.8°F0.4°C 85% 1.2 mph ESE1.9 kmh ESE 1.2 mph1.9 kmh 28.37 in960.7 mb - 0.00 in0.0 mm 0.00 in0.0 mm
08:58 AM 36.9°F2.7°C 32.8°F0.4°C 85% Calm Calm 2.3 mph3.7 kmh 28.37 in960.7 mb - 0.00 in0.0 mm 0.00 in0.0 mm
08:59 AM 37.0°F2.8°C 32.9°F0.5°C 85% 1.2 mph SE1.9 kmh SE 2.3 mph3.7 kmh 28.37 in960.7 mb - 0.00 in0.0 mm 0.00 in0.0 mm
09:00 AM 37.0°F2.8°C 32.9°F0.5°C 85% 1.2 mph S1.9 kmh S 2.3 mph3.7 kmh 28.37 in960.7 mb - 0.00 in0.0 mm 0.00 in0.0 mm
09:01 AM 37.0°F2.8°C 32.9°F0.5°C 85% 1.2 mph SSE1.9 kmh SSE 1.2 mph1.9 kmh 28.37 in960.7 mb - 0.00 in0.0 mm 0.00 in0.0 mm
09:02 AM 37.0°F2.8°C 32.9°F0.5°C 85% 1.2 mph SSE1.9 kmh SSE 2.3 mph3.7 kmh 28.37 in960.7 mb - 0.00 in0.0 mm 0.00 in0.0 mm
09:03 AM 37.0°F2.8°C 32.9°F0.5°C 85% 1.2 mph SE1.9 kmh SE 1.2 mph1.9 kmh 28.37 in960.7 mb - 0.00 in0.0 mm 0.00 in0.0 mm
09:04 AM 37.0°F2.8°C 32.9°F0.5°C 85% 1.2 mph ESE1.9 kmh ESE 3.5 mph5.6 kmh 28.37 in960.7 mb - 0.00 in0.0 mm 0.00 in0.0 mm
09:05 AM 37.0°F2.8°C 32.9°F0.5°C 85% 2.3 mph SSE3.7 kmh SSE 3.5 mph5.6 kmh 28.37 in960.7 mb - 0.00 in0.0 mm 0.00 in0.0 mm
09:06 AM 37.0°F2.8°C 32.9°F0.5°C 85% 1.2 mph SSE1.9 kmh SSE 2.3 mph3.7 kmh 28.37 in960.7 mb - 0.00 in0.0 mm 0.00 in0.0 mm
09:07 AM 37.1°F2.8°C 33.0°F0.6°C 85% 1.2 mph S1.9 kmh S 5.8 mph9.3 kmh 28.37 in960.7 mb - 0.00 in0.0 mm 0.00 in0.0 mm
09:08 AM 37.3°F2.9°C 33.2°F0.7°C 85% 4.6 mph SSE7.4 kmh SSE 5.8 mph9.3 kmh 28.37 in960.7 mb - 0.00 in0.0 mm 0.00 in0.0 mm
09:09 AM 37.4°F3.0°C 33.3°F0.7°C 85% 2.3 mph SE3.7 kmh SE 2.3 mph3.7 kmh 28.37 in960.7 mb - 0.00 in0.0 mm 0.00 in0.0 mm
09:10 AM 37.4°F3.0°C 33.3°F0.7°C 85% 1.2 mph ESE1.9 kmh ESE 1.2 mph1.9 kmh 28.37 in960.7 mb - 0.00 in0.0 mm 0.00 in0.0 mm
09:11 AM 37.4°F3.0°C 33.3°F0.7°C 85% Calm Calm 1.2 mph1.9 kmh 28.37 in960.7 mb - 0.00 in0.0 mm 0.00 in0.0 mm
09:12 AM 37.4°F3.0°C 33.3°F0.7°C 85% 1.2 mph ESE1.9 kmh ESE 2.3 mph3.7 kmh 28.37 in960.7 mb - 0.00 in0.0 mm 0.00 in0.0 mm
09:13 AM 37.4°F3.0°C 33.3°F0.7°C 85% 1.2 mph S1.9 kmh S 1.2 mph1.9 kmh 28.37 in960.7 mb - 0.00 in0.0 mm 0.00 in0.0 mm
09:14 AM 37.4°F3.0°C 33.3°F0.7°C 85% 1.2 mph SE1.9 kmh SE 1.2 mph1.9 kmh 28.37 in960.7 mb - 0.00 in0.0 mm 0.00 in0.0 mm
09:15 AM 37.4°F3.0°C 33.3°F0.7°C 85% Calm Calm 2.3 mph3.7 kmh 28.37 in960.7 mb - 0.00 in0.0 mm 0.00 in0.0 mm
09:16 AM 37.4°F3.0°C 33.3°F0.7°C 85% 1.2 mph SE1.9 kmh SE 2.3 mph3.7 kmh 28.37 in960.7 mb - 0.00 in0.0 mm 0.00 in0.0 mm
09:17 AM 37.4°F3.0°C 33.3°F0.7°C 85% 1.2 mph S1.9 kmh S 4.6 mph7.4 kmh 28.37 in960.7 mb - 0.00 in0.0 mm 0.00 in0.0 mm
09:18 AM 37.5°F3.1°C 33.4°F0.8°C 85% 3.5 mph SE5.6 kmh SE 4.6 mph7.4 kmh 28.37 in960.7 mb - 0.00 in0.0 mm 0.00 in0.0 mm
09:19 AM 37.6°F3.1°C 33.5°F0.8°C 85% 3.5 mph S5.6 kmh S 3.5 mph5.6 kmh 28.37 in960.7 mb - 0.00 in0.0 mm 0.00 in0.0 mm
09:20 AM 37.6°F3.1°C 33.5°F0.8°C 85% 3.5 mph S5.6 kmh S 3.5 mph5.6 kmh 28.37 in960.7 mb - 0.00 in0.0 mm 0.00 in0.0 mm
09:21 AM 37.6°F3.1°C 33.5°F0.8°C 85% 2.3 mph S3.7 kmh S 2.3 mph3.7 kmh 28.37 in960.7 mb - 0.00 in0.0 mm 0.00 in0.0 mm
09:22 AM 37.6°F3.1°C 33.5°F0.8°C 85% 1.2 mph SE1.9 kmh SE 1.2 mph1.9 kmh 28.37 in960.7 mb - 0.00 in0.0 mm 0.00 in0.0 mm
09:23 AM 37.6°F3.1°C 33.5°F0.8°C 85% 1.2 mph E1.9 kmh E 3.5 mph5.6 kmh 28.37 in960.7 mb - 0.00 in0.0 mm 0.00 in0.0 mm
09:24 AM 37.6°F3.1°C 33.5°F0.8°C 85% 2.3 mph SE3.7 kmh SE 2.3 mph3.7 kmh 28.37 in960.7 mb - 0.00 in0.0 mm 0.00 in0.0 mm
09:25 AM 37.6°F3.1°C 33.5°F0.8°C 85% 2.3 mph E3.7 kmh E 2.3 mph3.7 kmh 28.37 in960.7 mb - 0.00 in0.0 mm 0.00 in0.0 mm
09:26 AM 37.6°F3.1°C 33.5°F0.8°C 85% 1.2 mph ESE1.9 kmh ESE 1.2 mph1.9 kmh 28.36 in960.4 mb - 0.00 in0.0 mm 0.00 in0.0 mm
09:27 AM 37.7°F3.2°C 33.6°F0.9°C 85% 1.2 mph S1.9 kmh S 4.6 mph7.4 kmh 28.36 in960.4 mb - 0.00 in0.0 mm 0.00 in0.0 mm
09:28 AM 37.8°F3.2°C 33.7°F0.9°C 85% 2.3 mph SW3.7 kmh SW 3.5 mph5.6 kmh 28.36 in960.4 mb - 0.00 in0.0 mm 0.00 in0.0 mm
09:29 AM 37.8°F3.2°C 33.7°F0.9°C 85% 2.3 mph SSW3.7 kmh SSW 3.5 mph5.6 kmh 28.36 in960.4 mb - 0.00 in0.0 mm 0.00 in0.0 mm
09:30 AM 37.9°F3.3°C 33.8°F1.0°C 85% 2.3 mph SE3.7 kmh SE 2.3 mph3.7 kmh 28.36 in960.4 mb - 0.00 in0.0 mm 0.00 in0.0 mm
09:31 AM 37.9°F3.3°C 33.8°F1.0°C 85% Calm Calm 1.2 mph1.9 kmh 28.36 in960.4 mb - 0.00 in0.0 mm 0.00 in0.0 mm
09:32 AM 37.9°F3.3°C 33.8°F1.0°C 85% 1.2 mph ENE1.9 kmh ENE 1.2 mph1.9 kmh 28.36 in960.4 mb - 0.00 in0.0 mm 0.00 in0.0 mm
09:33 AM 37.9°F3.3°C 33.8°F1.0°C 85% Calm Calm 1.2 mph1.9 kmh 28.36 in960.4 mb - 0.00 in0.0 mm 0.00 in0.0 mm
09:34 AM 37.9°F3.3°C 33.8°F1.0°C 85% 1.2 mph SW1.9 kmh SW 1.2 mph1.9 kmh 28.36 in960.4 mb - 0.00 in0.0 mm 0.00 in0.0 mm
09:35 AM 37.9°F3.3°C 33.8°F1.0°C 85% 1.2 mph SW1.9 kmh SW 1.2 mph1.9 kmh 28.36 in960.4 mb - 0.00 in0.0 mm 0.00 in0.0 mm
09:36 AM 37.9°F3.3°C 33.8°F1.0°C 85% 1.2 mph SE1.9 kmh SE 2.3 mph3.7 kmh 28.36 in960.4 mb - 0.00 in0.0 mm 0.00 in0.0 mm
09:37 AM 38.1°F3.4°C 34.0°F1.1°C 85% 2.3 mph S3.7 kmh S 2.3 mph3.7 kmh 28.37 in960.7 mb - 0.00 in0.0 mm 0.00 in0.0 mm
09:38 AM 38.1°F3.4°C 34.0°F1.1°C 85% 2.3 mph SSE3.7 kmh SSE 2.3 mph3.7 kmh 28.37 in960.7 mb - 0.00 in0.0 mm 0.00 in0.0 mm
09:39 AM 38.1°F3.4°C 34.0°F1.1°C 85% 1.2 mph SE1.9 kmh SE 2.3 mph3.7 kmh 28.37 in960.7 mb - 0.00 in0.0 mm 0.00 in0.0 mm
09:40 AM 38.1°F3.4°C 34.0°F1.1°C 85% 2.3 mph SSE3.7 kmh SSE 4.6 mph7.4 kmh 28.37 in960.7 mb - 0.00 in0.0 mm 0.00 in0.0 mm
09:41 AM 38.2°F3.4°C 34.1°F1.2°C 85% 3.5 mph SE5.6 kmh SE 4.6 mph7.4 kmh 28.37 in960.7 mb - 0.00 in0.0 mm 0.00 in0.0 mm
09:42 AM 38.3°F3.5°C 34.2°F1.2°C 85% 3.5 mph SE5.6 kmh SE 2.3 mph3.7 kmh 28.37 in960.7 mb - 0.00 in0.0 mm 0.00 in0.0 mm
09:43 AM 38.3°F3.5°C 34.2°F1.2°C 85% 2.3 mph WSW3.7 kmh WSW 2.3 mph3.7 kmh 28.37 in960.7 mb - 0.00 in0.0 mm 0.00 in0.0 mm
09:44 AM 38.3°F3.5°C 34.2°F1.2°C 85% 2.3 mph ESE3.7 kmh ESE 2.3 mph3.7 kmh 28.37 in960.7 mb - 0.00 in0.0 mm 0.00 in0.0 mm
09:45 AM 38.3°F3.5°C 34.2°F1.2°C 85% 1.2 mph SE1.9 kmh SE -- 28.37 in960.7 mb - 0.00 in0.0 mm 0.00 in0.0 mm
09:46 AM 38.3°F3.5°C 34.5°F1.4°C 86% Calm Calm 1.2 mph1.9 kmh 28.37 in960.7 mb - 0.00 in0.0 mm 0.00 in0.0 mm
09:47 AM 38.3°F3.5°C 34.5°F1.4°C 86% 2.3 mph ESE3.7 kmh ESE 2.3 mph3.7 kmh 28.37 in960.7 mb - 0.00 in0.0 mm 0.00 in0.0 mm
09:48 AM 38.5°F3.6°C 34.7°F1.5°C 86% 3.5 mph ESE5.6 kmh ESE 4.6 mph7.4 kmh 28.37 in960.7 mb - 0.00 in0.0 mm 0.00 in0.0 mm
09:49 AM 38.5°F3.6°C 34.7°F1.5°C 86% 2.3 mph SE3.7 kmh SE 3.5 mph5.6 kmh 28.37 in960.7 mb - 0.00 in0.0 mm 0.00 in0.0 mm
09:50 AM 38.5°F3.6°C 34.7°F1.5°C 86% 3.5 mph SSE5.6 kmh SSE 3.5 mph5.6 kmh 28.37 in960.7 mb - 0.00 in0.0 mm 0.00 in0.0 mm
09:51 AM 38.5°F3.6°C 34.7°F1.5°C 86% 3.5 mph SW5.6 kmh SW 5.8 mph9.3 kmh 28.37 in960.7 mb - 0.00 in0.0 mm 0.00 in0.0 mm
09:52 AM 38.6°F3.7°C 34.8°F1.6°C 86% 4.6 mph SE7.4 kmh SE 5.8 mph9.3 kmh 28.37 in960.7 mb - 0.00 in0.0 mm 0.00 in0.0 mm
09:53 AM 38.7°F3.7°C 34.9°F1.6°C 86% 2.3 mph S3.7 kmh S 3.5 mph5.6 kmh 28.37 in960.7 mb - 0.00 in0.0 mm 0.00 in0.0 mm
09:54 AM 38.7°F3.7°C 34.9°F1.6°C 86% 3.5 mph S5.6 kmh S 3.5 mph5.6 kmh 28.37 in960.7 mb - 0.00 in0.0 mm 0.00 in0.0 mm
09:55 AM 38.7°F3.7°C 34.9°F1.6°C 86% 3.5 mph SSE5.6 kmh SSE 4.6 mph7.4 kmh 28.37 in960.7 mb - 0.00 in0.0 mm 0.00 in0.0 mm
09:56 AM 38.7°F3.7°C 34.9°F1.6°C 86% 3.5 mph E5.6 kmh E 3.5 mph5.6 kmh 28.37 in960.7 mb - 0.00 in0.0 mm 0.00 in0.0 mm
09:57 AM 38.7°F3.7°C 34.9°F1.6°C 86% 3.5 mph SE5.6 kmh SE 5.8 mph9.3 kmh 28.37 in960.7 mb - 0.00 in0.0 mm 0.00 in0.0 mm
09:58 AM 38.8°F3.8°C 35.0°F1.7°C 86% 4.6 mph ESE7.4 kmh ESE 5.8 mph9.3 kmh 28.37 in960.7 mb - 0.00 in0.0 mm 0.00 in0.0 mm
09:59 AM 38.8°F3.8°C 35.0°F1.7°C 86% 2.3 mph ESE3.7 kmh ESE 4.6 mph7.4 kmh 28.37 in960.7 mb - 0.00 in0.0 mm 0.00 in0.0 mm
10:00 AM 38.8°F3.8°C 35.0°F1.7°C 86% 3.5 mph S5.6 kmh S 4.6 mph7.4 kmh 28.37 in960.7 mb - 0.00 in0.0 mm 0.00 in0.0 mm
10:01 AM 38.8°F3.8°C 35.0°F1.7°C 86% 2.3 mph ESE3.7 kmh ESE 3.5 mph5.6 kmh 28.37 in960.7 mb - 0.00 in0.0 mm 0.00 in0.0 mm
10:02 AM 39.0°F3.9°C 34.9°F1.6°C 85% 2.3 mph SE3.7 kmh SE 3.5 mph5.6 kmh 28.36 in960.4 mb - 0.00 in0.0 mm 0.00 in0.0 mm
10:03 AM 39.0°F3.9°C 34.9°F1.6°C 85% 2.3 mph SSE3.7 kmh SSE 2.3 mph3.7 kmh 28.36 in960.4 mb - 0.00 in0.0 mm 0.00 in0.0 mm
10:04 AM 39.2°F4.0°C 35.1°F1.7°C 85% 3.5 mph SE5.6 kmh SE 5.8 mph9.3 kmh 28.36 in960.4 mb - 0.00 in0.0 mm 0.00 in0.0 mm
10:05 AM 39.3°F4.1°C 35.2°F1.8°C 85% 3.5 mph SE5.6 kmh SE 3.5 mph5.6 kmh 28.36 in960.4 mb - 0.00 in0.0 mm 0.00 in0.0 mm
10:06 AM 39.4°F4.1°C 35.3°F1.8°C 85% 2.3 mph SE3.7 kmh SE 2.3 mph3.7 kmh 28.36 in960.4 mb - 0.00 in0.0 mm 0.00 in0.0 mm
10:07 AM 39.4°F4.1°C 35.0°F1.7°C 84% 2.3 mph SW3.7 kmh SW 5.8 mph9.3 kmh 28.36 in960.4 mb - 0.00 in0.0 mm 0.00 in0.0 mm
10:08 AM 39.6°F4.2°C 35.1°F1.7°C 84% 4.6 mph SE7.4 kmh SE 5.8 mph9.3 kmh 28.36 in960.4 mb - 0.00 in0.0 mm 0.00 in0.0 mm
10:09 AM 39.6°F4.2°C 35.2°F1.8°C 84% 3.5 mph ESE5.6 kmh ESE 5.8 mph9.3 kmh 28.36 in960.4 mb - 0.00 in0.0 mm 0.00 in0.0 mm
10:10 AM 39.7°F4.3°C 35.3°F1.8°C 84% 4.6 mph S7.4 kmh S 6.9 mph11.1 kmh 28.36 in960.4 mb - 0.00 in0.0 mm 0.00 in0.0 mm
10:11 AM 39.7°F4.3°C 35.3°F1.8°C 84% 4.6 mph SE7.4 kmh SE 3.5 mph5.6 kmh 28.36 in960.4 mb - 0.00 in0.0 mm 0.00 in0.0 mm
10:12 AM 39.7°F4.3°C 35.3°F1.8°C 84% 3.5 mph SE5.6 kmh SE 4.6 mph7.4 kmh 28.36 in960.4 mb - 0.00 in0.0 mm 0.00 in0.0 mm
10:13 AM 39.9°F4.4°C 35.5°F1.9°C 84% 3.5 mph E5.6 kmh E 3.5 mph5.6 kmh 28.36 in960.4 mb - 0.00 in0.0 mm 0.00 in0.0 mm
10:14 AM 40.0°F4.4°C 35.6°F2.0°C 84% 3.5 mph S5.6 kmh S 5.8 mph9.3 kmh 28.36 in960.4 mb - 0.00 in0.0 mm 0.00 in0.0 mm
10:15 AM 40.2°F4.6°C 35.7°F2.1°C 84% 3.5 mph SSE5.6 kmh SSE 4.6 mph7.4 kmh 28.36 in960.4 mb - 0.00 in0.0 mm 0.00 in0.0 mm
10:16 AM 40.3°F4.6°C 35.8°F2.1°C 84% 3.5 mph SE5.6 kmh SE 4.6 mph7.4 kmh 28.36 in960.4 mb - 0.00 in0.0 mm 0.00 in0.0 mm
10:17 AM 40.3°F4.6°C 35.9°F2.2°C 84% 3.5 mph S5.6 kmh S 4.6 mph7.4 kmh 28.36 in960.4 mb - 0.00 in0.0 mm 0.00 in0.0 mm
10:18 AM 40.5°F4.7°C 36.1°F2.3°C 84% 2.3 mph S3.7 kmh S 6.9 mph11.1 kmh 28.36 in960.4 mb - 0.00 in0.0 mm 0.00 in0.0 mm
10:19 AM 40.6°F4.8°C 35.8°F2.1°C 83% 3.5 mph E5.6 kmh E 6.9 mph11.1 kmh 28.36 in960.4 mb - 0.00 in0.0 mm 0.00 in0.0 mm
10:20 AM 40.6°F4.8°C 35.8°F2.1°C 83% 3.5 mph SE5.6 kmh SE 4.6 mph7.4 kmh 28.36 in960.4 mb - 0.00 in0.0 mm 0.00 in0.0 mm
10:21 AM 40.7°F4.8°C 35.9°F2.2°C 83% 1.2 mph ENE1.9 kmh ENE 3.5 mph5.6 kmh 28.36 in960.4 mb - 0.00 in0.0 mm 0.00 in0.0 mm
10:22 AM 40.8°F4.9°C 36.0°F2.2°C 83% 2.3 mph ENE3.7 kmh ENE 5.8 mph9.3 kmh 28.36 in960.4 mb - 0.00 in0.0 mm 0.00 in0.0 mm
10:23 AM 40.8°F4.9°C 36.0°F2.2°C 83% 4.6 mph SW7.4 kmh SW 6.9 mph11.1 kmh 28.36 in960.4 mb - 0.00 in0.0 mm 0.00 in0.0 mm
10:24 AM 41.0°F5.0°C 36.2°F2.3°C 83% 2.3 mph WSW3.7 kmh WSW 1.2 mph1.9 kmh 28.36 in960.4 mb - 0.00 in0.0 mm 0.00 in0.0 mm
10:25 AM 41.1°F5.1°C 36.4°F2.4°C 83% 2.3 mph NE3.7 kmh NE 4.6 mph7.4 kmh 28.36 in960.4 mb - 0.00 in0.0 mm 0.00 in0.0 mm
10:26 AM 41.2°F5.1°C 36.4°F2.4°C 83% 3.5 mph SSW5.6 kmh SSW 3.5 mph5.6 kmh 28.36 in960.4 mb - 0.00 in0.0 mm 0.00 in0.0 mm
10:27 AM 41.2°F5.1°C 36.4°F2.4°C 83% 2.3 mph S3.7 kmh S 2.3 mph3.7 kmh 28.36 in960.4 mb - 0.00 in0.0 mm 0.00 in0.0 mm
10:28 AM 41.2°F5.1°C 36.4°F2.4°C 83% 3.5 mph S5.6 kmh S 5.8 mph9.3 kmh 28.36 in960.4 mb - 0.00 in0.0 mm 0.00 in0.0 mm
10:29 AM 41.2°F5.1°C 36.4°F2.4°C 83% 4.6 mph WNW7.4 kmh WNW 4.6 mph7.4 kmh 28.36 in960.4 mb - 0.00 in0.0 mm 0.00 in0.0 mm
10:30 AM 41.3°F5.2°C 36.6°F2.6°C 83% 3.5 mph ESE5.6 kmh ESE 4.6 mph7.4 kmh 28.36 in960.4 mb - 0.00 in0.0 mm 0.00 in0.0 mm
10:31 AM 41.4°F5.2°C 36.6°F2.6°C 83% 3.5 mph ESE5.6 kmh ESE 4.6 mph7.4 kmh 28.36 in960.4 mb - 0.00 in0.0 mm 0.00 in0.0 mm
10:32 AM 41.4°F5.2°C 36.6°F2.6°C 83% 3.5 mph W5.6 kmh W 4.6 mph7.4 kmh 28.36 in960.4 mb - 0.00 in0.0 mm 0.00 in0.0 mm
10:33 AM 41.4°F5.2°C 36.6°F2.6°C 83% 1.2 mph SSE1.9 kmh SSE 2.3 mph3.7 kmh 28.36 in960.4 mb - 0.00 in0.0 mm 0.00 in0.0 mm
10:34 AM 41.5°F5.3°C 36.7°F2.6°C 83% 2.3 mph E3.7 kmh E 2.3 mph3.7 kmh 28.36 in960.4 mb - 0.00 in0.0 mm 0.00 in0.0 mm
10:35 AM 41.7°F5.4°C 36.9°F2.7°C 83% 2.3 mph ENE3.7 kmh ENE 4.6 mph7.4 kmh 28.36 in960.4 mb - 0.00 in0.0 mm 0.00 in0.0 mm
10:36 AM 41.7°F5.4°C 36.6°F2.6°C 82% 4.6 mph WSW7.4 kmh WSW 4.6 mph7.4 kmh 28.36 in960.4 mb - 0.00 in0.0 mm 0.00 in0.0 mm
10:37 AM 41.8°F5.4°C 36.7°F2.6°C 82% 2.3 mph SE3.7 kmh SE 3.5 mph5.6 kmh 28.36 in960.4 mb - 0.00 in0.0 mm 0.00 in0.0 mm
10:38 AM 41.9°F5.5°C 36.8°F2.7°C 82% 2.3 mph SSE3.7 kmh SSE 4.6 mph7.4 kmh 28.35 in960.0 mb - 0.00 in0.0 mm 0.00 in0.0 mm
10:39 AM 41.9°F5.5°C 36.8°F2.7°C 82% 3.5 mph S5.6 kmh S 4.6 mph7.4 kmh 28.35 in960.0 mb - 0.00 in0.0 mm 0.00 in0.0 mm
10:40 AM 42.1°F5.6°C 37.0°F2.8°C 82% 3.5 mph SSE5.6 kmh SSE 6.9 mph11.1 kmh 28.35 in960.0 mb - 0.00 in0.0 mm 0.00 in0.0 mm
10:41 AM 42.1°F5.6°C 36.7°F2.6°C 81% 5.8 mph SSE9.3 kmh SSE 6.9 mph11.1 kmh 28.35 in960.0 mb - 0.00 in0.0 mm 0.00 in0.0 mm
10:42 AM 42.1°F5.6°C 36.7°F2.6°C 81% 5.8 mph S9.3 kmh S 6.9 mph11.1 kmh 28.35 in960.0 mb - 0.00 in0.0 mm 0.00 in0.0 mm
10:43 AM 42.1°F5.6°C 36.7°F2.6°C 81% 4.6 mph W7.4 kmh W 8.1 mph13.0 kmh 28.35 in960.0 mb - 0.00 in0.0 mm 0.00 in0.0 mm
10:44 AM 42.3°F5.7°C 36.9°F2.7°C 81% 4.6 mph SSW7.4 kmh SSW 5.8 mph9.3 kmh 28.35 in960.0 mb - 0.00 in0.0 mm 0.00 in0.0 mm
10:45 AM 42.4°F5.8°C 36.7°F2.6°C 80% 4.6 mph S7.4 kmh S 5.8 mph9.3 kmh 28.35 in960.0 mb - 0.00 in0.0 mm 0.00 in0.0 mm
10:46 AM 42.4°F5.8°C 36.7°F2.6°C 80% 4.6 mph SW7.4 kmh SW 8.1 mph13.0 kmh 28.35 in960.0 mb - 0.00 in0.0 mm 0.00 in0.0 mm
10:47 AM 42.3°F5.7°C 36.6°F2.6°C 80% 4.6 mph ESE7.4 kmh ESE 5.8 mph9.3 kmh 28.35 in960.0 mb - 0.00 in0.0 mm 0.00 in0.0 mm
10:48 AM 42.3°F5.7°C 36.6°F2.6°C 80% 4.6 mph SE7.4 kmh SE 5.8 mph9.3 kmh 28.35 in960.0 mb - 0.00 in0.0 mm 0.00 in0.0 mm
10:49 AM 42.3°F5.7°C 36.6°F2.6°C 80% 5.8 mph SE9.3 kmh SE 5.8 mph9.3 kmh 28.35 in960.0 mb - 0.00 in0.0 mm 0.00 in0.0 mm
10:50 AM 42.3°F5.7°C 36.6°F2.6°C 80% 4.6 mph E7.4 kmh E 4.6 mph7.4 kmh 28.35 in960.0 mb - 0.00 in0.0 mm 0.00 in0.0 mm
10:51 AM 42.4°F5.8°C 36.6°F2.6°C 80% 3.5 mph S5.6 kmh S 5.8 mph9.3 kmh 28.35 in960.0 mb - 0.00 in0.0 mm 0.00 in0.0 mm
10:52 AM 42.4°F5.8°C 36.7°F2.6°C 80% 3.5 mph S5.6 kmh S 5.8 mph9.3 kmh 28.35 in960.0 mb - 0.00 in0.0 mm 0.00 in0.0 mm
10:53 AM 42.5°F5.8°C 36.7°F2.6°C 80% 4.6 mph SSE7.4 kmh SSE 5.8 mph9.3 kmh 28.35 in960.0 mb - 0.00 in0.0 mm 0.00 in0.0 mm
10:54 AM 42.6°F5.9°C 36.9°F2.7°C 80% 4.6 mph S7.4 kmh S 6.9 mph11.1 kmh 28.35 in960.0 mb - 0.00 in0.0 mm 0.00 in0.0 mm
10:55 AM 42.6°F5.9°C 36.9°F2.7°C 80% 3.5 mph S5.6 kmh S 4.6 mph7.4 kmh 28.35 in960.0 mb - 0.00 in0.0 mm 0.00 in0.0 mm
10:56 AM 42.6°F5.9°C 36.9°F2.7°C 80% 4.6 mph SE7.4 kmh SE 8.1 mph13.0 kmh 28.35 in960.0 mb - 0.00 in0.0 mm 0.00 in0.0 mm
10:57 AM 42.6°F5.9°C 36.9°F2.7°C 80% 5.8 mph SE9.3 kmh SE 8.1 mph13.0 kmh 28.35 in960.0 mb - 0.00 in0.0 mm 0.00 in0.0 mm
10:58 AM 42.6°F5.9°C 36.9°F2.7°C 80% 5.8 mph SE9.3 kmh SE 8.1 mph13.0 kmh 28.35 in960.0 mb - 0.00 in0.0 mm 0.00 in0.0 mm
10:59 AM 42.6°F5.9°C 36.9°F2.7°C 80% 4.6 mph SW7.4 kmh SW 10.4 mph16.7 kmh 28.35 in960.0 mb - 0.00 in0.0 mm 0.00 in0.0 mm
11:00 AM 42.6°F5.9°C 36.9°F2.7°C 80% 6.9 mph SW11.1 kmh SW 8.1 mph13.0 kmh 28.35 in960.0 mb - 0.00 in0.0 mm 0.00 in0.0 mm
11:01 AM 42.4°F5.8°C 36.7°F2.6°C 80% 5.8 mph SE9.3 kmh SE 4.6 mph7.4 kmh 28.35 in960.0 mb - 0.00 in0.0 mm 0.00 in0.0 mm
11:02 AM 42.4°F5.8°C 36.7°F2.6°C 80% 4.6 mph SE7.4 kmh SE 4.6 mph7.4 kmh 28.35 in960.0 mb - 0.00 in0.0 mm 0.00 in0.0 mm
11:03 AM 42.4°F5.8°C 36.7°F2.6°C 80% 4.6 mph SE7.4 kmh SE 4.6 mph7.4 kmh 28.35 in960.0 mb - 0.00 in0.0 mm 0.00 in0.0 mm
11:04 AM 42.5°F5.8°C 36.7°F2.6°C 80% 4.6 mph SE7.4 kmh SE 4.6 mph7.4 kmh 28.35 in960.0 mb - 0.00 in0.0 mm 0.00 in0.0 mm
11:05 AM 42.7°F5.9°C 37.0°F2.8°C 80% 2.3 mph SSW3.7 kmh SSW 1.2 mph1.9 kmh 28.35 in960.0 mb - 0.00 in0.0 mm 0.00 in0.0 mm
11:06 AM 43.0°F6.1°C 37.2°F2.9°C 80% 1.2 mph E1.9 kmh E 1.2 mph1.9 kmh 28.35 in960.0 mb - 0.00 in0.0 mm 0.00 in0.0 mm
11:07 AM 43.1°F6.2°C 37.4°F3.0°C 80% 1.2 mph SE1.9 kmh SE 2.3 mph3.7 kmh 28.35 in960.0 mb - 0.00 in0.0 mm 0.00 in0.0 mm
11:08 AM 43.2°F6.2°C 37.1°F2.8°C 79% 2.3 mph SSE3.7 kmh SSE 5.8 mph9.3 kmh 28.35 in960.0 mb - 0.00 in0.0 mm 0.00 in0.0 mm
11:09 AM 43.2°F6.2°C 37.1°F2.8°C 79% 3.5 mph SE5.6 kmh SE 5.8 mph9.3 kmh 28.35 in960.0 mb - 0.00 in0.0 mm 0.00 in0.0 mm
11:10 AM 43.3°F6.3°C 37.2°F2.9°C 79% 2.3 mph SE3.7 kmh SE 4.6 mph7.4 kmh 28.35 in960.0 mb - 0.00 in0.0 mm 0.00 in0.0 mm
11:11 AM 43.3°F6.3°C 37.2°F2.9°C 79% 4.6 mph S7.4 kmh S 5.8 mph9.3 kmh 28.35 in960.0 mb - 0.00 in0.0 mm 0.00 in0.0 mm
11:12 AM 43.3°F6.3°C 37.2°F2.9°C 79% 4.6 mph SSW7.4 kmh SSW 6.9 mph11.1 kmh 28.35 in960.0 mb - 0.00 in0.0 mm 0.00 in0.0 mm
11:13 AM 43.3°F6.3°C 37.2°F2.9°C 79% 4.6 mph ESE7.4 kmh ESE 5.8 mph9.3 kmh 28.34 in959.7 mb - 0.00 in0.0 mm 0.00 in0.0 mm
11:14 AM 43.5°F6.4°C 37.4°F3.0°C 79% 3.5 mph SE5.6 kmh SE 3.5 mph5.6 kmh 28.34 in959.7 mb - 0.00 in0.0 mm 0.00 in0.0 mm
11:15 AM 43.8°F6.6°C 37.4°F3.0°C 78% 2.3 mph S3.7 kmh S 2.3 mph3.7 kmh 28.34 in959.7 mb - 0.00 in0.0 mm 0.00 in0.0 mm
11:16 AM 44.0°F6.7°C 37.6°F3.1°C 78% 3.5 mph S5.6 kmh S 6.9 mph11.1 kmh 28.34 in959.7 mb - 0.00 in0.0 mm 0.00 in0.0 mm
11:17 AM 44.1°F6.7°C 37.4°F3.0°C 77% 3.5 mph SE5.6 kmh SE 3.5 mph5.6 kmh 28.34 in959.7 mb - 0.00 in0.0 mm 0.00 in0.0 mm
11:18 AM 44.5°F6.9°C 37.7°F3.2°C 77% 2.3 mph E3.7 kmh E 4.6 mph7.4 kmh 28.34 in959.7 mb - 0.00 in0.0 mm 0.00 in0.0 mm
11:19 AM 44.6°F7.0°C 37.8°F3.2°C 77% 4.6 mph SE7.4 kmh SE 5.8 mph9.3 kmh 28.34 in959.7 mb - 0.00 in0.0 mm 0.00 in0.0 mm
11:20 AM 44.6°F7.0°C 37.5°F3.1°C 76% 4.6 mph SE7.4 kmh SE 5.8 mph9.3 kmh 28.34 in959.7 mb - 0.00 in0.0 mm 0.00 in0.0 mm
11:21 AM 44.8°F7.1°C 37.7°F3.2°C 76% 3.5 mph SE5.6 kmh SE 3.5 mph5.6 kmh 28.34 in959.7 mb - 0.00 in0.0 mm 0.00 in0.0 mm
11:22 AM 45.0°F7.2°C 37.9°F3.3°C 76% 2.3 mph SSW3.7 kmh SSW 5.8 mph9.3 kmh 28.34 in959.7 mb - 0.00 in0.0 mm 0.00 in0.0 mm
11:23 AM 45.1°F7.3°C 38.0°F3.3°C 76% 3.5 mph SSE5.6 kmh SSE 3.5 mph5.6 kmh 28.34 in959.7 mb - 0.00 in0.0 mm 0.00 in0.0 mm
11:24 AM 45.4°F7.4°C 38.3°F3.5°C 76% 3.5 mph SE5.6 kmh SE 4.6 mph7.4 kmh 28.34 in959.7 mb - 0.00 in0.0 mm 0.00 in0.0 mm
11:25 AM 45.7°F7.6°C 38.2°F3.4°C 75% 3.5 mph SE5.6 kmh SE 8.1 mph13.0 kmh 28.34 in959.7 mb - 0.00 in0.0 mm 0.00 in0.0 mm
11:26 AM 45.7°F7.6°C 38.2°F3.4°C 75% 4.6 mph SW7.4 kmh SW 9.2 mph14.8 kmh 28.34 in959.7 mb - 0.00 in0.0 mm 0.00 in0.0 mm
11:27 AM 45.5°F7.5°C 38.1°F3.4°C 75% 5.8 mph SW9.3 kmh SW 3.5 mph5.6 kmh 28.34 in959.7 mb - 0.00 in0.0 mm 0.00 in0.0 mm
11:28 AM 45.9°F7.7°C 38.5°F3.6°C 75% 2.3 mph SSE3.7 kmh SSE 3.5 mph5.6 kmh 28.34 in959.7 mb - 0.00 in0.0 mm 0.00 in0.0 mm
11:29 AM 46.3°F7.9°C 38.5°F3.6°C 74% 3.5 mph SE5.6 kmh SE 5.8 mph9.3 kmh 28.34 in959.7 mb - 0.00 in0.0 mm 0.00 in0.0 mm
11:30 AM 46.4°F8.0°C 38.2°F3.4°C 73% 4.6 mph S7.4 kmh S 5.8 mph9.3 kmh 28.34 in959.7 mb - 0.00 in0.0 mm 0.00 in0.0 mm
11:31 AM 46.4°F8.0°C 38.2°F3.4°C 73% 5.8 mph SSE9.3 kmh SSE 9.2 mph14.8 kmh 28.34 in959.7 mb - 0.00 in0.0 mm 0.00 in0.0 mm
11:32 AM 46.4°F8.0°C 38.2°F3.4°C 73% 6.9 mph SE11.1 kmh SE 9.2 mph14.8 kmh 28.34 in959.7 mb - 0.00 in0.0 mm 0.00 in0.0 mm
11:33 AM 46.1°F7.8°C 38.0°F3.3°C 73% 6.9 mph SSW11.1 kmh SSW 9.2 mph14.8 kmh 28.34 in959.7 mb - 0.00 in0.0 mm 0.00 in0.0 mm
11:34 AM 45.9°F7.7°C 38.1°F3.4°C 74% 8.1 mph ESE13.0 kmh ESE 10.4 mph16.7 kmh 28.34 in959.7 mb - 0.00 in0.0 mm 0.00 in0.0 mm
11:35 AM 45.7°F7.6°C 37.8°F3.2°C 74% 8.1 mph S13.0 kmh S 6.9 mph11.1 kmh 28.34 in959.7 mb - 0.00 in0.0 mm 0.00 in0.0 mm
11:36 AM 45.5°F7.5°C 37.7°F3.2°C 74% 6.9 mph SE11.1 kmh SE 8.1 mph13.0 kmh 28.34 in959.7 mb - 0.00 in0.0 mm 0.00 in0.0 mm
11:37 AM 45.3°F7.4°C 37.8°F3.2°C 75% 6.9 mph SE11.1 kmh SE 5.8 mph9.3 kmh 28.33 in959.4 mb - 0.00 in0.0 mm 0.00 in0.0 mm
11:38 AM 45.3°F7.4°C 37.8°F3.2°C 75% 3.5 mph SE5.6 kmh SE 4.6 mph7.4 kmh 28.32 in959.0 mb - 0.00 in0.0 mm 0.00 in0.0 mm
11:39 AM 45.4°F7.4°C 38.0°F3.3°C 75% 3.5 mph SE5.6 kmh SE 6.9 mph11.1 kmh 28.32 in959.0 mb - 0.00 in0.0 mm 0.00 in0.0 mm
11:40 AM 45.4°F7.4°C 37.9°F3.3°C 75% 4.6 mph SSE7.4 kmh SSE 6.9 mph11.1 kmh 28.32 in959.0 mb - 0.00 in0.0 mm 0.00 in0.0 mm
11:41 AM 45.3°F7.4°C 37.8°F3.2°C 75% 4.6 mph SSE7.4 kmh SSE 5.8 mph9.3 kmh 28.32 in959.0 mb - 0.00 in0.0 mm 0.00 in0.0 mm
11:42 AM 45.3°F7.4°C 37.8°F3.2°C 75% 4.6 mph SE7.4 kmh SE 8.1 mph13.0 kmh 28.32 in959.0 mb - 0.00 in0.0 mm 0.00 in0.0 mm
11:43 AM 45.1°F7.3°C 37.7°F3.2°C 75% 4.6 mph SSE7.4 kmh SSE 5.8 mph9.3 kmh 28.32 in959.0 mb - 0.00 in0.0 mm 0.00 in0.0 mm
11:44 AM 45.1°F7.3°C 37.6°F3.1°C 75% 4.6 mph SSE7.4 kmh SSE 6.9 mph11.1 kmh 28.32 in959.0 mb - 0.00 in0.0 mm 0.00 in0.0 mm
11:45 AM 45.1°F7.3°C 37.6°F3.1°C 75% 5.8 mph ESE9.3 kmh ESE 5.8 mph9.3 kmh 28.32 in959.0 mb - 0.00 in0.0 mm 0.00 in0.0 mm
11:46 AM 45.1°F7.3°C 37.6°F3.1°C 75% 5.8 mph S9.3 kmh S 5.8 mph9.3 kmh 28.32 in959.0 mb - 0.00 in0.0 mm 0.00 in0.0 mm
11:47 AM 45.1°F7.3°C 37.6°F3.1°C 75% 4.6 mph S7.4 kmh S 5.8 mph9.3 kmh 28.32 in959.0 mb - 0.00 in0.0 mm 0.00 in0.0 mm
11:48 AM 45.1°F7.3°C 37.6°F3.1°C 75% 3.5 mph SE5.6 kmh SE 3.5 mph5.6 kmh 28.32 in959.0 mb - 0.00 in0.0 mm 0.00 in0.0 mm
11:49 AM 45.3°F7.4°C 37.8°F3.2°C 75% 3.5 mph SW5.6 kmh SW 5.8 mph9.3 kmh 28.32 in959.0 mb - 0.00 in0.0 mm 0.00 in0.0 mm
11:50 AM 45.3°F7.4°C 37.8°F3.2°C 75% 4.6 mph S7.4 kmh S 5.8 mph9.3 kmh 28.32 in959.0 mb - 0.00 in0.0 mm 0.00 in0.0 mm
11:51 AM 45.5°F7.5°C 38.1°F3.4°C 75% 3.5 mph SSE5.6 kmh SSE 3.5 mph5.6 kmh 28.32 in959.0 mb - 0.00 in0.0 mm 0.00 in0.0 mm
11:52 AM 45.8°F7.7°C 38.4°F3.6°C 75% 2.3 mph SE3.7 kmh SE 5.8 mph9.3 kmh 28.32 in959.0 mb - 0.00 in0.0 mm 0.00 in0.0 mm
11:53 AM 45.9°F7.7°C 38.4°F3.6°C 75% 3.5 mph ESE5.6 kmh ESE 5.8 mph9.3 kmh 28.32 in959.0 mb - 0.00 in0.0 mm 0.00 in0.0 mm
11:54 AM 45.9°F7.7°C 38.4°F3.6°C 75% 3.5 mph SE5.6 kmh SE 5.8 mph9.3 kmh 28.32 in959.0 mb - 0.00 in0.0 mm 0.00 in0.0 mm
11:55 AM 45.9°F7.7°C 38.4°F3.6°C 75% 4.6 mph SE7.4 kmh SE 5.8 mph9.3 kmh 28.32 in959.0 mb - 0.00 in0.0 mm 0.00 in0.0 mm
11:56 AM 46.1°F7.8°C 38.6°F3.7°C 75% 3.5 mph SSE5.6 kmh SSE 3.5 mph5.6 kmh 28.32 in959.0 mb - 0.00 in0.0 mm 0.00 in0.0 mm
11:57 AM 46.1°F7.8°C 38.3°F3.5°C 74% 3.5 mph ESE5.6 kmh ESE 4.6 mph7.4 kmh 28.32 in959.0 mb - 0.00 in0.0 mm 0.00 in0.0 mm
11:58 AM 46.3°F7.9°C 38.5°F3.6°C 74% 4.6 mph SSE7.4 kmh SSE 9.2 mph14.8 kmh 28.32 in959.0 mb - 0.00 in0.0 mm 0.00 in0.0 mm
11:59 AM 46.4°F8.0°C 38.6°F3.7°C 74% 8.1 mph SE13.0 kmh SE 9.2 mph14.8 kmh 28.32 in959.0 mb - 0.00 in0.0 mm 0.00 in0.0 mm
12:00 PM 46.1°F7.8°C 38.6°F3.7°C 75% 5.8 mph SSE9.3 kmh SSE 5.8 mph9.3 kmh 28.32 in959.0 mb - 0.00 in0.0 mm 0.00 in0.0 mm
12:01 PM 46.0°F7.8°C 38.5°F3.6°C 75% 3.5 mph SE5.6 kmh SE 5.8 mph9.3 kmh 28.32 in959.0 mb - 0.00 in0.0 mm 0.00 in0.0 mm
12:02 PM 46.1°F7.8°C 38.6°F3.7°C 75% 4.6 mph SSW7.4 kmh SSW 5.8 mph9.3 kmh 28.32 in959.0 mb - 0.00 in0.0 mm 0.00 in0.0 mm
12:03 PM 46.2°F7.9°C 38.7°F3.7°C 75% 5.8 mph S9.3 kmh S 9.2 mph14.8 kmh 28.32 in959.0 mb - 0.00 in0.0 mm 0.00 in0.0 mm
12:04 PM 46.2°F7.9°C 38.7°F3.7°C 75% 6.9 mph S11.1 kmh S 9.2 mph14.8 kmh 28.32 in959.0 mb - 0.00 in0.0 mm 0.00 in0.0 mm
12:05 PM 46.3°F7.9°C 38.8°F3.8°C 75% 3.5 mph S5.6 kmh S 10.4 mph16.7 kmh 28.32 in959.0 mb - 0.00 in0.0 mm 0.00 in0.0 mm
12:06 PM 46.6°F8.1°C 38.8°F3.8°C 74% 5.8 mph S9.3 kmh S 10.4 mph16.7 kmh 28.32 in959.0 mb - 0.00 in0.0 mm 0.00 in0.0 mm
12:07 PM 46.6°F8.1°C 38.8°F3.8°C 74% 6.9 mph SE11.1 kmh SE 6.9 mph11.1 kmh 28.32 in959.0 mb - 0.00 in0.0 mm 0.00 in0.0 mm
12:08 PM 46.4°F8.0°C 38.9°F3.8°C 75% 5.8 mph SE9.3 kmh SE 5.8 mph9.3 kmh 28.32 in959.0 mb - 0.00 in0.0 mm 0.00 in0.0 mm
12:09 PM 46.6°F8.1°C 39.1°F3.9°C 75% 5.8 mph SE9.3 kmh SE 8.1 mph13.0 kmh 28.32 in959.0 mb - 0.00 in0.0 mm 0.00 in0.0 mm
12:10 PM 46.6°F8.1°C 39.1°F3.9°C 75% 6.9 mph SE11.1 kmh SE 6.9 mph11.1 kmh 28.32 in959.0 mb - 0.00 in0.0 mm 0.00 in0.0 mm
12:11 PM 46.6°F8.1°C 39.1°F3.9°C 75% 5.8 mph SE9.3 kmh SE 6.9 mph11.1 kmh 28.32 in959.0 mb - 0.00 in0.0 mm 0.00 in0.0 mm
12:12 PM 46.8°F8.2°C 39.3°F4.1°C 75% 4.6 mph ESE7.4 kmh ESE 3.5 mph5.6 kmh 28.32 in959.0 mb - 0.00 in0.0 mm 0.00 in0.0 mm
12:13 PM 46.9°F8.3°C 39.4°F4.1°C 75% 3.5 mph SSE5.6 kmh SSE 6.9 mph11.1 kmh 28.31 in958.7 mb - 0.00 in0.0 mm 0.00 in0.0 mm
12:14 PM 46.9°F8.3°C 39.4°F4.1°C 75% 5.8 mph SE9.3 kmh SE 11.5 mph18.5 kmh 28.31 in958.7 mb - 0.00 in0.0 mm 0.00 in0.0 mm
12:15 PM 46.9°F8.3°C 39.4°F4.1°C 75% 6.9 mph SSE11.1 kmh SSE 8.1 mph13.0 kmh 28.31 in958.7 mb - 0.00 in0.0 mm 0.00 in0.0 mm
12:16 PM 46.9°F8.3°C 39.4°F4.1°C 75% 5.8 mph E9.3 kmh E 9.2 mph14.8 kmh 28.31 in958.7 mb - 0.00 in0.0 mm 0.00 in0.0 mm
12:17 PM 46.9°F8.3°C 39.4°F4.1°C 75% 5.8 mph ESE9.3 kmh ESE 4.6 mph7.4 kmh 28.31 in958.7 mb - 0.00 in0.0 mm 0.00 in0.0 mm
12:18 PM 47.1°F8.4°C 39.6°F4.2°C 75% 4.6 mph E7.4 kmh E 6.9 mph11.1 kmh 28.31 in958.7 mb - 0.00 in0.0 mm 0.00 in0.0 mm
12:19 PM 47.3°F8.5°C 39.4°F4.1°C 74% 5.8 mph SE9.3 kmh SE 6.9 mph11.1 kmh 28.31 in958.7 mb - 0.00 in0.0 mm 0.00 in0.0 mm
12:20 PM 47.3°F8.5°C 39.4°F4.1°C 74% 4.6 mph SE7.4 kmh SE 5.8 mph9.3 kmh 28.31 in958.7 mb - 0.00 in0.0 mm 0.00 in0.0 mm
12:21 PM 47.3°F8.5°C 39.4°F4.1°C 74% 4.6 mph SSE7.4 kmh SSE 5.8 mph9.3 kmh 28.31 in958.7 mb - 0.00 in0.0 mm 0.00 in0.0 mm
12:22 PM 47.3°F8.5°C 39.4°F4.1°C 74% 5.8 mph SE9.3 kmh SE 6.9 mph11.1 kmh 28.31 in958.7 mb - 0.00 in0.0 mm 0.00 in0.0 mm
12:23 PM 47.1°F8.4°C 39.2°F4.0°C 74% 5.8 mph SE9.3 kmh SE 5.8 mph9.3 kmh 28.31 in958.7 mb - 0.00 in0.0 mm 0.00 in0.0 mm
12:24 PM 47.1°F8.4°C 39.2°F4.0°C 74% 3.5 mph SE5.6 kmh SE 4.6 mph7.4 kmh 28.31 in958.7 mb - 0.00 in0.0 mm 0.00 in0.0 mm
12:25 PM 47.1°F8.4°C 39.2°F4.0°C 74% 3.5 mph SE5.6 kmh SE 4.6 mph7.4 kmh 28.31 in958.7 mb - 0.00 in0.0 mm 0.00 in0.0 mm
12:26 PM 47.1°F8.4°C 39.2°F4.0°C 74% 2.3 mph SW3.7 kmh SW 5.8 mph9.3 kmh 28.30 in958.3 mb - 0.00 in0.0 mm 0.00 in0.0 mm
12:27 PM 47.1°F8.4°C 39.2°F4.0°C 74% 4.6 mph S7.4 kmh S 5.8 mph9.3 kmh 28.30 in958.3 mb - 0.00 in0.0 mm 0.00 in0.0 mm
12:28 PM 47.1°F8.4°C 39.2°F4.0°C 74% 3.5 mph SE5.6 kmh SE 3.5 mph5.6 kmh 28.30 in958.3 mb - 0.00 in0.0 mm 0.00 in0.0 mm
12:29 PM 47.1°F8.4°C 39.3°F4.1°C 74% 3.5 mph SW5.6 kmh SW 5.8 mph9.3 kmh 28.30 in958.3 mb - 0.00 in0.0 mm 0.00 in0.0 mm
12:30 PM 47.3°F8.5°C 39.4°F4.1°C 74% 4.6 mph S7.4 kmh S 6.9 mph11.1 kmh 28.30 in958.3 mb - 0.00 in0.0 mm 0.00 in0.0 mm
12:31 PM 47.3°F8.5°C 39.8°F4.3°C 75% 5.8 mph SE9.3 kmh SE 8.1 mph13.0 kmh 28.30 in958.3 mb - 0.00 in0.0 mm 0.00 in0.0 mm
12:32 PM 47.1°F8.4°C 39.6°F4.2°C 75% 4.6 mph SE7.4 kmh SE 5.8 mph9.3 kmh 28.30 in958.3 mb - 0.00 in0.0 mm 0.00 in0.0 mm
12:33 PM 47.1°F8.4°C 39.6°F4.2°C 75% 4.6 mph SE7.4 kmh SE 5.8 mph9.3 kmh 28.30 in958.3 mb - 0.00 in0.0 mm 0.00 in0.0 mm
12:34 PM 47.1°F8.4°C 39.6°F4.2°C 75% 4.6 mph SE7.4 kmh SE 6.9 mph11.1 kmh 28.30 in958.3 mb - 0.00 in0.0 mm 0.00 in0.0 mm
12:35 PM 47.1°F8.4°C 39.6°F4.2°C 75% 5.8 mph S9.3 kmh S 5.8 mph9.3 kmh 28.30 in958.3 mb - 0.00 in0.0 mm 0.00 in0.0 mm
12:36 PM 47.1°F8.4°C 39.6°F4.2°C 75% 4.6 mph SSW7.4 kmh SSW 5.8 mph9.3 kmh 28.30 in958.3 mb - 0.00 in0.0 mm 0.00 in0.0 mm
12:37 PM 47.1°F8.4°C 39.6°F4.2°C 75% 4.6 mph SSW7.4 kmh SSW 6.9 mph11.1 kmh 28.29 in958.0 mb - 0.00 in0.0 mm 0.00 in0.0 mm
12:38 PM 47.2°F8.4°C 39.7°F4.3°C 75% 3.5 mph S5.6 kmh S 4.6 mph7.4 kmh 28.29 in958.0 mb - 0.00 in0.0 mm 0.00 in0.0 mm
12:39 PM 47.3°F8.5°C 39.8°F4.3°C 75% 3.5 mph S5.6 kmh S 5.8 mph9.3 kmh 28.29 in958.0 mb - 0.00 in0.0 mm 0.00 in0.0 mm
12:40 PM 47.3°F8.5°C 39.8°F4.3°C 75% 4.6 mph S7.4 kmh S 6.9 mph11.1 kmh 28.29 in958.0 mb - 0.00 in0.0 mm 0.00 in0.0 mm
12:41 PM 47.3°F8.5°C 39.8°F4.3°C 75% 5.8 mph SSE9.3 kmh SSE 9.2 mph14.8 kmh 28.29 in958.0 mb - 0.00 in0.0 mm 0.00 in0.0 mm
12:42 PM 47.1°F8.4°C 39.6°F4.2°C 75% 5.8 mph ESE9.3 kmh ESE 8.1 mph13.0 kmh 28.29 in958.0 mb - 0.00 in0.0 mm 0.00 in0.0 mm
12:43 PM 47.1°F8.4°C 39.6°F4.2°C 75% 5.8 mph SE9.3 kmh SE 5.8 mph9.3 kmh 28.29 in958.0 mb - 0.00 in0.0 mm 0.00 in0.0 mm
12:44 PM 47.2°F8.4°C 39.6°F4.2°C 75% 4.6 mph SE7.4 kmh SE 5.8 mph9.3 kmh 28.29 in958.0 mb - 0.00 in0.0 mm 0.00 in0.0 mm
12:45 PM 47.4°F8.6°C 39.9°F4.4°C 75% 4.6 mph SE7.4 kmh SE 5.8 mph9.3 kmh 28.29 in958.0 mb - 0.00 in0.0 mm 0.00 in0.0 mm
12:46 PM 47.6°F8.7°C 40.1°F4.5°C 75% 3.5 mph SE5.6 kmh SE 6.9 mph11.1 kmh 28.29 in958.0 mb - 0.00 in0.0 mm 0.00 in0.0 mm
12:47 PM 47.7°F8.7°C 40.2°F4.6°C 75% 5.8 mph SE9.3 kmh SE 6.9 mph11.1 kmh 28.29 in958.0 mb - 0.00 in0.0 mm 0.00 in0.0 mm
12:48 PM 47.7°F8.7°C 40.2°F4.6°C 75% 4.6 mph S7.4 kmh S 5.8 mph9.3 kmh 28.29 in958.0 mb - 0.00 in0.0 mm 0.00 in0.0 mm
12:49 PM 47.7°F8.7°C 40.2°F4.6°C 75% 4.6 mph SW7.4 kmh SW 6.9 mph11.1 kmh 28.29 in958.0 mb - 0.00 in0.0 mm 0.00 in0.0 mm
12:50 PM 47.7°F8.7°C 40.2°F4.6°C 75% 4.6 mph S7.4 kmh S 5.8 mph9.3 kmh 28.29 in958.0 mb - 0.00 in0.0 mm 0.00 in0.0 mm
12:51 PM 47.7°F8.7°C 40.2°F4.6°C 75% 4.6 mph SE7.4 kmh SE 5.8 mph9.3 kmh 28.29 in958.0 mb - 0.00 in0.0 mm 0.00 in0.0 mm
12:52 PM 47.7°F8.7°C 40.2°F4.6°C 75% 5.8 mph SSE9.3 kmh SSE 6.9 mph11.1 kmh 28.29 in958.0 mb - 0.00 in0.0 mm 0.00 in0.0 mm
12:53 PM 47.7°F8.7°C 40.2°F4.6°C 75% 5.8 mph SE9.3 kmh SE 6.9 mph11.1 kmh 28.29 in958.0 mb - 0.00 in0.0 mm 0.00 in0.0 mm
12:54 PM 47.7°F8.7°C 40.2°F4.6°C 75% 4.6 mph SSE7.4 kmh SSE 5.8 mph9.3 kmh 28.29 in958.0 mb - 0.00 in0.0 mm 0.00 in0.0 mm
12:55 PM 47.8°F8.8°C 40.2°F4.6°C 75% 4.6 mph SSE7.4 kmh SSE 6.9 mph11.1 kmh 28.29 in958.0 mb - 0.00 in0.0 mm 0.00 in0.0 mm
12:56 PM 47.8°F8.8°C 40.3°F4.6°C 75% 4.6 mph S7.4 kmh S 6.9 mph11.1 kmh 28.29 in958.0 mb - 0.00 in0.0 mm 0.00 in0.0 mm
12:57 PM 47.8°F8.8°C 40.6°F4.8°C 76% 4.6 mph SE7.4 kmh SE 4.6 mph7.4 kmh 28.29 in958.0 mb - 0.00 in0.0 mm 0.00 in0.0 mm
12:58 PM 47.8°F8.8°C 40.6°F4.8°C 76% 3.5 mph S5.6 kmh S 5.8 mph9.3 kmh 28.29 in958.0 mb - 0.00 in0.0 mm 0.00 in0.0 mm
12:59 PM 47.8°F8.8°C 40.6°F4.8°C 76% 4.6 mph SE7.4 kmh SE 5.8 mph9.3 kmh 28.29 in958.0 mb - 0.00 in0.0 mm 0.00 in0.0 mm
01:00 PM 47.8°F8.8°C 40.6°F4.8°C 76% 5.8 mph S9.3 kmh S 6.9 mph11.1 kmh 28.29 in958.0 mb - 0.00 in0.0 mm 0.00 in0.0 mm
01:01 PM 47.8°F8.8°C 40.6°F4.8°C 76% 5.8 mph SSE9.3 kmh SSE 8.1 mph13.0 kmh 28.29 in958.0 mb - 0.00 in0.0 mm 0.00 in0.0 mm
01:02 PM 47.8°F8.8°C 40.6°F4.8°C 76% 5.8 mph SSE9.3 kmh SSE 8.1 mph13.0 kmh 28.29 in958.0 mb - 0.00 in0.0 mm 0.00 in0.0 mm
01:03 PM 47.8°F8.8°C 40.6°F4.8°C 76% 6.9 mph S11.1 kmh S 6.9 mph11.1 kmh 28.29 in958.0 mb - 0.00 in0.0 mm 0.00 in0.0 mm
01:04 PM 47.7°F8.7°C 40.5°F4.7°C 76% 3.5 mph SSE5.6 kmh SSE 4.6 mph7.4 kmh 28.29 in958.0 mb - 0.00 in0.0 mm 0.00 in0.0 mm
01:05 PM 47.7°F8.7°C 40.8°F4.9°C 77% 5.8 mph S9.3 kmh S 11.5 mph18.5 kmh 28.29 in958.0 mb - 0.00 in0.0 mm 0.00 in0.0 mm
01:06 PM 47.7°F8.7°C 40.8°F4.9°C 77% 8.1 mph E13.0 kmh E 8.1 mph13.0 kmh 28.29 in958.0 mb - 0.00 in0.0 mm 0.00 in0.0 mm
01:07 PM 47.5°F8.6°C 40.7°F4.8°C 77% 5.8 mph SE9.3 kmh SE 5.8 mph9.3 kmh 28.29 in958.0 mb - 0.00 in0.0 mm 0.00 in0.0 mm
01:08 PM 47.5°F8.6°C 40.6°F4.8°C 77% 4.6 mph SE7.4 kmh SE 4.6 mph7.4 kmh 28.29 in958.0 mb - 0.00 in0.0 mm 0.00 in0.0 mm
01:09 PM 47.5°F8.6°C 40.6°F4.8°C 77% 3.5 mph SE5.6 kmh SE 9.2 mph14.8 kmh 28.29 in958.0 mb - 0.00 in0.0 mm 0.00 in0.0 mm
01:10 PM 47.5°F8.6°C 40.6°F4.8°C 77% 5.8 mph S9.3 kmh S 9.2 mph14.8 kmh 28.29 in958.0 mb - 0.00 in0.0 mm 0.00 in0.0 mm
01:11 PM 47.5°F8.6°C 40.6°F4.8°C 77% 5.8 mph S9.3 kmh S 8.1 mph13.0 kmh 28.29 in958.0 mb - 0.00 in0.0 mm 0.00 in0.0 mm
01:12 PM 47.5°F8.6°C 40.6°F4.8°C 77% 5.8 mph SE9.3 kmh SE 8.1 mph13.0 kmh 28.29 in958.0 mb - 0.00 in0.0 mm 0.00 in0.0 mm
01:13 PM 47.3°F8.5°C 40.8°F4.9°C 78% 6.9 mph SSE11.1 kmh SSE 6.9 mph11.1 kmh 28.28 in957.7 mb - 0.00 in0.0 mm 0.00 in0.0 mm
01:14 PM 47.3°F8.5°C 40.8°F4.9°C 78% 4.6 mph SE7.4 kmh SE 5.8 mph9.3 kmh 28.28 in957.7 mb - 0.00 in0.0 mm 0.00 in0.0 mm
01:15 PM 47.3°F8.5°C 40.8°F4.9°C 78% 3.5 mph ESE5.6 kmh ESE 4.6 mph7.4 kmh 28.28 in957.7 mb - 0.00 in0.0 mm 0.00 in0.0 mm
01:16 PM 47.3°F8.5°C 40.8°F4.9°C 78% 4.6 mph ESE7.4 kmh ESE 6.9 mph11.1 kmh 28.28 in957.7 mb - 0.00 in0.0 mm 0.00 in0.0 mm
01:17 PM 47.3°F8.5°C 40.8°F4.9°C 78% 3.5 mph SE5.6 kmh SE 4.6 mph7.4 kmh 28.28 in957.7 mb - 0.00 in0.0 mm 0.00 in0.0 mm
01:18 PM 47.3°F8.5°C 40.8°F4.9°C 78% 3.5 mph SSE5.6 kmh SSE 5.8 mph9.3 kmh 28.28 in957.7 mb - 0.00 in0.0 mm 0.00 in0.0 mm
01:19 PM 47.3°F8.5°C 40.8°F4.9°C 78% 4.6 mph SSE7.4 kmh SSE 5.8 mph9.3 kmh 28.28 in957.7 mb - 0.00 in0.0 mm 0.00 in0.0 mm
01:20 PM 47.3°F8.5°C 40.8°F4.9°C 78% 3.5 mph S5.6 kmh S 6.9 mph11.1 kmh 28.28 in957.7 mb - 0.00 in0.0 mm 0.00 in0.0 mm
01:21 PM 47.3°F8.5°C 40.8°F4.9°C 78% 4.6 mph E7.4 kmh E 6.9 mph11.1 kmh 28.28 in957.7 mb - 0.00 in0.0 mm 0.00 in0.0 mm
01:22 PM 47.4°F8.6°C 40.9°F4.9°C 78% 3.5 mph SSE5.6 kmh SSE 3.5 mph5.6 kmh 28.28 in957.7 mb - 0.00 in0.0 mm 0.00 in0.0 mm
01:23 PM 47.5°F8.6°C 41.0°F5.0°C 78% 3.5 mph SE5.6 kmh SE 6.9 mph11.1 kmh 28.28 in957.7 mb - 0.00 in0.0 mm 0.00 in0.0 mm
01:24 PM 47.5°F8.6°C 41.0°F5.0°C 78% 5.8 mph S9.3 kmh S 6.9 mph11.1 kmh 28.28 in957.7 mb - 0.00 in0.0 mm 0.00 in0.0 mm
01:25 PM 47.5°F8.6°C 41.0°F5.0°C 78% 5.8 mph S9.3 kmh S 8.1 mph13.0 kmh 28.28 in957.7 mb - 0.00 in0.0 mm 0.00 in0.0 mm
01:26 PM 47.5°F8.6°C 41.0°F5.0°C 78% 6.9 mph ESE11.1 kmh ESE 6.9 mph11.1 kmh 28.27 in957.3 mb - 0.00 in0.0 mm 0.00 in0.0 mm
01:27 PM 47.5°F8.6°C 41.0°F5.0°C 78% 6.9 mph SSE11.1 kmh SSE 9.2 mph14.8 kmh 28.27 in957.3 mb - 0.00 in0.0 mm 0.00 in0.0 mm
01:28 PM 47.5°F8.6°C 41.0°F5.0°C 78% 6.9 mph SE11.1 kmh SE 8.1 mph13.0 kmh 28.27 in957.3 mb - 0.00 in0.0 mm 0.00 in0.0 mm
01:29 PM 47.5°F8.6°C 41.0°F5.0°C 78% 6.9 mph SE11.1 kmh SE 8.1 mph13.0 kmh 28.27 in957.3 mb - 0.00 in0.0 mm 0.00 in0.0 mm
01:30 PM 47.5°F8.6°C 41.0°F5.0°C 78% 6.9 mph SE11.1 kmh SE 9.2 mph14.8 kmh 28.27 in957.3 mb - 0.00 in0.0 mm 0.00 in0.0 mm
01:31 PM 47.5°F8.6°C 41.0°F5.0°C 78% 5.8 mph ESE9.3 kmh ESE 5.8 mph9.3 kmh 28.27 in957.3 mb - 0.00 in0.0 mm 0.00 in0.0 mm
01:32 PM 47.7°F8.7°C 41.1°F5.1°C 78% 4.6 mph SE7.4 kmh SE 8.1 mph13.0 kmh 28.27 in957.3 mb - 0.00 in0.0 mm 0.00 in0.0 mm
01:33 PM 47.7°F8.7°C 41.2°F5.1°C 78% 6.9 mph SSE11.1 kmh SSE 8.1 mph13.0 kmh 28.27 in957.3 mb - 0.00 in0.0 mm 0.00 in0.0 mm
01:34 PM 47.7°F8.7°C 41.2°F5.1°C 78% 4.6 mph SE7.4 kmh SE 6.9 mph11.1 kmh 28.27 in957.3 mb - 0.00 in0.0 mm 0.00 in0.0 mm
01:35 PM 47.8°F8.8°C 41.3°F5.2°C 78% 5.8 mph SE9.3 kmh SE 9.2 mph14.8 kmh 28.27 in957.3 mb - 0.00 in0.0 mm 0.00 in0.0 mm
01:36 PM 47.8°F8.8°C 41.3°F5.2°C 78% 5.8 mph S9.3 kmh S 10.4 mph16.7 kmh 28.27 in957.3 mb - 0.00 in0.0 mm 0.00 in0.0 mm
01:37 PM 47.8°F8.8°C 41.3°F5.2°C 78% 6.9 mph SSE11.1 kmh SSE 10.4 mph16.7 kmh 28.27 in957.3 mb - 0.00 in0.0 mm 0.00 in0.0 mm
01:38 PM 47.8°F8.8°C 41.3°F5.2°C 78% 5.8 mph S9.3 kmh S 6.9 mph11.1 kmh 28.27 in957.3 mb - 0.00 in0.0 mm 0.00 in0.0 mm
01:39 PM 47.8°F8.8°C 41.3°F5.2°C 78% 5.8 mph S9.3 kmh S 5.8 mph9.3 kmh 28.27 in957.3 mb - 0.00 in0.0 mm 0.00 in0.0 mm
01:40 PM 47.8°F8.8°C 41.3°F5.2°C 78% 5.8 mph SSE9.3 kmh SSE 6.9 mph11.1 kmh 28.27 in957.3 mb - 0.00 in0.0 mm 0.00 in0.0 mm
01:41 PM 47.8°F8.8°C 41.3°F5.2°C 78% 5.8 mph S9.3 kmh S 6.9 mph11.1 kmh 28.27 in957.3 mb - 0.00 in0.0 mm 0.00 in0.0 mm
01:42 PM 47.8°F8.8°C 41.3°F5.2°C 78% 4.6 mph S7.4 kmh S 6.9 mph11.1 kmh 28.27 in957.3 mb - 0.00 in0.0 mm 0.00 in0.0 mm
01:43 PM 47.8°F8.8°C 41.3°F5.2°C 78% 4.6 mph SE7.4 kmh SE 5.8 mph9.3 kmh 28.27 in957.3 mb - 0.00 in0.0 mm 0.00 in0.0 mm
01:44 PM 47.8°F8.8°C 41.3°F5.2°C 78% 3.5 mph ESE5.6 kmh ESE 4.6 mph7.4 kmh 28.27 in957.3 mb - 0.00 in0.0 mm 0.00 in0.0 mm
01:45 PM 48.0°F8.9°C 41.4°F5.2°C 78% 3.5 mph SE5.6 kmh SE 4.6 mph7.4 kmh 28.27 in957.3 mb - 0.00 in0.0 mm 0.00 in0.0 mm
01:46 PM 48.0°F8.9°C 41.5°F5.3°C 78% 3.5 mph SE5.6 kmh SE 6.9 mph11.1 kmh 28.27 in957.3 mb - 0.00 in0.0 mm 0.00 in0.0 mm
01:47 PM 48.0°F8.9°C 41.5°F5.3°C 78% 5.8 mph SE9.3 kmh SE 5.8 mph9.3 kmh 28.27 in957.3 mb - 0.00 in0.0 mm 0.00 in0.0 mm
01:48 PM 48.0°F8.9°C 41.5°F5.3°C 78% 3.5 mph SE5.6 kmh SE 9.2 mph14.8 kmh 28.27 in957.3 mb - 0.00 in0.0 mm 0.00 in0.0 mm
01:49 PM 48.0°F8.9°C 41.5°F5.3°C 78% 5.8 mph SSE9.3 kmh SSE 6.9 mph11.1 kmh 28.27 in957.3 mb - 0.00 in0.0 mm 0.00 in0.0 mm
01:50 PM 48.0°F8.9°C 41.5°F5.3°C 78% 5.8 mph SE9.3 kmh SE 8.1 mph13.0 kmh 28.27 in957.3 mb - 0.00 in0.0 mm 0.00 in0.0 mm
01:51 PM 48.0°F8.9°C 41.5°F5.3°C 78% 4.6 mph SSE7.4 kmh SSE 8.1 mph13.0 kmh 28.27 in957.3 mb - 0.00 in0.0 mm 0.00 in0.0 mm
01:52 PM 48.0°F8.9°C 41.5°F5.3°C 78% 4.6 mph ESE7.4 kmh ESE 6.9 mph11.1 kmh 28.27 in957.3 mb - 0.00 in0.0 mm 0.00 in0.0 mm
01:53 PM 48.0°F8.9°C 41.5°F5.3°C 78% 4.6 mph SE7.4 kmh SE 6.9 mph11.1 kmh 28.27 in957.3 mb - 0.00 in0.0 mm 0.00 in0.0 mm
01:54 PM 48.0°F8.9°C 41.5°F5.3°C 78% 5.8 mph SE9.3 kmh SE 6.9 mph11.1 kmh 28.27 in957.3 mb - 0.00 in0.0 mm 0.00 in0.0 mm
01:55 PM 48.0°F8.9°C 41.5°F5.3°C 78% 3.5 mph S5.6 kmh S 4.6 mph7.4 kmh 28.27 in957.3 mb - 0.00 in0.0 mm 0.00 in0.0 mm
01:56 PM 47.8°F8.8°C 41.3°F5.2°C 78% 4.6 mph SW7.4 kmh SW 6.9 mph11.1 kmh 28.27 in957.3 mb - 0.00 in0.0 mm 0.00 in0.0 mm
01:57 PM 47.8°F8.8°C 41.2°F5.1°C 78% 5.8 mph S9.3 kmh S 9.2 mph14.8 kmh 28.27 in957.3 mb - 0.00 in0.0 mm 0.00 in0.0 mm
01:58 PM 47.7°F8.7°C 41.5°F5.3°C 79% 8.1 mph E13.0 kmh E 10.4 mph16.7 kmh 28.27 in957.3 mb - 0.00 in0.0 mm 0.00 in0.0 mm
01:59 PM 47.7°F8.7°C 41.5°F5.3°C 79% 4.6 mph SE7.4 kmh SE 6.9 mph11.1 kmh 28.27 in957.3 mb - 0.00 in0.0 mm 0.00 in0.0 mm
02:00 PM 47.7°F8.7°C 41.5°F5.3°C 79% 5.8 mph SE9.3 kmh SE 5.8 mph9.3 kmh 28.27 in957.3 mb - 0.00 in0.0 mm 0.00 in0.0 mm
02:01 PM 47.7°F8.7°C 41.5°F5.3°C 79% 4.6 mph E7.4 kmh E 5.8 mph9.3 kmh 28.27 in957.3 mb - 0.00 in0.0 mm 0.00 in0.0 mm
02:02 PM 47.6°F8.7°C 41.4°F5.2°C 79% 4.6 mph SSE7.4 kmh SSE 4.6 mph7.4 kmh 28.27 in957.3 mb - 0.00 in0.0 mm 0.00 in0.0 mm
02:03 PM 47.5°F8.6°C 41.3°F5.2°C 79% 4.6 mph SSE7.4 kmh SSE 8.1 mph13.0 kmh 28.27 in957.3 mb - 0.00 in0.0 mm 0.00 in0.0 mm
02:04 PM 47.5°F8.6°C 41.3°F5.2°C 79% 6.9 mph SSE11.1 kmh SSE 8.1 mph13.0 kmh 28.27 in957.3 mb - 0.00 in0.0 mm 0.00 in0.0 mm
02:05 PM 47.5°F8.6°C 41.6°F5.3°C 80% 4.6 mph E7.4 kmh E 5.8 mph9.3 kmh 28.27 in957.3 mb - 0.00 in0.0 mm 0.00 in0.0 mm
02:06 PM 47.4°F8.6°C 41.6°F5.3°C 80% 5.8 mph E9.3 kmh E 8.1 mph13.0 kmh 28.27 in957.3 mb - 0.00 in0.0 mm 0.00 in0.0 mm
02:07 PM 47.3°F8.5°C 41.4°F5.2°C 80% 5.8 mph SSE9.3 kmh SSE 6.9 mph11.1 kmh 28.27 in957.3 mb - 0.00 in0.0 mm 0.00 in0.0 mm
02:08 PM 47.3°F8.5°C 41.4°F5.2°C 80% 5.8 mph SSW9.3 kmh SSW 6.9 mph11.1 kmh 28.27 in957.3 mb - 0.00 in0.0 mm 0.00 in0.0 mm
02:09 PM 47.1°F8.4°C 41.2°F5.1°C 80% 5.8 mph S9.3 kmh S 6.9 mph11.1 kmh 28.27 in957.3 mb - 0.00 in0.0 mm 0.00 in0.0 mm
02:10 PM 47.1°F8.4°C 41.2°F5.1°C 80% 4.6 mph SSE7.4 kmh SSE 5.8 mph9.3 kmh 28.27 in957.3 mb - 0.00 in0.0 mm 0.00 in0.0 mm
02:11 PM 47.1°F8.4°C 41.2°F5.1°C 80% 5.8 mph SSE9.3 kmh SSE 6.9 mph11.1 kmh 28.27 in957.3 mb - 0.00 in0.0 mm 0.00 in0.0 mm
02:12 PM 47.1°F8.4°C 41.6°F5.3°C 81% 5.8 mph SE9.3 kmh SE 6.9 mph11.1 kmh 28.27 in957.3 mb - 0.00 in0.0 mm 0.00 in0.0 mm
02:13 PM 47.1°F8.4°C 41.6°F5.3°C 81% 4.6 mph SE7.4 kmh SE 5.8 mph9.3 kmh 28.27 in957.3 mb - 0.00 in0.0 mm 0.00 in0.0 mm
02:14 PM 47.1°F8.4°C 41.6°F5.3°C 81% 3.5 mph SE5.6 kmh SE 4.6 mph7.4 kmh 28.27 in957.3 mb - 0.00 in0.0 mm 0.00 in0.0 mm
02:15 PM 47.1°F8.4°C 41.6°F5.3°C 81% 2.3 mph SE3.7 kmh SE 3.5 mph5.6 kmh 28.27 in957.3 mb - 0.00 in0.0 mm 0.00 in0.0 mm
02:16 PM 47.0°F8.3°C 41.5°F5.3°C 81% 3.5 mph SSE5.6 kmh SSE 3.5 mph5.6 kmh 28.27 in957.3 mb - 0.00 in0.0 mm 0.00 in0.0 mm
02:17 PM 46.9°F8.3°C 41.4°F5.2°C 81% 3.5 mph SE5.6 kmh SE 4.6 mph7.4 kmh 28.27 in957.3 mb - 0.00 in0.0 mm 0.00 in0.0 mm
02:18 PM 46.9°F8.3°C 41.7°F5.4°C 82% 3.5 mph S5.6 kmh S 5.8 mph9.3 kmh 28.27 in957.3 mb - 0.00 in0.0 mm 0.00 in0.0 mm
02:19 PM 46.9°F8.3°C 41.7°F5.4°C 82% 4.6 mph S7.4 kmh S 4.6 mph7.4 kmh 28.27 in957.3 mb - 0.00 in0.0 mm 0.00 in0.0 mm
02:20 PM 46.9°F8.3°C 41.7°F5.4°C 82% 4.6 mph SW7.4 kmh SW 5.8 mph9.3 kmh 28.27 in957.3 mb - 0.00 in0.0 mm 0.00 in0.0 mm
02:21 PM 46.8°F8.2°C 41.9°F5.5°C 83% 3.5 mph SE5.6 kmh SE 5.8 mph9.3 kmh 28.27 in957.3 mb - 0.00 in0.0 mm 0.00 in0.0 mm
02:22 PM 46.8°F8.2°C 41.9°F5.5°C 83% 4.6 mph SE7.4 kmh SE 5.8 mph9.3 kmh 28.27 in957.3 mb - 0.00 in0.0 mm 0.00 in0.0 mm
02:23 PM 46.8°F8.2°C 42.2°F5.7°C 84% 4.6 mph SE7.4 kmh SE 4.6 mph7.4 kmh 28.27 in957.3 mb - 0.00 in0.0 mm 0.00 in0.0 mm
02:24 PM 46.7°F8.2°C 42.1°F5.6°C 84% 3.5 mph S5.6 kmh S 3.5 mph5.6 kmh 28.27 in957.3 mb - 0.00 in0.0 mm 0.00 in0.0 mm
02:25 PM 46.6°F8.1°C 42.0°F5.6°C 84% 3.5 mph SE5.6 kmh SE 4.6 mph7.4 kmh 28.27 in957.3 mb - 0.00 in0.0 mm 0.00 in0.0 mm
02:26 PM 46.6°F8.1°C 42.3°F5.7°C 85% 4.6 mph SE7.4 kmh SE 5.8 mph9.3 kmh 28.27 in957.3 mb - 0.00 in0.0 mm 0.00 in0.0 mm
02:27 PM 46.6°F8.1°C 42.3°F5.7°C 85% 3.5 mph S5.6 kmh S 4.6 mph7.4 kmh 28.27 in957.3 mb - 0.00 in0.0 mm 0.00 in0.0 mm
02:28 PM 46.6°F8.1°C 42.3°F5.7°C 85% 3.5 mph SE5.6 kmh SE 4.6 mph7.4 kmh 28.27 in957.3 mb - 0.00 in0.0 mm 0.00 in0.0 mm
02:29 PM 46.6°F8.1°C 42.3°F5.7°C 85% 2.3 mph SE3.7 kmh SE 3.5 mph5.6 kmh 28.27 in957.3 mb - 0.00 in0.0 mm 0.00 in0.0 mm
02:30 PM 46.4°F8.0°C 42.4°F5.8°C 86% 2.3 mph SE3.7 kmh SE 3.5 mph5.6 kmh 28.27 in957.3 mb - 0.00 in0.0 mm 0.00 in0.0 mm
02:31 PM 46.4°F8.0°C 42.4°F5.8°C 86% 2.3 mph SE3.7 kmh SE 4.6 mph7.4 kmh 28.27 in957.3 mb - 0.00 in0.0 mm 0.00 in0.0 mm
02:32 PM 46.3°F7.9°C 42.3°F5.7°C 86% 4.6 mph SE7.4 kmh SE 5.8 mph9.3 kmh 28.27 in957.3 mb - 0.00 in0.0 mm 0.00 in0.0 mm
02:33 PM 46.2°F7.9°C 42.2°F5.7°C 86% 3.5 mph SE5.6 kmh SE 3.5 mph5.6 kmh 28.27 in957.3 mb - 0.00 in0.0 mm 0.00 in0.0 mm
02:34 PM 46.2°F7.9°C 42.5°F5.8°C 87% 2.3 mph SE3.7 kmh SE 3.5 mph5.6 kmh 28.27 in957.3 mb - 0.00 in0.0 mm 0.00 in0.0 mm
02:35 PM 46.2°F7.9°C 42.5°F5.8°C 87% 2.3 mph S3.7 kmh S 2.3 mph3.7 kmh 28.27 in957.3 mb - 0.00 in0.0 mm 0.00 in0.0 mm
02:36 PM 46.2°F7.9°C 42.5°F5.8°C 87% 2.3 mph S3.7 kmh S 2.3 mph3.7 kmh 28.27 in957.3 mb - 0.00 in0.0 mm 0.00 in0.0 mm
02:37 PM 46.2°F7.9°C 42.8°F6.0°C 88% 2.3 mph ESE3.7 kmh ESE 4.6 mph7.4 kmh 28.27 in957.3 mb - 0.00 in0.0 mm 0.00 in0.0 mm
02:38 PM 46.2°F7.9°C 42.8°F6.0°C 88% 3.5 mph ESE5.6 kmh ESE 4.6 mph7.4 kmh 28.27 in957.3 mb - 0.00 in0.0 mm 0.00 in0.0 mm
02:39 PM 46.2°F7.9°C 42.8°F6.0°C 88% 3.5 mph SE5.6 kmh SE 4.6 mph7.4 kmh 28.27 in957.3 mb - 0.00 in0.0 mm 0.00 in0.0 mm
02:40 PM 46.0°F7.8°C 42.6°F5.9°C 88% 3.5 mph SSE5.6 kmh SSE 5.8 mph9.3 kmh 28.27 in957.3 mb - 0.00 in0.0 mm 0.00 in0.0 mm
02:41 PM 46.0°F7.8°C 42.6°F5.9°C 88% 3.5 mph SE5.6 kmh SE 4.6 mph7.4 kmh 28.27 in957.3 mb - 0.00 in0.0 mm 0.00 in0.0 mm
02:42 PM 45.9°F7.7°C 42.9°F6.1°C 89% 3.5 mph ESE5.6 kmh ESE 4.6 mph7.4 kmh 28.27 in957.3 mb - 0.00 in0.0 mm 0.00 in0.0 mm
02:43 PM 45.9°F7.7°C 42.8°F6.0°C 89% 2.3 mph S3.7 kmh S 4.6 mph7.4 kmh 28.27 in957.3 mb - 0.00 in0.0 mm 0.00 in0.0 mm
02:44 PM 45.8°F7.7°C 42.8°F6.0°C 89% 3.5 mph SSE5.6 kmh SSE 4.6 mph7.4 kmh 28.27 in957.3 mb - 0.00 in0.0 mm 0.00 in0.0 mm
02:45 PM 45.7°F7.6°C 42.9°F6.1°C 90% 3.5 mph SSE5.6 kmh SSE 4.6 mph7.4 kmh 28.27 in957.3 mb - 0.00 in0.0 mm 0.00 in0.0 mm
02:46 PM 45.7°F7.6°C 42.9°F6.1°C 90% 3.5 mph SE5.6 kmh SE 3.5 mph5.6 kmh 28.27 in957.3 mb - 0.00 in0.0 mm 0.00 in0.0 mm
02:47 PM 45.7°F7.6°C 42.9°F6.1°C 90% 3.5 mph SE5.6 kmh SE 2.3 mph3.7 kmh 28.27 in957.3 mb - 0.00 in0.0 mm 0.00 in0.0 mm
02:48 PM 45.7°F7.6°C 42.9°F6.1°C 90% 3.5 mph SE5.6 kmh SE 5.8 mph9.3 kmh 28.27 in957.3 mb - 0.00 in0.0 mm 0.00 in0.0 mm
02:49 PM 45.5°F7.5°C 42.7°F5.9°C 90% 4.6 mph S7.4 kmh S 4.6 mph7.4 kmh 28.27 in957.3 mb - 0.00 in0.0 mm 0.00 in0.0 mm
02:50 PM 45.5°F7.5°C 43.0°F6.1°C 91% 3.5 mph SE5.6 kmh SE 6.9 mph11.1 kmh 28.27 in957.3 mb - 0.00 in0.0 mm 0.00 in0.0 mm
02:51 PM 45.3°F7.4°C 42.8°F6.0°C 91% 5.8 mph SE9.3 kmh SE 5.8 mph9.3 kmh 28.27 in957.3 mb - 0.00 in0.0 mm 0.00 in0.0 mm
02:52 PM 45.3°F7.4°C 42.8°F6.0°C 91% 3.5 mph SE5.6 kmh SE 4.6 mph7.4 kmh 28.27 in957.3 mb - 0.00 in0.0 mm 0.00 in0.0 mm
02:53 PM 45.3°F7.4°C 42.8°F6.0°C 91% 3.5 mph SSE5.6 kmh SSE 3.5 mph5.6 kmh 28.27 in957.3 mb - 0.00 in0.0 mm 0.00 in0.0 mm
02:54 PM 45.3°F7.4°C 42.8°F6.0°C 91% 2.3 mph SSE3.7 kmh SSE 2.3 mph3.7 kmh 28.27 in957.3 mb - 0.01 in0.3 mm 0.01 in0.3 mm
02:55 PM 45.3°F7.4°C 42.8°F6.0°C 91% 2.3 mph SE3.7 kmh SE 4.6 mph7.4 kmh 28.27 in957.3 mb - 0.01 in0.3 mm 0.01 in0.3 mm
02:56 PM 45.2°F7.3°C 42.7°F5.9°C 91% 3.5 mph SE5.6 kmh SE 4.6 mph7.4 kmh 28.27 in957.3 mb - 0.00 in0.0 mm 0.01 in0.3 mm
02:57 PM 45.1°F7.3°C 42.6°F5.9°C 91% 2.3 mph SSE3.7 kmh SSE 2.3 mph3.7 kmh 28.27 in957.3 mb - 0.00 in0.0 mm 0.01 in0.3 mm
02:58 PM 45.1°F7.3°C 42.9°F6.1°C 92% 2.3 mph S3.7 kmh S 3.5 mph5.6 kmh 28.27 in957.3 mb - 0.00 in0.0 mm 0.01 in0.3 mm
02:59 PM 45.1°F7.3°C 42.9°F6.1°C 92% 2.3 mph S3.7 kmh S 3.5 mph5.6 kmh 28.27 in957.3 mb - 0.00 in0.0 mm 0.01 in0.3 mm
03:00 PM 45.1°F7.3°C 42.9°F6.1°C 92% 3.5 mph S5.6 kmh S 4.6 mph7.4 kmh 28.27 in957.3 mb - 0.00 in0.0 mm 0.01 in0.3 mm
03:01 PM 45.1°F7.3°C 42.9°F6.1°C 92% 3.5 mph SE5.6 kmh SE 3.5 mph5.6 kmh 28.27 in957.3 mb - 0.01 in0.3 mm 0.02 in0.5 mm
03:02 PM 45.0°F7.2°C 42.8°F6.0°C 92% 2.3 mph ESE3.7 kmh ESE 2.3 mph3.7 kmh 28.28 in957.7 mb - 0.01 in0.3 mm 0.02 in0.5 mm
03:03 PM 45.0°F7.2°C 42.8°F6.0°C 92% 2.3 mph SE3.7 kmh SE 2.3 mph3.7 kmh 28.28 in957.7 mb - 0.00 in0.0 mm 0.02 in0.5 mm
03:04 PM 45.0°F7.2°C 42.8°F6.0°C 92% 2.3 mph SE3.7 kmh SE 4.6 mph7.4 kmh 28.28 in957.7 mb - 0.00 in0.0 mm 0.02 in0.5 mm
03:05 PM 45.0°F7.2°C 42.8°F6.0°C 92% 3.5 mph SE5.6 kmh SE 4.6 mph7.4 kmh 28.28 in957.7 mb - 0.00 in0.0 mm 0.02 in0.5 mm
03:06 PM 45.0°F7.2°C 43.1°F6.2°C 93% 2.3 mph ESE3.7 kmh ESE 3.5 mph5.6 kmh 28.28 in957.7 mb - 0.01 in0.3 mm 0.03 in0.8 mm
03:07 PM 45.0°F7.2°C 43.1°F6.2°C 93% 3.5 mph SE5.6 kmh SE 4.6 mph7.4 kmh 28.28 in957.7 mb - 0.01 in0.3 mm 0.03 in0.8 mm
03:08 PM 45.0°F7.2°C 43.1°F6.2°C 93% 3.5 mph SE5.6 kmh SE 4.6 mph7.4 kmh 28.28 in957.7 mb - 0.00 in0.0 mm 0.03 in0.8 mm
03:09 PM 45.0°F7.2°C 43.1°F6.2°C 93% 2.3 mph SE3.7 kmh SE 6.9 mph11.1 kmh 28.28 in957.7 mb - 0.00 in0.0 mm 0.03 in0.8 mm
03:10 PM 44.9°F7.2°C 43.0°F6.1°C 93% 4.6 mph SE7.4 kmh SE 6.9 mph11.1 kmh 28.28 in957.7 mb - 0.00 in0.0 mm 0.03 in0.8 mm
03:11 PM 44.8°F7.1°C 42.9°F6.1°C 93% 3.5 mph SE5.6 kmh SE 4.6 mph7.4 kmh 28.28 in957.7 mb - 0.00 in0.0 mm 0.03 in0.8 mm
03:12 PM 44.8°F7.1°C 42.9°F6.1°C 93% 3.5 mph SE5.6 kmh SE 4.6 mph7.4 kmh 28.28 in957.7 mb - 0.01 in0.3 mm 0.04 in1.0 mm
03:13 PM 44.8°F7.1°C 42.9°F6.1°C 93% 3.5 mph SSE5.6 kmh SSE 3.5 mph5.6 kmh 28.27 in957.3 mb - 0.01 in0.3 mm 0.04 in1.0 mm
03:14 PM 44.7°F7.1°C 42.8°F6.0°C 93% 3.5 mph SE5.6 kmh SE 4.6 mph7.4 kmh 28.27 in957.3 mb - 0.00 in0.0 mm 0.04 in1.0 mm
03:15 PM 44.6°F7.0°C 43.0°F6.1°C 94% 3.5 mph SSE5.6 kmh SSE 4.6 mph7.4 kmh 28.27 in957.3 mb - 0.00 in0.0 mm 0.04 in1.0 mm
03:16 PM 44.6°F7.0°C 43.0°F6.1°C 94% 2.3 mph S3.7 kmh S 2.3 mph3.7 kmh 28.27 in957.3 mb - 0.00 in0.0 mm 0.04 in1.0 mm
03:17 PM 44.6°F7.0°C 43.0°F6.1°C 94% 2.3 mph S3.7 kmh S 6.9 mph11.1 kmh 28.27 in957.3 mb - 0.00 in0.0 mm 0.04 in1.0 mm
03:18 PM 44.6°F7.0°C 43.0°F6.1°C 94% 5.8 mph S9.3 kmh S 6.9 mph11.1 kmh 28.27 in957.3 mb - 0.01 in0.3 mm 0.05 in1.3 mm
03:19 PM 44.4°F6.9°C 42.8°F6.0°C 94% 5.8 mph SSE9.3 kmh SSE 5.8 mph9.3 kmh 28.27 in957.3 mb - 0.01 in0.3 mm 0.05 in1.3 mm
03:20 PM 44.4°F6.9°C 42.8°F6.0°C 94% 4.6 mph SE7.4 kmh SE 5.8 mph9.3 kmh 28.27 in957.3 mb - 0.00 in0.0 mm 0.05 in1.3 mm
03:21 PM 44.4°F6.9°C 42.8°F6.0°C 94% 4.6 mph S7.4 kmh S 5.8 mph9.3 kmh 28.27 in957.3 mb - 0.00 in0.0 mm 0.05 in1.3 mm
03:22 PM 44.4°F6.9°C 42.8°F6.0°C 94% 3.5 mph SSE5.6 kmh SSE 5.8 mph9.3 kmh 28.27 in957.3 mb - 0.00 in0.0 mm 0.05 in1.3 mm
03:23 PM 44.4°F6.9°C 42.8°F6.0°C 94% 4.6 mph SE7.4 kmh SE 5.8 mph9.3 kmh 28.27 in957.3 mb - 0.00 in0.0 mm 0.05 in1.3 mm
03:24 PM 44.4°F6.9°C 42.8°F6.0°C 94% 4.6 mph SSE7.4 kmh SSE 3.5 mph5.6 kmh 28.27 in957.3 mb - 0.00 in0.0 mm 0.05 in1.3 mm
03:25 PM 44.4°F6.9°C 42.8°F6.0°C 94% 3.5 mph SE5.6 kmh SE 4.6 mph7.4 kmh 28.28 in957.7 mb - 0.00 in0.0 mm 0.05 in1.3 mm
03:26 PM 44.4°F6.9°C 42.8°F6.0°C 94% 4.6 mph S7.4 kmh S 4.6 mph7.4 kmh 28.28 in957.7 mb - 0.00 in0.0 mm 0.05 in1.3 mm
03:27 PM 44.4°F6.9°C 42.8°F6.0°C 94% 3.5 mph SE5.6 kmh SE 4.6 mph7.4 kmh 28.28 in957.7 mb - 0.00 in0.0 mm 0.05 in1.3 mm
03:28 PM 44.4°F6.9°C 42.8°F6.0°C 94% 2.3 mph SE3.7 kmh SE 3.5 mph5.6 kmh 28.28 in957.7 mb - 0.00 in0.0 mm 0.05 in1.3 mm
03:29 PM 44.4°F6.9°C 43.1°F6.2°C 95% 2.3 mph SSE3.7 kmh SSE 2.3 mph3.7 kmh 28.28 in957.7 mb - 0.01 in0.3 mm 0.06 in1.5 mm
03:30 PM 44.4°F6.9°C 43.1°F6.2°C 95% 2.3 mph SE3.7 kmh SE 3.5 mph5.6 kmh 28.28 in957.7 mb - 0.01 in0.3 mm 0.06 in1.5 mm
03:31 PM 44.4°F6.9°C 43.1°F6.2°C 95% 3.5 mph SE5.6 kmh SE 8.1 mph13.0 kmh 28.28 in957.7 mb - 0.00 in0.0 mm 0.06 in1.5 mm
03:32 PM 44.4°F6.9°C 43.1°F6.2°C 95% 3.5 mph S5.6 kmh S 5.8 mph9.3 kmh 28.28 in957.7 mb - 0.00 in0.0 mm 0.06 in1.5 mm
03:33 PM 44.4°F6.9°C 43.1°F6.2°C 95% 3.5 mph SSE5.6 kmh SSE 5.8 mph9.3 kmh 28.28 in957.7 mb - 0.00 in0.0 mm 0.06 in1.5 mm
03:34 PM 44.4°F6.9°C 43.1°F6.2°C 95% 3.5 mph ESE5.6 kmh ESE 4.6 mph7.4 kmh 28.28 in957.7 mb - 0.00 in0.0 mm 0.06 in1.5 mm
03:35 PM 44.4°F6.9°C 43.1°F6.2°C 95% 3.5 mph SE5.6 kmh SE 6.9 mph11.1 kmh 28.28 in957.7 mb - 0.00 in0.0 mm 0.06 in1.5 mm
03:36 PM 44.4°F6.9°C 43.1°F6.2°C 95% 4.6 mph SE7.4 kmh SE 6.9 mph11.1 kmh 28.28 in957.7 mb - 0.00 in0.0 mm 0.06 in1.5 mm
03:37 PM 44.4°F6.9°C 43.1°F6.2°C 95% 4.6 mph SE7.4 kmh SE 5.8 mph9.3 kmh 28.28 in957.7 mb - 0.00 in0.0 mm 0.06 in1.5 mm
03:38 PM 44.4°F6.9°C 43.1°F6.2°C 95% 3.5 mph SE5.6 kmh SE 5.8 mph9.3 kmh 28.28 in957.7 mb - 0.01 in0.3 mm 0.07 in1.8 mm
03:39 PM 44.4°F6.9°C 43.1°F6.2°C 95% 4.6 mph SE7.4 kmh SE 5.8 mph9.3 kmh 28.28 in957.7 mb - 0.01 in0.3 mm 0.07 in1.8 mm
03:40 PM 44.4°F6.9°C 43.1°F6.2°C 95% 2.3 mph SE3.7 kmh SE 2.3 mph3.7 kmh 28.28 in957.7 mb - 0.00 in0.0 mm 0.07 in1.8 mm
03:41 PM 44.4°F6.9°C 43.1°F6.2°C 95% 2.3 mph SE3.7 kmh SE 3.5 mph5.6 kmh 28.28 in957.7 mb - 0.00 in0.0 mm 0.07 in1.8 mm
03:42 PM 44.4°F6.9°C 43.1°F6.2°C 95% 3.5 mph SSE5.6 kmh SSE 5.8 mph9.3 kmh 28.28 in957.7 mb - 0.00 in0.0 mm 0.07 in1.8 mm
03:43 PM 44.4°F6.9°C 43.1°F6.2°C 95% 3.5 mph SE5.6 kmh SE 2.3 mph3.7 kmh 28.28 in957.7 mb - 0.00 in0.0 mm 0.07 in1.8 mm
03:44 PM 44.4°F6.9°C 43.1°F6.2°C 95% 1.2 mph ESE1.9 kmh ESE 2.3 mph3.7 kmh 28.28 in957.7 mb - 0.00 in0.0 mm 0.07 in1.8 mm
03:45 PM 44.4°F6.9°C 43.1°F6.2°C 95% Calm Calm 3.5 mph5.6 kmh 28.28 in957.7 mb - 0.00 in0.0 mm 0.07 in1.8 mm
03:46 PM 44.4°F6.9°C 43.1°F6.2°C 95% 2.3 mph SSW3.7 kmh SSW 3.5 mph5.6 kmh 28.28 in957.7 mb - 0.00 in0.0 mm 0.07 in1.8 mm
03:47 PM 44.4°F6.9°C 43.0°F6.1°C 95% 1.2 mph S1.9 kmh S 1.2 mph1.9 kmh 28.28 in957.7 mb - 0.00 in0.0 mm 0.07 in1.8 mm
03:48 PM 44.2°F6.8°C 42.9°F6.1°C 95% 1.2 mph SE1.9 kmh SE 2.3 mph3.7 kmh 28.28 in957.7 mb - 0.00 in0.0 mm 0.07 in1.8 mm
03:49 PM 44.2°F6.8°C 42.9°F6.1°C 95% 2.3 mph SSE3.7 kmh SSE 2.3 mph3.7 kmh 28.28 in957.7 mb - 0.01 in0.3 mm 0.08 in2.0 mm
03:50 PM 44.2°F6.8°C 42.9°F6.1°C 95% 2.3 mph SE3.7 kmh SE 2.3 mph3.7 kmh 28.29 in958.0 mb - 0.01 in0.3 mm 0.08 in2.0 mm
03:51 PM 44.2°F6.8°C 42.9°F6.1°C 95% 2.3 mph SE3.7 kmh SE 2.3 mph3.7 kmh 28.29 in958.0 mb - 0.00 in0.0 mm 0.08 in2.0 mm
03:52 PM 44.2°F6.8°C 42.9°F6.1°C 95% 1.2 mph E1.9 kmh E 3.5 mph5.6 kmh 28.29 in958.0 mb - 0.00 in0.0 mm 0.08 in2.0 mm
03:53 PM 44.2°F6.8°C 42.9°F6.1°C 95% 2.3 mph SSW3.7 kmh SSW 3.5 mph5.6 kmh 28.29 in958.0 mb - 0.00 in0.0 mm 0.08 in2.0 mm
03:54 PM 44.2°F6.8°C 42.9°F6.1°C 95% 2.3 mph SE3.7 kmh SE 2.3 mph3.7 kmh 28.29 in958.0 mb - 0.01 in0.3 mm 0.09 in2.3 mm
03:55 PM 44.2°F6.8°C 42.9°F6.1°C 95% 1.2 mph SE1.9 kmh SE 1.2 mph1.9 kmh 28.29 in958.0 mb - 0.01 in0.3 mm 0.09 in2.3 mm
03:56 PM 44.2°F6.8°C 42.9°F6.1°C 95% Calm Calm -- 28.29 in958.0 mb - 0.00 in0.0 mm 0.09 in2.3 mm
03:57 PM 44.2°F6.8°C 42.9°F6.1°C 95% 1.2 mph SSE1.9 kmh SSE 3.5 mph5.6 kmh 28.29 in958.0 mb - 0.00 in0.0 mm 0.09 in2.3 mm
03:58 PM 44.2°F6.8°C 42.9°F6.1°C 95% 2.3 mph SE3.7 kmh SE 2.3 mph3.7 kmh 28.29 in958.0 mb - 0.00 in0.0 mm 0.09 in2.3 mm
03:59 PM 44.2°F6.8°C 42.9°F6.1°C 95% 2.3 mph SSE3.7 kmh SSE 2.3 mph3.7 kmh 28.29 in958.0 mb - 0.00 in0.0 mm 0.09 in2.3 mm
04:00 PM 44.2°F6.8°C 42.9°F6.1°C 95% 1.2 mph SSE1.9 kmh SSE 2.3 mph3.7 kmh 28.29 in958.0 mb - 0.01 in0.3 mm 0.10 in2.5 mm
04:01 PM 44.2°F6.8°C 42.9°F6.1°C 95% 2.3 mph SE3.7 kmh SE 4.6 mph7.4 kmh 28.29 in958.0 mb - 0.01 in0.3 mm 0.10 in2.5 mm
04:02 PM 44.2°F6.8°C 42.9°F6.1°C 95% 2.3 mph SE3.7 kmh SE 2.3 mph3.7 kmh 28.29 in958.0 mb - 0.00 in0.0 mm 0.10 in2.5 mm
04:03 PM 44.2°F6.8°C 42.9°F6.1°C 95% 2.3 mph SE3.7 kmh SE 2.3 mph3.7 kmh 28.29 in958.0 mb - 0.00 in0.0 mm 0.10 in2.5 mm
04:04 PM 44.2°F6.8°C 42.9°F6.1°C 95% 2.3 mph SSE3.7 kmh SSE 4.6 mph7.4 kmh 28.29 in958.0 mb - 0.00 in0.0 mm 0.10 in2.5 mm
04:05 PM 44.2°F6.8°C 42.8°F6.0°C 95% 3.5 mph SE5.6 kmh SE 4.6 mph7.4 kmh 28.29 in958.0 mb - 0.01 in0.3 mm 0.11 in2.8 mm
04:06 PM 44.1°F6.7°C 42.8°F6.0°C 95% 3.5 mph E5.6 kmh E 4.6 mph7.4 kmh 28.29 in958.0 mb - 0.01 in0.3 mm 0.11 in2.8 mm
04:07 PM 44.1°F6.7°C 42.8°F6.0°C 95% 2.3 mph ESE3.7 kmh ESE 3.5 mph5.6 kmh 28.29 in958.0 mb - 0.00 in0.0 mm 0.11 in2.8 mm
04:08 PM 44.1°F6.7°C 42.8°F6.0°C 95% 2.3 mph E3.7 kmh E 3.5 mph5.6 kmh 28.29 in958.0 mb - 0.00 in0.0 mm 0.11 in2.8 mm
04:09 PM 44.1°F6.7°C 42.8°F6.0°C 95% 1.2 mph ESE1.9 kmh ESE 2.3 mph3.7 kmh 28.29 in958.0 mb - 0.00 in0.0 mm 0.11 in2.8 mm
04:10 PM 44.1°F6.7°C 42.8°F6.0°C 95% 2.3 mph SE3.7 kmh SE 2.3 mph3.7 kmh 28.29 in958.0 mb - 0.00 in0.0 mm 0.11 in2.8 mm
04:11 PM 44.1°F6.7°C 42.8°F6.0°C 95% 2.3 mph SE3.7 kmh SE 2.3 mph3.7 kmh 28.29 in958.0 mb - 0.00 in0.0 mm 0.11 in2.8 mm
04:12 PM 44.1°F6.7°C 42.8°F6.0°C 95% 1.2 mph S1.9 kmh S 1.2 mph1.9 kmh 28.29 in958.0 mb - 0.00 in0.0 mm 0.11 in2.8 mm
04:13 PM 44.1°F6.7°C 42.8°F6.0°C 95% Calm Calm 2.3 mph3.7 kmh 28.29 in958.0 mb - 0.00 in0.0 mm 0.11 in2.8 mm
04:14 PM 44.1°F6.7°C 43.0°F6.1°C 96% 2.3 mph S3.7 kmh S 5.8 mph9.3 kmh 28.29 in958.0 mb - 0.00 in0.0 mm 0.11 in2.8 mm
04:15 PM 44.1°F6.7°C 43.0°F6.1°C 96% 3.5 mph SSE5.6 kmh SSE 4.6 mph7.4 kmh 28.29 in958.0 mb - 0.01 in0.3 mm 0.12 in3.0 mm
04:16 PM 44.1°F6.7°C 43.0°F6.1°C 96% 2.3 mph S3.7 kmh S 3.5 mph5.6 kmh 28.29 in958.0 mb - 0.01 in0.3 mm 0.12 in3.0 mm
04:17 PM 44.1°F6.7°C 43.0°F6.1°C 96% 3.5 mph SSE5.6 kmh SSE 5.8 mph9.3 kmh 28.29 in958.0 mb - 0.00 in0.0 mm 0.12 in3.0 mm
04:18 PM 44.1°F6.7°C 43.0°F6.1°C 96% 2.3 mph S3.7 kmh S 2.3 mph3.7 kmh 28.29 in958.0 mb - 0.00 in0.0 mm 0.12 in3.0 mm
04:19 PM 44.1°F6.7°C 43.0°F6.1°C 96% 1.2 mph SSW1.9 kmh SSW 2.3 mph3.7 kmh 28.29 in958.0 mb - 0.00 in0.0 mm 0.12 in3.0 mm
04:20 PM 44.1°F6.7°C 43.0°F6.1°C 96% 1.2 mph S1.9 kmh S 2.3 mph3.7 kmh 28.29 in958.0 mb - 0.00 in0.0 mm 0.12 in3.0 mm
04:21 PM 44.1°F6.7°C 43.0°F6.1°C 96% 2.3 mph SE3.7 kmh SE 4.6 mph7.4 kmh 28.29 in958.0 mb - 0.00 in0.0 mm 0.12 in3.0 mm
04:22 PM 44.1°F6.7°C 43.0°F6.1°C 96% 3.5 mph S5.6 kmh S 4.6 mph7.4 kmh 28.29 in958.0 mb - 0.00 in0.0 mm 0.12 in3.0 mm
04:23 PM 44.1°F6.7°C 43.0°F6.1°C 96% 2.3 mph S3.7 kmh S 3.5 mph5.6 kmh 28.29 in958.0 mb - 0.00 in0.0 mm 0.12 in3.0 mm
04:24 PM 44.1°F6.7°C 43.0°F6.1°C 96% 2.3 mph S3.7 kmh S 2.3 mph3.7 kmh 28.29 in958.0 mb - 0.00 in0.0 mm 0.12 in3.0 mm
04:25 PM 44.1°F6.7°C 43.0°F6.1°C 96% 2.3 mph ESE3.7 kmh ESE 2.3 mph3.7 kmh 28.29 in958.0 mb - 0.01 in0.3 mm 0.13 in3.3 mm
04:26 PM 44.1°F6.7°C 43.0°F6.1°C 96% 1.2 mph SE1.9 kmh SE 2.3 mph3.7 kmh 28.29 in958.0 mb - 0.01 in0.3 mm 0.13 in3.3 mm
04:27 PM 44.1°F6.7°C 43.0°F6.1°C 96% 2.3 mph S3.7 kmh S 3.5 mph5.6 kmh 28.29 in958.0 mb - 0.00 in0.0 mm 0.13 in3.3 mm
04:28 PM 44.1°F6.7°C 43.0°F6.1°C 96% 2.3 mph S3.7 kmh S 3.5 mph5.6 kmh 28.29 in958.0 mb - 0.00 in0.0 mm 0.13 in3.3 mm
04:29 PM 44.1°F6.7°C 43.0°F6.1°C 96% 2.3 mph S3.7 kmh S 3.5 mph5.6 kmh 28.29 in958.0 mb - 0.00 in0.0 mm 0.13 in3.3 mm
04:30 PM 44.1°F6.7°C 43.0°F6.1°C 96% 3.5 mph SE5.6 kmh SE 8.1 mph13.0 kmh 28.29 in958.0 mb - 0.00 in0.0 mm 0.13 in3.3 mm
04:31 PM 44.1°F6.7°C 43.0°F6.1°C 96% 5.8 mph SE9.3 kmh SE 6.9 mph11.1 kmh 28.29 in958.0 mb - 0.00 in0.0 mm 0.13 in3.3 mm
04:32 PM 44.1°F6.7°C 43.0°F6.1°C 96% 3.5 mph SE5.6 kmh SE 5.8 mph9.3 kmh 28.29 in958.0 mb - 0.00 in0.0 mm 0.13 in3.3 mm
04:33 PM 44.1°F6.7°C 43.0°F6.1°C 96% 4.6 mph ESE7.4 kmh ESE 4.6 mph7.4 kmh 28.29 in958.0 mb - 0.00 in0.0 mm 0.13 in3.3 mm
04:34 PM 44.1°F6.7°C 43.0°F6.1°C 96% 3.5 mph SSW5.6 kmh SSW 4.6 mph7.4 kmh 28.29 in958.0 mb - 0.00 in0.0 mm 0.13 in3.3 mm
04:35 PM 44.1°F6.7°C 43.0°F6.1°C 96% 3.5 mph SSE5.6 kmh SSE 4.6 mph7.4 kmh 28.29 in958.0 mb - 0.01 in0.3 mm 0.14 in3.6 mm
04:36 PM 44.1°F6.7°C 43.0°F6.1°C 96% 2.3 mph SE3.7 kmh SE 2.3 mph3.7 kmh 28.29 in958.0 mb - 0.01 in0.3 mm 0.14 in3.6 mm
04:37 PM 44.1°F6.7°C 43.0°F6.1°C 96% 2.3 mph SE3.7 kmh SE 2.3 mph3.7 kmh 28.29 in958.0 mb - 0.00 in0.0 mm 0.14 in3.6 mm
04:38 PM 44.1°F6.7°C 43.0°F6.1°C 96% 1.2 mph SE1.9 kmh SE 3.5 mph5.6 kmh 28.29 in958.0 mb - 0.00 in0.0 mm 0.14 in3.6 mm
04:39 PM 44.1°F6.7°C 43.0°F6.1°C 96% 2.3 mph SSE3.7 kmh SSE 2.3 mph3.7 kmh 28.29 in958.0 mb - 0.00 in0.0 mm 0.14 in3.6 mm
04:40 PM 44.1°F6.7°C 43.0°F6.1°C 96% 2.3 mph SSE3.7 kmh SSE 2.3 mph3.7 kmh 28.29 in958.0 mb - 0.00 in0.0 mm 0.14 in3.6 mm
04:41 PM 44.1°F6.7°C 43.0°F6.1°C 96% 2.3 mph SSE3.7 kmh SSE 2.3 mph3.7 kmh 28.29 in958.0 mb - 0.01 in0.3 mm 0.15 in3.8 mm
04:42 PM 44.1°F6.7°C 43.0°F6.1°C 96% 2.3 mph SE3.7 kmh SE 3.5 mph5.6 kmh 28.29 in958.0 mb - 0.01 in0.3 mm 0.15 in3.8 mm
04:43 PM 44.1°F6.7°C 43.0°F6.1°C 96% 2.3 mph SE3.7 kmh SE 2.3 mph3.7 kmh 28.29 in958.0 mb - 0.00 in0.0 mm 0.15 in3.8 mm
04:44 PM 44.1°F6.7°C 43.0°F6.1°C 96% 3.5 mph ESE5.6 kmh ESE 4.6 mph7.4 kmh 28.29 in958.0 mb - 0.00 in0.0 mm 0.15 in3.8 mm
04:45 PM 44.1°F6.7°C 43.0°F6.1°C 96% 4.6 mph S7.4 kmh S 5.8 mph9.3 kmh 28.29 in958.0 mb - 0.00 in0.0 mm 0.15 in3.8 mm
04:46 PM 44.1°F6.7°C 43.0°F6.1°C 96% 3.5 mph SSE5.6 kmh SSE 4.6 mph7.4 kmh 28.29 in958.0 mb - 0.00 in0.0 mm 0.15 in3.8 mm
04:47 PM 44.1°F6.7°C 43.0°F6.1°C 96% 3.5 mph SE5.6 kmh SE 4.6 mph7.4 kmh 28.29 in958.0 mb - 0.00 in0.0 mm 0.15 in3.8 mm
04:48 PM 44.1°F6.7°C 43.0°F6.1°C 96% 3.5 mph SSE5.6 kmh SSE 5.8 mph9.3 kmh 28.29 in958.0 mb - 0.00 in0.0 mm 0.15 in3.8 mm
04:49 PM 44.1°F6.7°C 43.0°F6.1°C 96% 3.5 mph SE5.6 kmh SE 5.8 mph9.3 kmh 28.29 in958.0 mb - 0.00 in0.0 mm 0.15 in3.8 mm
04:50 PM 44.1°F6.7°C 43.0°F6.1°C 96% 3.5 mph SSE5.6 kmh SSE 4.6 mph7.4 kmh 28.29 in958.0 mb - 0.00 in0.0 mm 0.15 in3.8 mm
04:51 PM 44.1°F6.7°C 43.0°F6.1°C 96% 3.5 mph SSE5.6 kmh SSE 5.8 mph9.3 kmh 28.29 in958.0 mb - 0.00 in0.0 mm 0.15 in3.8 mm
04:52 PM 44.1°F6.7°C 43.0°F6.1°C 96% 4.6 mph SSE7.4 kmh SSE 5.8 mph9.3 kmh 28.29 in958.0 mb - 0.00 in0.0 mm 0.15 in3.8 mm
04:53 PM 44.1°F6.7°C 43.0°F6.1°C 96% 4.6 mph ESE7.4 kmh ESE 4.6 mph7.4 kmh 28.29 in958.0 mb - 0.00 in0.0 mm 0.15 in3.8 mm
04:54 PM 44.1°F6.7°C 43.0°F6.1°C 96% 2.3 mph ESE3.7 kmh ESE 3.5 mph5.6 kmh 28.29 in958.0 mb - 0.01 in0.3 mm 0.16 in4.1 mm
04:55 PM 44.1°F6.7°C 43.0°F6.1°C 96% 3.5 mph S5.6 kmh S 5.8 mph9.3 kmh 28.29 in958.0 mb - 0.01 in0.3 mm 0.16 in4.1 mm
04:56 PM 44.1°F6.7°C 43.0°F6.1°C 96% 4.6 mph S7.4 kmh S 5.8 mph9.3 kmh 28.29 in958.0 mb - 0.00 in0.0 mm 0.16 in4.1 mm
04:57 PM 44.1°F6.7°C 43.0°F6.1°C 96% 3.5 mph SE5.6 kmh SE 4.6 mph7.4 kmh 28.29 in958.0 mb - 0.00 in0.0 mm 0.16 in4.1 mm
04:58 PM 44.1°F6.7°C 43.0°F6.1°C 96% 3.5 mph SE5.6 kmh SE 3.5 mph5.6 kmh 28.29 in958.0 mb - 0.00 in0.0 mm 0.16 in4.1 mm
04:59 PM 44.1°F6.7°C 43.0°F6.1°C 96% 3.5 mph SE5.6 kmh SE 4.6 mph7.4 kmh 28.29 in958.0 mb - 0.00 in0.0 mm 0.16 in4.1 mm
05:00 PM 44.1°F6.7°C 43.0°F6.1°C 96% 3.5 mph SE5.6 kmh SE 4.6 mph7.4 kmh 28.29 in958.0 mb - 0.00 in0.0 mm 0.16 in4.1 mm
05:01 PM 44.1°F6.7°C 43.3°F6.3°C 97% 3.5 mph S5.6 kmh S 4.6 mph7.4 kmh 28.29 in958.0 mb - 0.00 in0.0 mm 0.16 in4.1 mm
05:02 PM 44.1°F6.7°C 43.3°F6.3°C 97% 3.5 mph SSE5.6 kmh SSE 4.6 mph7.4 kmh 28.29 in958.0 mb - 0.00 in0.0 mm 0.16 in4.1 mm
05:03 PM 44.1°F6.7°C 43.3°F6.3°C 97% 2.3 mph SW3.7 kmh SW 3.5 mph5.6 kmh 28.29 in958.0 mb - 0.00 in0.0 mm 0.16 in4.1 mm
05:04 PM 44.1°F6.7°C 43.3°F6.3°C 97% 3.5 mph S5.6 kmh S 5.8 mph9.3 kmh 28.29 in958.0 mb - 0.00 in0.0 mm 0.16 in4.1 mm
05:05 PM 44.1°F6.7°C 43.3°F6.3°C 97% 4.6 mph S7.4 kmh S 5.8 mph9.3 kmh 28.29 in958.0 mb - 0.00 in0.0 mm 0.16 in4.1 mm
05:06 PM 44.1°F6.7°C 43.3°F6.3°C 97% 4.6 mph S7.4 kmh S 5.8 mph9.3 kmh 28.29 in958.0 mb - 0.01 in0.3 mm 0.17 in4.3 mm
05:07 PM 44.1°F6.7°C 43.3°F6.3°C 97% 3.5 mph S5.6 kmh S 4.6 mph7.4 kmh 28.29 in958.0 mb - 0.01 in0.3 mm 0.17 in4.3 mm
05:08 PM 44.1°F6.7°C 43.3°F6.3°C 97% 3.5 mph S5.6 kmh S 5.8 mph9.3 kmh 28.29 in958.0 mb - 0.00 in0.0 mm 0.17 in4.3 mm
05:09 PM 44.1°F6.7°C 43.3°F6.3°C 97% 4.6 mph SSW7.4 kmh SSW 5.8 mph9.3 kmh 28.29 in958.0 mb - 0.00 in0.0 mm 0.17 in4.3 mm
05:10 PM 44.1°F6.7°C 43.3°F6.3°C 97% 3.5 mph S5.6 kmh S 3.5 mph5.6 kmh 28.29 in958.0 mb - 0.00 in0.0 mm 0.17 in4.3 mm
05:11 PM 44.1°F6.7°C 43.3°F6.3°C 97% 2.3 mph SE3.7 kmh SE 3.5 mph5.6 kmh 28.29 in958.0 mb - 0.00 in0.0 mm 0.17 in4.3 mm
05:12 PM 44.1°F6.7°C 43.3°F6.3°C 97% 2.3 mph SE3.7 kmh SE 2.3 mph3.7 kmh 28.29 in958.0 mb - 0.00 in0.0 mm 0.17 in4.3 mm
05:13 PM 44.1°F6.7°C 43.3°F6.3°C 97% 2.3 mph SW3.7 kmh SW 4.6 mph7.4 kmh 28.29 in958.0 mb - 0.00 in0.0 mm 0.17 in4.3 mm
05:14 PM 44.1°F6.7°C 43.3°F6.3°C 97% 3.5 mph ESE5.6 kmh ESE 4.6 mph7.4 kmh 28.29 in958.0 mb - 0.00 in0.0 mm 0.17 in4.3 mm
05:15 PM 44.1°F6.7°C 43.3°F6.3°C 97% 3.5 mph SE5.6 kmh SE 4.6 mph7.4 kmh 28.29 in958.0 mb - 0.00 in0.0 mm 0.17 in4.3 mm
05:16 PM 44.1°F6.7°C 43.3°F6.3°C 97% 3.5 mph E5.6 kmh E 4.6 mph7.4 kmh 28.29 in958.0 mb - 0.00 in0.0 mm 0.17 in4.3 mm
05:17 PM 44.1°F6.7°C 43.3°F6.3°C 97% 3.5 mph S5.6 kmh S 5.8 mph9.3 kmh 28.29 in958.0 mb - 0.00 in0.0 mm 0.17 in4.3 mm
05:18 PM 44.1°F6.7°C 43.3°F6.3°C 97% 3.5 mph SSE5.6 kmh SSE 5.8 mph9.3 kmh 28.29 in958.0 mb - 0.00 in0.0 mm 0.17 in4.3 mm
05:19 PM 44.1°F6.7°C 43.3°F6.3°C 97% 2.3 mph SSE3.7 kmh SSE 2.3 mph3.7 kmh 28.29 in958.0 mb - 0.00 in0.0 mm 0.17 in4.3 mm
05:20 PM 44.1°F6.7°C 43.3°F6.3°C 97% 3.5 mph S5.6 kmh S 5.8 mph9.3 kmh 28.29 in958.0 mb - 0.00 in0.0 mm 0.17 in4.3 mm
05:21 PM 44.1°F6.7°C 43.3°F6.3°C 97% 4.6 mph ESE7.4 kmh ESE 4.6 mph7.4 kmh 28.29 in958.0 mb - 0.00 in0.0 mm 0.17 in4.3 mm
05:22 PM 44.1°F6.7°C 43.3°F6.3°C 97% 3.5 mph SSE5.6 kmh SSE 4.6 mph7.4 kmh 28.29 in958.0 mb - 0.00 in0.0 mm 0.17 in4.3 mm
05:23 PM 44.1°F6.7°C 43.3°F6.3°C 97% 3.5 mph SE5.6 kmh SE 6.9 mph11.1 kmh 28.29 in958.0 mb - 0.01 in0.3 mm 0.18 in4.6 mm
05:24 PM 44.1°F6.7°C 43.3°F6.3°C 97% 4.6 mph SE7.4 kmh SE 4.6 mph7.4 kmh 28.29 in958.0 mb - 0.01 in0.3 mm 0.18 in4.6 mm
05:25 PM 44.1°F6.7°C 43.3°F6.3°C 97% 3.5 mph SE5.6 kmh SE 4.6 mph7.4 kmh 28.29 in958.0 mb - 0.00 in0.0 mm 0.18 in4.6 mm
05:26 PM 44.1°F6.7°C 43.3°F6.3°C 97% 3.5 mph SE5.6 kmh SE 5.8 mph9.3 kmh 28.29 in958.0 mb - 0.00 in0.0 mm 0.18 in4.6 mm
05:27 PM 44.1°F6.7°C 43.3°F6.3°C 97% 4.6 mph SE7.4 kmh SE 5.8 mph9.3 kmh 28.29 in958.0 mb - 0.00 in0.0 mm 0.18 in4.6 mm
05:28 PM 44.1°F6.7°C 43.3°F6.3°C 97% 4.6 mph SE7.4 kmh SE 5.8 mph9.3 kmh 28.29 in958.0 mb - 0.00 in0.0 mm 0.18 in4.6 mm
05:29 PM 44.1°F6.7°C 43.3°F6.3°C 97% 4.6 mph S7.4 kmh S 5.8 mph9.3 kmh 28.29 in958.0 mb - 0.00 in0.0 mm 0.18 in4.6 mm
05:30 PM 44.1°F6.7°C 43.3°F6.3°C 97% 4.6 mph SSE7.4 kmh SSE 5.8 mph9.3 kmh 28.29 in958.0 mb - 0.00 in0.0 mm 0.18 in4.6 mm
05:31 PM 44.1°F6.7°C 43.3°F6.3°C 97% 3.5 mph S5.6 kmh S 3.5 mph5.6 kmh 28.29 in958.0 mb - 0.00 in0.0 mm 0.18 in4.6 mm
05:32 PM 44.1°F6.7°C 43.3°F6.3°C 97% 3.5 mph S5.6 kmh S 5.8 mph9.3 kmh 28.29 in958.0 mb - 0.00 in0.0 mm 0.18 in4.6 mm
05:33 PM 44.1°F6.7°C 43.3°F6.3°C 97% 4.6 mph ESE7.4 kmh ESE 6.9 mph11.1 kmh 28.29 in958.0 mb - 0.00 in0.0 mm 0.18 in4.6 mm
05:34 PM 44.1°F6.7°C 43.3°F6.3°C 97% 4.6 mph SE7.4 kmh SE 6.9 mph11.1 kmh 28.29 in958.0 mb - 0.00 in0.0 mm 0.18 in4.6 mm
05:35 PM 44.1°F6.7°C 43.3°F6.3°C 97% 3.5 mph S5.6 kmh S 3.5 mph5.6 kmh 28.29 in958.0 mb - 0.00 in0.0 mm 0.18 in4.6 mm
05:36 PM 44.1°F6.7°C 43.3°F6.3°C 97% 2.3 mph S3.7 kmh S 3.5 mph5.6 kmh 28.29 in958.0 mb - 0.00 in0.0 mm 0.18 in4.6 mm
05:37 PM 44.1°F6.7°C 43.3°F6.3°C 97% 3.5 mph SE5.6 kmh SE 4.6 mph7.4 kmh 28.29 in958.0 mb - 0.00 in0.0 mm 0.18 in4.6 mm
05:38 PM 44.1°F6.7°C 43.3°F6.3°C 97% 3.5 mph SE5.6 kmh SE 3.5 mph5.6 kmh 28.29 in958.0 mb - 0.00 in0.0 mm 0.18 in4.6 mm
05:39 PM 44.1°F6.7°C 43.3°F6.3°C 97% 2.3 mph SE3.7 kmh SE 4.6 mph7.4 kmh 28.29 in958.0 mb - 0.00 in0.0 mm 0.18 in4.6 mm
05:40 PM 44.1°F6.7°C 43.3°F6.3°C 97% 3.5 mph SE5.6 kmh SE 4.6 mph7.4 kmh 28.29 in958.0 mb - 0.00 in0.0 mm 0.18 in4.6 mm
05:41 PM 44.1°F6.7°C 43.3°F6.3°C 97% 2.3 mph SE3.7 kmh SE 2.3 mph3.7 kmh 28.29 in958.0 mb - 0.00 in0.0 mm 0.18 in4.6 mm
05:42 PM 44.1°F6.7°C 43.3°F6.3°C 97% 2.3 mph SSE3.7 kmh SSE 3.5 mph5.6 kmh 28.29 in958.0 mb - 0.00 in0.0 mm 0.18 in4.6 mm
05:43 PM 44.1°F6.7°C 43.3°F6.3°C 97% 3.5 mph S5.6 kmh S 4.6 mph7.4 kmh 28.29 in958.0 mb - 0.00 in0.0 mm 0.18 in4.6 mm
05:44 PM 44.1°F6.7°C 43.3°F6.3°C 97% 3.5 mph SE5.6 kmh SE 5.8 mph9.3 kmh 28.29 in958.0 mb - 0.00 in0.0 mm 0.18 in4.6 mm
05:45 PM 44.1°F6.7°C 43.3°F6.3°C 97% 3.5 mph ESE5.6 kmh ESE 3.5 mph5.6 kmh 28.29 in958.0 mb - 0.00 in0.0 mm 0.18 in4.6 mm
05:46 PM 44.1°F6.7°C 43.3°F6.3°C 97% 2.3 mph SE3.7 kmh SE 6.9 mph11.1 kmh 28.29 in958.0 mb - 0.00 in0.0 mm 0.18 in4.6 mm
05:47 PM 44.1°F6.7°C 43.3°F6.3°C 97% 4.6 mph SSE7.4 kmh SSE 6.9 mph11.1 kmh 28.29 in958.0 mb - 0.00 in0.0 mm 0.18 in4.6 mm
05:48 PM 44.1°F6.7°C 43.3°F6.3°C 97% 4.6 mph SSE7.4 kmh SSE 4.6 mph7.4 kmh 28.29 in958.0 mb - 0.00 in0.0 mm 0.18 in4.6 mm
05:49 PM 44.1°F6.7°C 43.3°F6.3°C 97% 3.5 mph SE5.6 kmh SE 4.6 mph7.4 kmh 28.29 in958.0 mb - 0.00 in0.0 mm 0.18 in4.6 mm
05:50 PM 44.1°F6.7°C 43.3°F6.3°C 97% 3.5 mph SE5.6 kmh SE 3.5 mph5.6 kmh 28.29 in958.0 mb - 0.00 in0.0 mm 0.18 in4.6 mm
05:51 PM 44.1°F6.7°C 43.3°F6.3°C 97% 3.5 mph SE5.6 kmh SE 4.6 mph7.4 kmh 28.29 in958.0 mb - 0.00 in0.0 mm 0.18 in4.6 mm
05:52 PM 44.1°F6.7°C 43.3°F6.3°C 97% 3.5 mph S5.6 kmh S 4.6 mph7.4 kmh 28.29 in958.0 mb - 0.00 in0.0 mm 0.18 in4.6 mm
05:53 PM 44.1°F6.7°C 43.3°F6.3°C 97% 3.5 mph SSE5.6 kmh SSE 5.8 mph9.3 kmh 28.29 in958.0 mb - 0.00 in0.0 mm 0.18 in4.6 mm
05:54 PM 44.1°F6.7°C 43.3°F6.3°C 97% 4.6 mph SE7.4 kmh SE 4.6 mph7.4 kmh 28.29 in958.0 mb - 0.00 in0.0 mm 0.18 in4.6 mm
05:55 PM 44.1°F6.7°C 43.3°F6.3°C 97% 3.5 mph SE5.6 kmh SE 4.6 mph7.4 kmh 28.29 in958.0 mb - 0.00 in0.0 mm 0.18 in4.6 mm
05:56 PM 44.1°F6.7°C 43.3°F6.3°C 97% 2.3 mph E3.7 kmh E 3.5 mph5.6 kmh 28.29 in958.0 mb - 0.00 in0.0 mm 0.18 in4.6 mm
05:57 PM 44.1°F6.7°C 43.3°F6.3°C 97% 3.5 mph SE5.6 kmh SE 8.1 mph13.0 kmh 28.29 in958.0 mb - 0.00 in0.0 mm 0.18 in4.6 mm
05:58 PM 44.1°F6.7°C 43.3°F6.3°C 97% 4.6 mph S7.4 kmh S 5.8 mph9.3 kmh 28.29 in958.0 mb - 0.00 in0.0 mm 0.18 in4.6 mm
05:59 PM 44.1°F6.7°C 43.3°F6.3°C 97% 3.5 mph SE5.6 kmh SE 3.5 mph5.6 kmh 28.29 in958.0 mb - 0.00 in0.0 mm 0.18 in4.6 mm
06:00 PM 44.1°F6.7°C 43.3°F6.3°C 97% 3.5 mph ESE5.6 kmh ESE 3.5 mph5.6 kmh 28.29 in958.0 mb - 0.00 in0.0 mm 0.18 in4.6 mm
06:01 PM 44.1°F6.7°C 43.3°F6.3°C 97% 3.5 mph ESE5.6 kmh ESE 4.6 mph7.4 kmh 28.29 in958.0 mb - 0.00 in0.0 mm 0.18 in4.6 mm
06:02 PM 44.1°F6.7°C 43.3°F6.3°C 97% 3.5 mph ESE5.6 kmh ESE 5.8 mph9.3 kmh 28.29 in958.0 mb - 0.01 in0.3 mm 0.19 in4.8 mm
06:03 PM 44.1°F6.7°C 43.3°F6.3°C 97% 2.3 mph SE3.7 kmh SE 4.6 mph7.4 kmh 28.29 in958.0 mb - 0.01 in0.3 mm 0.19 in4.8 mm
06:04 PM 44.1°F6.7°C 43.3°F6.3°C 97% 2.3 mph SE3.7 kmh SE 3.5 mph5.6 kmh 28.29 in958.0 mb - 0.00 in0.0 mm 0.19 in4.8 mm
06:05 PM 44.1°F6.7°C 43.3°F6.3°C 97% 2.3 mph SE3.7 kmh SE 4.6 mph7.4 kmh 28.29 in958.0 mb - 0.00 in0.0 mm 0.19 in4.8 mm
06:06 PM 44.1°F6.7°C 43.3°F6.3°C 97% 3.5 mph ESE5.6 kmh ESE 4.6 mph7.4 kmh 28.29 in958.0 mb - 0.00 in0.0 mm 0.19 in4.8 mm
06:07 PM 44.1°F6.7°C 43.3°F6.3°C 97% 2.3 mph SE3.7 kmh SE 3.5 mph5.6 kmh 28.29 in958.0 mb - 0.00 in0.0 mm 0.19 in4.8 mm
06:08 PM 44.1°F6.7°C 43.3°F6.3°C 97% 2.3 mph SE3.7 kmh SE 3.5 mph5.6 kmh 28.29 in958.0 mb - 0.00 in0.0 mm 0.19 in4.8 mm
06:09 PM 44.1°F6.7°C 43.6°F6.4°C 98% 3.5 mph SE5.6 kmh SE 3.5 mph5.6 kmh 28.29 in958.0 mb - 0.00 in0.0 mm 0.19 in4.8 mm
06:10 PM 44.1°F6.7°C 43.6°F6.4°C 98% 2.3 mph SE3.7 kmh SE 3.5 mph5.6 kmh 28.29 in958.0 mb - 0.00 in0.0 mm 0.19 in4.8 mm
06:11 PM 44.1°F6.7°C 43.6°F6.4°C 98% 2.3 mph SE3.7 kmh SE 4.6 mph7.4 kmh 28.29 in958.0 mb - 0.00 in0.0 mm 0.19 in4.8 mm
06:12 PM 44.1°F6.7°C 43.6°F6.4°C 98% 2.3 mph SSE3.7 kmh SSE 3.5 mph5.6 kmh 28.29 in958.0 mb - 0.00 in0.0 mm 0.19 in4.8 mm
06:13 PM 44.1°F6.7°C 43.6°F6.4°C 98% 3.5 mph SE5.6 kmh SE 4.6 mph7.4 kmh 28.29 in958.0 mb - 0.00 in0.0 mm 0.19 in4.8 mm
06:14 PM 44.1°F6.7°C 43.6°F6.4°C 98% 3.5 mph ESE5.6 kmh ESE 4.6 mph7.4 kmh 28.29 in958.0 mb - 0.00 in0.0 mm 0.19 in4.8 mm
06:15 PM 44.1°F6.7°C 43.6°F6.4°C 98% 3.5 mph SE5.6 kmh SE 4.6 mph7.4 kmh 28.29 in958.0 mb - 0.00 in0.0 mm 0.19 in4.8 mm
06:16 PM 44.1°F6.7°C 43.6°F6.4°C 98% 3.5 mph SSE5.6 kmh SSE 4.6 mph7.4 kmh 28.29 in958.0 mb - 0.00 in0.0 mm 0.19 in4.8 mm
06:17 PM 44.1°F6.7°C 43.6°F6.4°C 98% 3.5 mph SE5.6 kmh SE 3.5 mph5.6 kmh 28.29 in958.0 mb - 0.00 in0.0 mm 0.19 in4.8 mm
06:18 PM 44.1°F6.7°C 43.6°F6.4°C 98% 3.5 mph SE5.6 kmh SE 4.6 mph7.4 kmh 28.29 in958.0 mb - 0.00 in0.0 mm 0.19 in4.8 mm
06:19 PM 44.1°F6.7°C 43.6°F6.4°C 98% 3.5 mph SE5.6 kmh SE 3.5 mph5.6 kmh 28.29 in958.0 mb - 0.00 in0.0 mm 0.19 in4.8 mm
06:20 PM 44.1°F6.7°C 43.6°F6.4°C 98% 2.3 mph SE3.7 kmh SE 3.5 mph5.6 kmh 28.29 in958.0 mb - 0.00 in0.0 mm 0.19 in4.8 mm
06:21 PM 44.1°F6.7°C 43.6°F6.4°C 98% 2.3 mph SE3.7 kmh SE 3.5 mph5.6 kmh 28.29 in958.0 mb - 0.00 in0.0 mm 0.19 in4.8 mm
06:22 PM 44.1°F6.7°C 43.6°F6.4°C 98% 2.3 mph SE3.7 kmh SE 2.3 mph3.7 kmh 28.29 in958.0 mb - 0.00 in0.0 mm 0.19 in4.8 mm
06:23 PM 44.1°F6.7°C 43.6°F6.4°C 98% 2.3 mph E3.7 kmh E 2.3 mph3.7 kmh 28.29 in958.0 mb - 0.00 in0.0 mm 0.19 in4.8 mm
06:24 PM 44.1°F6.7°C 43.6°F6.4°C 98% 2.3 mph E3.7 kmh E 2.3 mph3.7 kmh 28.29 in958.0 mb - 0.00 in0.0 mm 0.19 in4.8 mm
06:25 PM 44.1°F6.7°C 43.6°F6.4°C 98% 1.2 mph E1.9 kmh E 2.3 mph3.7 kmh 28.29 in958.0 mb - 0.00 in0.0 mm 0.19 in4.8 mm
06:26 PM 44.1°F6.7°C 43.6°F6.4°C 98% 1.2 mph NE1.9 kmh NE 2.3 mph3.7 kmh 28.29 in958.0 mb - 0.00 in0.0 mm 0.19 in4.8 mm
06:27 PM 44.1°F6.7°C 43.6°F6.4°C 98% Calm Calm -- 28.29 in958.0 mb - 0.00 in0.0 mm 0.19 in4.8 mm
06:28 PM 44.1°F6.7°C 43.6°F6.4°C 98% Calm Calm -- 28.29 in958.0 mb - 0.00 in0.0 mm 0.19 in4.8 mm
06:29 PM 44.1°F6.7°C 43.6°F6.4°C 98% Calm Calm -- 28.29 in958.0 mb - 0.00 in0.0 mm 0.19 in4.8 mm
06:30 PM 43.9°F6.6°C 43.4°F6.3°C 98% Calm Calm -- 28.29 in958.0 mb - 0.00 in0.0 mm 0.19 in4.8 mm
06:31 PM 43.9°F6.6°C 43.4°F6.3°C 98% Calm Calm 2.3 mph3.7 kmh 28.29 in958.0 mb - 0.00 in0.0 mm 0.19 in4.8 mm
06:32 PM 43.9°F6.6°C 43.4°F6.3°C 98% 1.2 mph ESE1.9 kmh ESE 2.3 mph3.7 kmh 28.29 in958.0 mb - 0.00 in0.0 mm 0.19 in4.8 mm
06:33 PM 43.9°F6.6°C 43.4°F6.3°C 98% 1.2 mph E1.9 kmh E 4.6 mph7.4 kmh 28.29 in958.0 mb - 0.00 in0.0 mm 0.19 in4.8 mm
06:34 PM 43.9°F6.6°C 43.4°F6.3°C 98% 2.3 mph SE3.7 kmh SE 4.6 mph7.4 kmh 28.29 in958.0 mb - 0.00 in0.0 mm 0.19 in4.8 mm
06:35 PM 43.9°F6.6°C 43.4°F6.3°C 98% 2.3 mph ESE3.7 kmh ESE 2.3 mph3.7 kmh 28.29 in958.0 mb - 0.00 in0.0 mm 0.19 in4.8 mm
06:36 PM 43.9°F6.6°C 43.4°F6.3°C 98% 1.2 mph SE1.9 kmh SE 1.2 mph1.9 kmh 28.29 in958.0 mb - 0.00 in0.0 mm 0.19 in4.8 mm
06:37 PM 43.9°F6.6°C 43.4°F6.3°C 98% Calm Calm 2.3 mph3.7 kmh 28.29 in958.0 mb - 0.00 in0.0 mm 0.19 in4.8 mm
06:38 PM 43.9°F6.6°C 43.4°F6.3°C 98% 1.2 mph E1.9 kmh E 1.2 mph1.9 kmh 28.29 in958.0 mb - 0.00 in0.0 mm 0.19 in4.8 mm
06:39 PM 43.8°F6.6°C 43.2°F6.2°C 98% 1.2 mph ESE1.9 kmh ESE 1.2 mph1.9 kmh 28.29 in958.0 mb - 0.00 in0.0 mm 0.19 in4.8 mm
06:40 PM 43.7°F6.5°C 43.2°F6.2°C 98% Calm Calm -- 28.29 in958.0 mb - 0.00 in0.0 mm 0.19 in4.8 mm
06:41 PM 43.7°F6.5°C 43.2°F6.2°C 98% 1.2 mph SE1.9 kmh SE 3.5 mph5.6 kmh 28.29 in958.0 mb - 0.00 in0.0 mm 0.19 in4.8 mm
06:42 PM 43.7°F6.5°C 43.2°F6.2°C 98% 2.3 mph SE3.7 kmh SE 3.5 mph5.6 kmh 28.29 in958.0 mb - 0.00 in0.0 mm 0.19 in4.8 mm
06:43 PM 43.7°F6.5°C 43.2°F6.2°C 98% 2.3 mph SE3.7 kmh SE 3.5 mph5.6 kmh 28.29 in958.0 mb - 0.00 in0.0 mm 0.19 in4.8 mm
06:44 PM 43.7°F6.5°C 43.2°F6.2°C 98% 2.3 mph SE3.7 kmh SE 3.5 mph5.6 kmh 28.29 in958.0 mb - 0.00 in0.0 mm 0.19 in4.8 mm
06:45 PM 43.7°F6.5°C 43.2°F6.2°C 98% 2.3 mph E3.7 kmh E 2.3 mph3.7 kmh 28.29 in958.0 mb - 0.00 in0.0 mm 0.19 in4.8 mm
06:46 PM 43.7°F6.5°C 43.2°F6.2°C 98% 1.2 mph SE1.9 kmh SE 2.3 mph3.7 kmh 28.29 in958.0 mb - 0.00 in0.0 mm 0.19 in4.8 mm
06:47 PM 43.7°F6.5°C 43.2°F6.2°C 98% 2.3 mph SE3.7 kmh SE 2.3 mph3.7 kmh 28.29 in958.0 mb - 0.00 in0.0 mm 0.19 in4.8 mm
06:48 PM 43.7°F6.5°C 43.2°F6.2°C 98% 2.3 mph SE3.7 kmh SE 5.8 mph9.3 kmh 28.29 in958.0 mb - 0.00 in0.0 mm 0.19 in4.8 mm
06:49 PM 43.7°F6.5°C 43.2°F6.2°C 98% 3.5 mph SE5.6 kmh SE 3.5 mph5.6 kmh 28.29 in958.0 mb - 0.00 in0.0 mm 0.19 in4.8 mm
06:50 PM 43.7°F6.5°C 43.2°F6.2°C 98% 2.3 mph ESE3.7 kmh ESE 2.3 mph3.7 kmh 28.29 in958.0 mb - 0.00 in0.0 mm 0.19 in4.8 mm
06:51 PM 43.7°F6.5°C 43.2°F6.2°C 98% 2.3 mph ESE3.7 kmh ESE 3.5 mph5.6 kmh 28.29 in958.0 mb - 0.00 in0.0 mm 0.19 in4.8 mm
06:52 PM 43.7°F6.5°C 43.2°F6.2°C 98% 2.3 mph SE3.7 kmh SE 4.6 mph7.4 kmh 28.29 in958.0 mb - 0.00 in0.0 mm 0.19 in4.8 mm
06:53 PM 43.7°F6.5°C 43.2°F6.2°C 98% 2.3 mph SE3.7 kmh SE 4.6 mph7.4 kmh 28.29 in958.0 mb - 0.00 in0.0 mm 0.19 in4.8 mm
06:54 PM 43.7°F6.5°C 43.2°F6.2°C 98% 2.3 mph SE3.7 kmh SE 2.3 mph3.7 kmh 28.29 in958.0 mb - 0.00 in0.0 mm 0.19 in4.8 mm
06:55 PM 43.7°F6.5°C 43.2°F6.2°C 98% 2.3 mph ESE3.7 kmh ESE 2.3 mph3.7 kmh 28.29 in958.0 mb - 0.00 in0.0 mm 0.19 in4.8 mm
06:56 PM 43.7°F6.5°C 43.2°F6.2°C 98% 2.3 mph SSE3.7 kmh SSE 2.3 mph3.7 kmh 28.29 in958.0 mb - 0.00 in0.0 mm 0.19 in4.8 mm
06:57 PM 43.7°F6.5°C 43.2°F6.2°C 98% 2.3 mph SE3.7 kmh SE 3.5 mph5.6 kmh 28.29 in958.0 mb - 0.00 in0.0 mm 0.19 in4.8 mm
06:58 PM 43.7°F6.5°C 43.2°F6.2°C 98% 2.3 mph SE3.7 kmh SE 2.3 mph3.7 kmh 28.29 in958.0 mb - 0.00 in0.0 mm 0.19 in4.8 mm
06:59 PM 43.7°F6.5°C 43.2°F6.2°C 98% 2.3 mph S3.7 kmh S 2.3 mph3.7 kmh 28.29 in958.0 mb - 0.00 in0.0 mm 0.19 in4.8 mm
07:00 PM 43.7°F6.5°C 43.2°F6.2°C 98% 1.2 mph SE1.9 kmh SE 2.3 mph3.7 kmh 28.29 in958.0 mb - 0.00 in0.0 mm 0.19 in4.8 mm
07:01 PM 43.7°F6.5°C 43.2°F6.2°C 98% 1.2 mph SE1.9 kmh SE 2.3 mph3.7 kmh 28.29 in958.0 mb - 0.00 in0.0 mm 0.19 in4.8 mm
07:02 PM 43.7°F6.5°C 43.2°F6.2°C 98% 2.3 mph SE3.7 kmh SE 3.5 mph5.6 kmh 28.29 in958.0 mb - 0.00 in0.0 mm 0.19 in4.8 mm
07:03 PM 43.7°F6.5°C 43.2°F6.2°C 98% 3.5 mph ESE5.6 kmh ESE 4.6 mph7.4 kmh 28.29 in958.0 mb - 0.00 in0.0 mm 0.19 in4.8 mm
07:04 PM 43.7°F6.5°C 43.2°F6.2°C 98% 3.5 mph ESE5.6 kmh ESE 4.6 mph7.4 kmh 28.29 in958.0 mb - 0.00 in0.0 mm 0.19 in4.8 mm
07:05 PM 43.7°F6.5°C 43.2°F6.2°C 98% 2.3 mph S3.7 kmh S 2.3 mph3.7 kmh 28.29 in958.0 mb - 0.00 in0.0 mm 0.19 in4.8 mm
07:06 PM 43.7°F6.5°C 43.2°F6.2°C 98% 2.3 mph SSE3.7 kmh SSE 1.2 mph1.9 kmh 28.29 in958.0 mb - 0.00 in0.0 mm 0.19 in4.8 mm
07:07 PM 43.7°F6.5°C 43.2°F6.2°C 98% 1.2 mph E1.9 kmh E 2.3 mph3.7 kmh 28.29 in958.0 mb - 0.00 in0.0 mm 0.19 in4.8 mm
07:08 PM 43.7°F6.5°C 43.2°F6.2°C 98% 2.3 mph SSE3.7 kmh SSE 2.3 mph3.7 kmh 28.29 in958.0 mb - 0.00 in0.0 mm 0.19 in4.8 mm
07:09 PM 43.7°F6.5°C 43.2°F6.2°C 98% 2.3 mph SE3.7 kmh SE 2.3 mph3.7 kmh 28.29 in958.0 mb - 0.00 in0.0 mm 0.19 in4.8 mm
07:10 PM 43.7°F6.5°C 43.2°F6.2°C 98% 2.3 mph ESE3.7 kmh ESE 2.3 mph3.7 kmh 28.29 in958.0 mb - 0.00 in0.0 mm 0.19 in4.8 mm
07:11 PM 43.7°F6.5°C 43.2°F6.2°C 98% 1.2 mph ESE1.9 kmh ESE 2.3 mph3.7 kmh 28.29 in958.0 mb - 0.00 in0.0 mm 0.19 in4.8 mm
07:12 PM 43.7°F6.5°C 43.2°F6.2°C 98% 1.2 mph SSE1.9 kmh SSE 1.2 mph1.9 kmh 28.29 in958.0 mb - 0.00 in0.0 mm 0.19 in4.8 mm
07:13 PM 43.7°F6.5°C 43.2°F6.2°C 98% Calm Calm -- 28.29 in958.0 mb - 0.00 in0.0 mm 0.19 in4.8 mm
07:14 PM 43.7°F6.5°C 43.2°F6.2°C 98% 1.2 mph SE1.9 kmh SE 2.3 mph3.7 kmh 28.29 in958.0 mb - 0.00 in0.0 mm 0.19 in4.8 mm
07:15 PM 43.7°F6.5°C 43.2°F6.2°C 98% 1.2 mph E1.9 kmh E 1.2 mph1.9 kmh 28.29 in958.0 mb - 0.00 in0.0 mm 0.19 in4.8 mm
07:16 PM 43.7°F6.5°C 43.2°F6.2°C 98% 1.2 mph SE1.9 kmh SE 2.3 mph3.7 kmh 28.29 in958.0 mb - 0.00 in0.0 mm 0.19 in4.8 mm
07:17 PM 43.7°F6.5°C 43.2°F6.2°C 98% 1.2 mph E1.9 kmh E -- 28.29 in958.0 mb - 0.00 in0.0 mm 0.19 in4.8 mm
07:18 PM 43.7°F6.5°C 43.2°F6.2°C 98% Calm Calm -- 28.29 in958.0 mb - 0.00 in0.0 mm 0.19 in4.8 mm
07:19 PM 43.7°F6.5°C 43.2°F6.2°C 98% Calm Calm -- 28.29 in958.0 mb - 0.00 in0.0 mm 0.19 in4.8 mm
07:20 PM 43.7°F6.5°C 43.2°F6.2°C 98% Calm Calm -- 28.29 in958.0 mb - 0.00 in0.0 mm 0.19 in4.8 mm
07:21 PM 43.7°F6.5°C 43.2°F6.2°C 98% Calm Calm -- 28.29 in958.0 mb - 0.00 in0.0 mm 0.19 in4.8 mm
07:22 PM 43.7°F6.5°C 43.2°F6.2°C 98% Calm Calm -- 28.29 in958.0 mb - 0.00 in0.0 mm 0.19 in4.8 mm
07:23 PM 43.7°F6.5°C 43.2°F6.2°C 98% Calm Calm 2.3 mph3.7 kmh 28.29 in958.0 mb - 0.00 in0.0 mm 0.19 in4.8 mm
07:24 PM 43.7°F6.5°C 43.2°F6.2°C 98% 1.2 mph SE1.9 kmh SE 3.5 mph5.6 kmh 28.29 in958.0 mb - 0.00 in0.0 mm 0.19 in4.8 mm
07:25 PM 43.7°F6.5°C 43.2°F6.2°C 98% 2.3 mph S3.7 kmh S 2.3 mph3.7 kmh 28.29 in958.0 mb - 0.00 in0.0 mm 0.19 in4.8 mm
07:26 PM 43.7°F6.5°C 43.2°F6.2°C 98% 1.2 mph E1.9 kmh E 1.2 mph1.9 kmh 28.30 in958.3 mb - 0.00 in0.0 mm 0.19 in4.8 mm
07:27 PM 43.7°F6.5°C 43.2°F6.2°C 98% Calm Calm -- 28.30 in958.3 mb - 0.00 in0.0 mm 0.19 in4.8 mm
07:28 PM 43.7°F6.5°C 43.2°F6.2°C 98% 1.2 mph ESE1.9 kmh ESE 2.3 mph3.7 kmh 28.30 in958.3 mb - 0.00 in0.0 mm 0.19 in4.8 mm
07:29 PM 43.7°F6.5°C 43.2°F6.2°C 98% 2.3 mph SE3.7 kmh SE 3.5 mph5.6 kmh 28.30 in958.3 mb - 0.00 in0.0 mm 0.19 in4.8 mm
07:30 PM 43.7°F6.5°C 43.2°F6.2°C 98% 2.3 mph SE3.7 kmh SE 2.3 mph3.7 kmh 28.30 in958.3 mb - 0.00 in0.0 mm 0.19 in4.8 mm
07:31 PM 43.7°F6.5°C 43.2°F6.2°C 98% 2.3 mph SE3.7 kmh SE 2.3 mph3.7 kmh 28.30 in958.3 mb - 0.00 in0.0 mm 0.19 in4.8 mm
07:32 PM 43.7°F6.5°C 43.2°F6.2°C 98% 1.2 mph E1.9 kmh E 1.2 mph1.9 kmh 28.30 in958.3 mb - 0.00 in0.0 mm 0.19 in4.8 mm
07:33 PM 43.7°F6.5°C 43.2°F6.2°C 98% Calm Calm -- 28.30 in958.3 mb - 0.00 in0.0 mm 0.19 in4.8 mm
07:34 PM 43.7°F6.5°C 43.2°F6.2°C 98% Calm Calm 1.2 mph1.9 kmh 28.30 in958.3 mb - 0.00 in0.0 mm 0.19 in4.8 mm
07:35 PM 43.7°F6.5°C 43.2°F6.2°C 98% 1.2 mph E1.9 kmh E 2.3 mph3.7 kmh 28.30 in958.3 mb - 0.00 in0.0 mm 0.19 in4.8 mm
07:36 PM 43.7°F6.5°C 43.2°F6.2°C 98% 1.2 mph ESE1.9 kmh ESE 2.3 mph3.7 kmh 28.30 in958.3 mb - 0.00 in0.0 mm 0.19 in4.8 mm
07:37 PM 43.7°F6.5°C 43.2°F6.2°C 98% 2.3 mph S3.7 kmh S 2.3 mph3.7 kmh 28.30 in958.3 mb - 0.00 in0.0 mm 0.19 in4.8 mm
07:38 PM 43.7°F6.5°C 43.2°F6.2°C 98% 2.3 mph SE3.7 kmh SE 3.5 mph5.6 kmh 28.30 in958.3 mb - 0.00 in0.0 mm 0.19 in4.8 mm
07:39 PM 43.7°F6.5°C 43.2°F6.2°C 98% 2.3 mph E3.7 kmh E 2.3 mph3.7 kmh 28.30 in958.3 mb - 0.00 in0.0 mm 0.19 in4.8 mm
07:40 PM 43.7°F6.5°C 43.2°F6.2°C 98% 1.2 mph E1.9 kmh E 1.2 mph1.9 kmh 28.30 in958.3 mb - 0.00 in0.0 mm 0.19 in4.8 mm
07:41 PM 43.7°F6.5°C 43.2°F6.2°C 98% 1.2 mph E1.9 kmh E 3.5 mph5.6 kmh 28.30 in958.3 mb - 0.00 in0.0 mm 0.19 in4.8 mm
07:42 PM 43.7°F6.5°C 43.2°F6.2°C 98% 2.3 mph E3.7 kmh E 2.3 mph3.7 kmh 28.30 in958.3 mb - 0.00 in0.0 mm 0.19 in4.8 mm
07:43 PM 43.7°F6.5°C 43.2°F6.2°C 98% 2.3 mph SE3.7 kmh SE 2.3 mph3.7 kmh 28.30 in958.3 mb - 0.00 in0.0 mm 0.19 in4.8 mm
07:44 PM 43.7°F6.5°C 43.2°F6.2°C 98% 1.2 mph SE1.9 kmh SE 2.3 mph3.7 kmh 28.30 in958.3 mb - 0.00 in0.0 mm 0.19 in4.8 mm
07:45 PM 43.7°F6.5°C 43.2°F6.2°C 98% 1.2 mph SE1.9 kmh SE 2.3 mph3.7 kmh 28.30 in958.3 mb - 0.00 in0.0 mm 0.19 in4.8 mm
07:46 PM 43.7°F6.5°C 43.2°F6.2°C 98% 2.3 mph SE3.7 kmh SE 2.3 mph3.7 kmh 28.30 in958.3 mb - 0.00 in0.0 mm 0.19 in4.8 mm
07:47 PM 43.7°F6.5°C 43.2°F6.2°C 98% 2.3 mph S3.7 kmh S 2.3 mph3.7 kmh 28.30 in958.3 mb - 0.00 in0.0 mm 0.19 in4.8 mm
07:48 PM 43.7°F6.5°C 43.2°F6.2°C 98% 2.3 mph ESE3.7 kmh ESE 2.3 mph3.7 kmh 28.30 in958.3 mb - 0.00 in0.0 mm 0.19 in4.8 mm
07:49 PM 43.7°F6.5°C 43.2°F6.2°C 98% Calm Calm 1.2 mph1.9 kmh 28.30 in958.3 mb - 0.00 in0.0 mm 0.19 in4.8 mm
07:50 PM 43.7°F6.5°C 43.2°F6.2°C 98% 1.2 mph SSE1.9 kmh SSE 3.5 mph5.6 kmh 28.30 in958.3 mb - 0.00 in0.0 mm 0.19 in4.8 mm
07:51 PM 43.7°F6.5°C 43.2°F6.2°C 98% 2.3 mph S3.7 kmh S 1.2 mph1.9 kmh 28.30 in958.3 mb - 0.00 in0.0 mm 0.19 in4.8 mm
07:52 PM 43.7°F6.5°C 43.2°F6.2°C 98% Calm Calm -- 28.30 in958.3 mb - 0.00 in0.0 mm 0.19 in4.8 mm
07:53 PM 43.7°F6.5°C 43.2°F6.2°C 98% Calm Calm -- 28.30 in958.3 mb - 0.00 in0.0 mm 0.19 in4.8 mm
07:54 PM 43.7°F6.5°C 43.2°F6.2°C 98% Calm Calm -- 28.30 in958.3 mb - 0.00 in0.0 mm 0.19 in4.8 mm
07:55 PM 43.7°F6.5°C 43.2°F6.2°C 98% Calm Calm -- 28.30 in958.3 mb - 0.00 in0.0 mm 0.19 in4.8 mm
07:56 PM 43.7°F6.5°C 43.2°F6.2°C 98% Calm Calm -- 28.30 in